<?xml version="1.0" encoding="UTF-8" standalone="no" ?>
<gpx xmlns="http://www.topografix.com/GPX/1/1" xmlns:xsi="http://www.w3.org/2001/XMLSchema-instance" xsi:schemaLocation="http://www.topografix.com/GPX/1/1 http://www.topografix.com/GPX/1/1/gpx.xsd" version="1.1" creator="VisuGPX - https://www.visugpx.com">
  <metadata>
    <name>410_Circuit 94 km Les Herbiers_Les Herbiers édité par cth85.com</name>
    <desc><![CDATA[Circuit de 94 km passant par;
Les Herbiers
D23 Beaurepaire
les roussières, D6 Bazoges en Paillers
D23 direction La Boissière sur 2 km
à gauche, route de l'eden, D62, le pont léger
àprès le pont, à droite, la dragonnière,
à droite, Saint Georges de Montaigu
Montaigu
D753 Treize Septiers
D62 La Boissière de Montaigu
D72 Les Landes Genusson
D37 Tiffauges
tous vents, les noues, D111
Saint Aubin des Ormeaux
D53 pendant 4 km, à droite
Evrunes
Mortagne sur Sèvre
D2006 La Verrie
D6 La Gaubretière
D755 Les Herbiers]]></desc>
  </metadata>
  <trk>
    <name><![CDATA[94_410-cth85.com]]></name>
    <extensions>
      <line xmlns="http://www.topografix.com/GPX/gpx_style/0/2">
        <color>0000FF</color>
        <width>4</width>
      </line>
    </extensions>
    <trkseg>
      <trkpt lat="46.8637" lon="-1.00575">
        <ele>120</ele>
        <time>2023-03-04T11:22:46Z</time>
      </trkpt>
      <trkpt lat="46.86381" lon="-1.00562">
        <ele>120</ele>
        <time>2023-03-04T11:22:49Z</time>
      </trkpt>
      <trkpt lat="46.86391" lon="-1.00556">
        <ele>120</ele>
        <time>2023-03-04T11:22:50Z</time>
      </trkpt>
      <trkpt lat="46.86426" lon="-1.00564">
        <ele>120</ele>
        <time>2023-03-04T11:22:57Z</time>
      </trkpt>
      <trkpt lat="46.86461" lon="-1.00561">
        <ele>120</ele>
        <time>2023-03-04T11:23:03Z</time>
      </trkpt>
      <trkpt lat="46.86495" lon="-1.00567">
        <ele>119</ele>
        <time>2023-03-04T11:23:09Z</time>
      </trkpt>
      <trkpt lat="46.86523" lon="-1.00577">
        <ele>118</ele>
        <time>2023-03-04T11:23:14Z</time>
      </trkpt>
      <trkpt lat="46.86573" lon="-1.00609">
        <ele>117</ele>
        <time>2023-03-04T11:23:24Z</time>
      </trkpt>
      <trkpt lat="46.86595" lon="-1.00621">
        <ele>116</ele>
        <time>2023-03-04T11:23:28Z</time>
      </trkpt>
      <trkpt lat="46.86664" lon="-1.00646">
        <ele>111</ele>
        <time>2023-03-04T11:23:41Z</time>
      </trkpt>
      <trkpt lat="46.86708" lon="-1.0066">
        <ele>111</ele>
        <time>2023-03-04T11:23:49Z</time>
      </trkpt>
      <trkpt lat="46.86712" lon="-1.00666">
        <ele>111</ele>
        <time>2023-03-04T11:23:50Z</time>
      </trkpt>
      <trkpt lat="46.86714" lon="-1.00674">
        <ele>111</ele>
        <time>2023-03-04T11:23:51Z</time>
      </trkpt>
      <trkpt lat="46.86765" lon="-1.00654">
        <ele>111</ele>
        <time>2023-03-04T11:24:00Z</time>
      </trkpt>
      <trkpt lat="46.86836" lon="-1.00634">
        <ele>112</ele>
        <time>2023-03-04T11:24:13Z</time>
      </trkpt>
      <trkpt lat="46.86853" lon="-1.00633">
        <ele>112</ele>
        <time>2023-03-04T11:24:16Z</time>
      </trkpt>
      <trkpt lat="46.86937" lon="-1.00661">
        <ele>109</ele>
        <time>2023-03-04T11:24:31Z</time>
      </trkpt>
      <trkpt lat="46.86948" lon="-1.00671">
        <ele>109</ele>
        <time>2023-03-04T11:24:34Z</time>
      </trkpt>
      <trkpt lat="46.86983" lon="-1.00859">
        <ele>105</ele>
        <time>2023-03-04T11:24:57Z</time>
      </trkpt>
      <trkpt lat="46.86999" lon="-1.00914">
        <ele>103</ele>
        <time>2023-03-04T11:25:05Z</time>
      </trkpt>
      <trkpt lat="46.87" lon="-1.00931">
        <ele>103</ele>
        <time>2023-03-04T11:25:07Z</time>
      </trkpt>
      <trkpt lat="46.87006" lon="-1.00942">
        <ele>102</ele>
        <time>2023-03-04T11:25:08Z</time>
      </trkpt>
      <trkpt lat="46.8704" lon="-1.0106">
        <ele>102</ele>
        <time>2023-03-04T11:25:24Z</time>
      </trkpt>
      <trkpt lat="46.87114" lon="-1.01307">
        <ele>108</ele>
        <time>2023-03-04T11:25:57Z</time>
      </trkpt>
      <trkpt lat="46.87115" lon="-1.0132">
        <ele>108</ele>
        <time>2023-03-04T11:25:58Z</time>
      </trkpt>
      <trkpt lat="46.87143" lon="-1.01312">
        <ele>109</ele>
        <time>2023-03-04T11:26:04Z</time>
      </trkpt>
      <trkpt lat="46.87211" lon="-1.01301">
        <ele>110</ele>
        <time>2023-03-04T11:26:16Z</time>
      </trkpt>
      <trkpt lat="46.8728" lon="-1.01272">
        <ele>110</ele>
        <time>2023-03-04T11:26:28Z</time>
      </trkpt>
      <trkpt lat="46.87288" lon="-1.01272">
        <ele>110</ele>
        <time>2023-03-04T11:26:30Z</time>
      </trkpt>
      <trkpt lat="46.87295" lon="-1.01275">
        <ele>110</ele>
        <time>2023-03-04T11:26:31Z</time>
      </trkpt>
      <trkpt lat="46.87303" lon="-1.01285">
        <ele>110</ele>
        <time>2023-03-04T11:26:33Z</time>
      </trkpt>
      <trkpt lat="46.87307" lon="-1.01302">
        <ele>111</ele>
        <time>2023-03-04T11:26:35Z</time>
      </trkpt>
      <trkpt lat="46.87325" lon="-1.01387">
        <ele>113</ele>
        <time>2023-03-04T11:26:46Z</time>
      </trkpt>
      <trkpt lat="46.87325" lon="-1.01397">
        <ele>113</ele>
        <time>2023-03-04T11:26:47Z</time>
      </trkpt>
      <trkpt lat="46.87329" lon="-1.0141">
        <ele>114</ele>
        <time>2023-03-04T11:26:49Z</time>
      </trkpt>
      <trkpt lat="46.87343" lon="-1.01481">
        <ele>115</ele>
        <time>2023-03-04T11:26:58Z</time>
      </trkpt>
      <trkpt lat="46.87336" lon="-1.01489">
        <ele>115</ele>
        <time>2023-03-04T11:27:00Z</time>
      </trkpt>
      <trkpt lat="46.87317" lon="-1.01498">
        <ele>115</ele>
        <time>2023-03-04T11:27:03Z</time>
      </trkpt>
      <trkpt lat="46.87283" lon="-1.0151">
        <ele>115</ele>
        <time>2023-03-04T11:27:09Z</time>
      </trkpt>
      <trkpt lat="46.87204" lon="-1.01532">
        <ele>113</ele>
        <time>2023-03-04T11:27:24Z</time>
      </trkpt>
      <trkpt lat="46.87206" lon="-1.01546">
        <ele>113</ele>
        <time>2023-03-04T11:27:25Z</time>
      </trkpt>
      <trkpt lat="46.87215" lon="-1.01585">
        <ele>114</ele>
        <time>2023-03-04T11:27:30Z</time>
      </trkpt>
      <trkpt lat="46.87216" lon="-1.01642">
        <ele>114</ele>
        <time>2023-03-04T11:27:37Z</time>
      </trkpt>
      <trkpt lat="46.87212" lon="-1.01656">
        <ele>114</ele>
        <time>2023-03-04T11:27:39Z</time>
      </trkpt>
      <trkpt lat="46.87215" lon="-1.01705">
        <ele>114</ele>
        <time>2023-03-04T11:27:45Z</time>
      </trkpt>
      <trkpt lat="46.87229" lon="-1.01816">
        <ele>113</ele>
        <time>2023-03-04T11:27:59Z</time>
      </trkpt>
      <trkpt lat="46.87246" lon="-1.01899">
        <ele>111</ele>
        <time>2023-03-04T11:28:09Z</time>
      </trkpt>
      <trkpt lat="46.87255" lon="-1.01935">
        <ele>111</ele>
        <time>2023-03-04T11:28:14Z</time>
      </trkpt>
      <trkpt lat="46.87272" lon="-1.01982">
        <ele>110</ele>
        <time>2023-03-04T11:28:21Z</time>
      </trkpt>
      <trkpt lat="46.87309" lon="-1.02075">
        <ele>109</ele>
        <time>2023-03-04T11:28:34Z</time>
      </trkpt>
      <trkpt lat="46.8735" lon="-1.02185">
        <ele>109</ele>
        <time>2023-03-04T11:28:49Z</time>
      </trkpt>
      <trkpt lat="46.87361" lon="-1.02205">
        <ele>109</ele>
        <time>2023-03-04T11:28:52Z</time>
      </trkpt>
      <trkpt lat="46.87404" lon="-1.02262">
        <ele>107</ele>
        <time>2023-03-04T11:29:02Z</time>
      </trkpt>
      <trkpt lat="46.87453" lon="-1.02313">
        <ele>107</ele>
        <time>2023-03-04T11:29:13Z</time>
      </trkpt>
      <trkpt lat="46.87472" lon="-1.02348">
        <ele>106</ele>
        <time>2023-03-04T11:29:19Z</time>
      </trkpt>
      <trkpt lat="46.87494" lon="-1.02414">
        <ele>105</ele>
        <time>2023-03-04T11:29:27Z</time>
      </trkpt>
      <trkpt lat="46.875" lon="-1.02426">
        <ele>105</ele>
        <time>2023-03-04T11:29:29Z</time>
      </trkpt>
      <trkpt lat="46.87511" lon="-1.02437">
        <ele>105</ele>
        <time>2023-03-04T11:29:32Z</time>
      </trkpt>
      <trkpt lat="46.87523" lon="-1.02443">
        <ele>105</ele>
        <time>2023-03-04T11:29:34Z</time>
      </trkpt>
      <trkpt lat="46.87527" lon="-1.02447">
        <ele>105</ele>
        <time>2023-03-04T11:29:35Z</time>
      </trkpt>
      <trkpt lat="46.87532" lon="-1.02464">
        <ele>106</ele>
        <time>2023-03-04T11:29:37Z</time>
      </trkpt>
      <trkpt lat="46.87532" lon="-1.02476">
        <ele>106</ele>
        <time>2023-03-04T11:29:38Z</time>
      </trkpt>
      <trkpt lat="46.87542" lon="-1.0252">
        <ele>106</ele>
        <time>2023-03-04T11:29:44Z</time>
      </trkpt>
      <trkpt lat="46.87562" lon="-1.02587">
        <ele>105</ele>
        <time>2023-03-04T11:29:53Z</time>
      </trkpt>
      <trkpt lat="46.87577" lon="-1.02626">
        <ele>105</ele>
        <time>2023-03-04T11:29:58Z</time>
      </trkpt>
      <trkpt lat="46.87597" lon="-1.02662">
        <ele>105</ele>
        <time>2023-03-04T11:30:04Z</time>
      </trkpt>
      <trkpt lat="46.87602" lon="-1.02668">
        <ele>105</ele>
        <time>2023-03-04T11:30:05Z</time>
      </trkpt>
      <trkpt lat="46.87607" lon="-1.02669">
        <ele>106</ele>
        <time>2023-03-04T11:30:06Z</time>
      </trkpt>
      <trkpt lat="46.8761" lon="-1.02672">
        <ele>106</ele>
        <time>2023-03-04T11:30:07Z</time>
      </trkpt>
      <trkpt lat="46.87612" lon="-1.0268">
        <ele>106</ele>
        <time>2023-03-04T11:30:08Z</time>
      </trkpt>
      <trkpt lat="46.87621" lon="-1.02702">
        <ele>108</ele>
        <time>2023-03-04T11:30:11Z</time>
      </trkpt>
      <trkpt lat="46.87666" lon="-1.0279">
        <ele>111</ele>
        <time>2023-03-04T11:30:24Z</time>
      </trkpt>
      <trkpt lat="46.87689" lon="-1.02832">
        <ele>112</ele>
        <time>2023-03-04T11:30:31Z</time>
      </trkpt>
      <trkpt lat="46.8773" lon="-1.02895">
        <ele>113</ele>
        <time>2023-03-04T11:30:41Z</time>
      </trkpt>
      <trkpt lat="46.87829" lon="-1.03016">
        <ele>114</ele>
        <time>2023-03-04T11:31:04Z</time>
      </trkpt>
      <trkpt lat="46.8786" lon="-1.03063">
        <ele>113</ele>
        <time>2023-03-04T11:31:12Z</time>
      </trkpt>
      <trkpt lat="46.87923" lon="-1.03178">
        <ele>112</ele>
        <time>2023-03-04T11:31:30Z</time>
      </trkpt>
      <trkpt lat="46.88003" lon="-1.03299">
        <ele>109</ele>
        <time>2023-03-04T11:31:51Z</time>
      </trkpt>
      <trkpt lat="46.88009" lon="-1.03293">
        <ele>109</ele>
        <time>2023-03-04T11:31:52Z</time>
      </trkpt>
      <trkpt lat="46.88022" lon="-1.03288">
        <ele>109</ele>
        <time>2023-03-04T11:31:54Z</time>
      </trkpt>
      <trkpt lat="46.88029" lon="-1.03289">
        <ele>109</ele>
        <time>2023-03-04T11:31:56Z</time>
      </trkpt>
      <trkpt lat="46.88042" lon="-1.03298">
        <ele>108</ele>
        <time>2023-03-04T11:31:58Z</time>
      </trkpt>
      <trkpt lat="46.88049" lon="-1.03315">
        <ele>108</ele>
        <time>2023-03-04T11:32:01Z</time>
      </trkpt>
      <trkpt lat="46.8805" lon="-1.03335">
        <ele>107</ele>
        <time>2023-03-04T11:32:03Z</time>
      </trkpt>
      <trkpt lat="46.88045" lon="-1.03354">
        <ele>107</ele>
        <time>2023-03-04T11:32:06Z</time>
      </trkpt>
      <trkpt lat="46.88087" lon="-1.03391">
        <ele>107</ele>
        <time>2023-03-04T11:32:14Z</time>
      </trkpt>
      <trkpt lat="46.8822" lon="-1.03489">
        <ele>107</ele>
        <time>2023-03-04T11:32:41Z</time>
      </trkpt>
      <trkpt lat="46.88247" lon="-1.03513">
        <ele>107</ele>
        <time>2023-03-04T11:32:46Z</time>
      </trkpt>
      <trkpt lat="46.88316" lon="-1.03583">
        <ele>108</ele>
        <time>2023-03-04T11:33:01Z</time>
      </trkpt>
      <trkpt lat="46.88701" lon="-1.03975">
        <ele>105</ele>
        <time>2023-03-04T11:34:25Z</time>
      </trkpt>
      <trkpt lat="46.88714" lon="-1.03984">
        <ele>105</ele>
        <time>2023-03-04T11:34:27Z</time>
      </trkpt>
      <trkpt lat="46.88717" lon="-1.03978">
        <ele>105</ele>
        <time>2023-03-04T11:34:28Z</time>
      </trkpt>
      <trkpt lat="46.88725" lon="-1.0397">
        <ele>105</ele>
        <time>2023-03-04T11:34:30Z</time>
      </trkpt>
      <trkpt lat="46.88732" lon="-1.03969">
        <ele>106</ele>
        <time>2023-03-04T11:34:31Z</time>
      </trkpt>
      <trkpt lat="46.8874" lon="-1.03973">
        <ele>106</ele>
        <time>2023-03-04T11:34:33Z</time>
      </trkpt>
      <trkpt lat="46.88745" lon="-1.0398">
        <ele>106</ele>
        <time>2023-03-04T11:34:34Z</time>
      </trkpt>
      <trkpt lat="46.88747" lon="-1.03989">
        <ele>106</ele>
        <time>2023-03-04T11:34:35Z</time>
      </trkpt>
      <trkpt lat="46.88748" lon="-1.03996">
        <ele>106</ele>
        <time>2023-03-04T11:34:36Z</time>
      </trkpt>
      <trkpt lat="46.88745" lon="-1.04009">
        <ele>106</ele>
        <time>2023-03-04T11:34:38Z</time>
      </trkpt>
      <trkpt lat="46.88737" lon="-1.04018">
        <ele>105</ele>
        <time>2023-03-04T11:34:39Z</time>
      </trkpt>
      <trkpt lat="46.88862" lon="-1.04402">
        <ele>103</ele>
        <time>2023-03-04T11:35:31Z</time>
      </trkpt>
      <trkpt lat="46.88925" lon="-1.04603">
        <ele>104</ele>
        <time>2023-03-04T11:35:58Z</time>
      </trkpt>
      <trkpt lat="46.88941" lon="-1.04648">
        <ele>103</ele>
        <time>2023-03-04T11:36:04Z</time>
      </trkpt>
      <trkpt lat="46.88957" lon="-1.04684">
        <ele>102</ele>
        <time>2023-03-04T11:36:09Z</time>
      </trkpt>
      <trkpt lat="46.88985" lon="-1.04729">
        <ele>102</ele>
        <time>2023-03-04T11:36:17Z</time>
      </trkpt>
      <trkpt lat="46.89137" lon="-1.04946">
        <ele>103</ele>
        <time>2023-03-04T11:36:55Z</time>
      </trkpt>
      <trkpt lat="46.89164" lon="-1.0499">
        <ele>103</ele>
        <time>2023-03-04T11:37:02Z</time>
      </trkpt>
      <trkpt lat="46.8932" lon="-1.05334">
        <ele>102</ele>
        <time>2023-03-04T11:37:52Z</time>
      </trkpt>
      <trkpt lat="46.89332" lon="-1.05366">
        <ele>102</ele>
        <time>2023-03-04T11:37:56Z</time>
      </trkpt>
      <trkpt lat="46.89469" lon="-1.05764">
        <ele>100</ele>
        <time>2023-03-04T11:38:51Z</time>
      </trkpt>
      <trkpt lat="46.8969" lon="-1.06396">
        <ele>91</ele>
        <time>2023-03-04T11:40:17Z</time>
      </trkpt>
      <trkpt lat="46.89703" lon="-1.06428">
        <ele>90</ele>
        <time>2023-03-04T11:40:21Z</time>
      </trkpt>
      <trkpt lat="46.89723" lon="-1.06466">
        <ele>89</ele>
        <time>2023-03-04T11:40:27Z</time>
      </trkpt>
      <trkpt lat="46.89814" lon="-1.06611">
        <ele>92</ele>
        <time>2023-03-04T11:40:51Z</time>
      </trkpt>
      <trkpt lat="46.89832" lon="-1.06638">
        <ele>93</ele>
        <time>2023-03-04T11:40:56Z</time>
      </trkpt>
      <trkpt lat="46.89909" lon="-1.06758">
        <ele>94</ele>
        <time>2023-03-04T11:41:16Z</time>
      </trkpt>
      <trkpt lat="46.89953" lon="-1.06822">
        <ele>94</ele>
        <time>2023-03-04T11:41:27Z</time>
      </trkpt>
      <trkpt lat="46.89995" lon="-1.06876">
        <ele>95</ele>
        <time>2023-03-04T11:41:37Z</time>
      </trkpt>
      <trkpt lat="46.90028" lon="-1.06917">
        <ele>96</ele>
        <time>2023-03-04T11:41:45Z</time>
      </trkpt>
      <trkpt lat="46.90134" lon="-1.07048">
        <ele>101</ele>
        <time>2023-03-04T11:42:09Z</time>
      </trkpt>
      <trkpt lat="46.90159" lon="-1.07094">
        <ele>101</ele>
        <time>2023-03-04T11:42:16Z</time>
      </trkpt>
      <trkpt lat="46.90168" lon="-1.07116">
        <ele>101</ele>
        <time>2023-03-04T11:42:19Z</time>
      </trkpt>
      <trkpt lat="46.90184" lon="-1.07168">
        <ele>101</ele>
        <time>2023-03-04T11:42:26Z</time>
      </trkpt>
      <trkpt lat="46.90206" lon="-1.07263">
        <ele>101</ele>
        <time>2023-03-04T11:42:39Z</time>
      </trkpt>
      <trkpt lat="46.90213" lon="-1.0726">
        <ele>101</ele>
        <time>2023-03-04T11:42:40Z</time>
      </trkpt>
      <trkpt lat="46.90221" lon="-1.07261">
        <ele>101</ele>
        <time>2023-03-04T11:42:41Z</time>
      </trkpt>
      <trkpt lat="46.90228" lon="-1.07264">
        <ele>101</ele>
        <time>2023-03-04T11:42:43Z</time>
      </trkpt>
      <trkpt lat="46.90235" lon="-1.07271">
        <ele>101</ele>
        <time>2023-03-04T11:42:44Z</time>
      </trkpt>
      <trkpt lat="46.9024" lon="-1.0728">
        <ele>101</ele>
        <time>2023-03-04T11:42:46Z</time>
      </trkpt>
      <trkpt lat="46.90243" lon="-1.07291">
        <ele>101</ele>
        <time>2023-03-04T11:42:47Z</time>
      </trkpt>
      <trkpt lat="46.90243" lon="-1.07302">
        <ele>101</ele>
        <time>2023-03-04T11:42:48Z</time>
      </trkpt>
      <trkpt lat="46.90264" lon="-1.07304">
        <ele>101</ele>
        <time>2023-03-04T11:42:52Z</time>
      </trkpt>
      <trkpt lat="46.90278" lon="-1.0731">
        <ele>101</ele>
        <time>2023-03-04T11:42:55Z</time>
      </trkpt>
      <trkpt lat="46.90292" lon="-1.07323">
        <ele>101</ele>
        <time>2023-03-04T11:42:58Z</time>
      </trkpt>
      <trkpt lat="46.90304" lon="-1.07343">
        <ele>100</ele>
        <time>2023-03-04T11:43:01Z</time>
      </trkpt>
      <trkpt lat="46.90355" lon="-1.07455">
        <ele>99</ele>
        <time>2023-03-04T11:43:17Z</time>
      </trkpt>
      <trkpt lat="46.90391" lon="-1.07541">
        <ele>98</ele>
        <time>2023-03-04T11:43:29Z</time>
      </trkpt>
      <trkpt lat="46.90404" lon="-1.07568">
        <ele>97</ele>
        <time>2023-03-04T11:43:33Z</time>
      </trkpt>
      <trkpt lat="46.90456" lon="-1.07657">
        <ele>97</ele>
        <time>2023-03-04T11:43:48Z</time>
      </trkpt>
      <trkpt lat="46.90467" lon="-1.07683">
        <ele>96</ele>
        <time>2023-03-04T11:43:51Z</time>
      </trkpt>
      <trkpt lat="46.90475" lon="-1.07707">
        <ele>96</ele>
        <time>2023-03-04T11:43:55Z</time>
      </trkpt>
      <trkpt lat="46.90487" lon="-1.07763">
        <ele>96</ele>
        <time>2023-03-04T11:44:02Z</time>
      </trkpt>
      <trkpt lat="46.90492" lon="-1.07814">
        <ele>95</ele>
        <time>2023-03-04T11:44:08Z</time>
      </trkpt>
      <trkpt lat="46.90491" lon="-1.07855">
        <ele>95</ele>
        <time>2023-03-04T11:44:13Z</time>
      </trkpt>
      <trkpt lat="46.90478" lon="-1.08011">
        <ele>95</ele>
        <time>2023-03-04T11:44:32Z</time>
      </trkpt>
      <trkpt lat="46.90478" lon="-1.08041">
        <ele>95</ele>
        <time>2023-03-04T11:44:36Z</time>
      </trkpt>
      <trkpt lat="46.9048" lon="-1.08061">
        <ele>95</ele>
        <time>2023-03-04T11:44:38Z</time>
      </trkpt>
      <trkpt lat="46.90484" lon="-1.08081">
        <ele>95</ele>
        <time>2023-03-04T11:44:41Z</time>
      </trkpt>
      <trkpt lat="46.90491" lon="-1.08103">
        <ele>96</ele>
        <time>2023-03-04T11:44:44Z</time>
      </trkpt>
      <trkpt lat="46.90543" lon="-1.08217">
        <ele>96</ele>
        <time>2023-03-04T11:45:00Z</time>
      </trkpt>
      <trkpt lat="46.9056" lon="-1.08242">
        <ele>96</ele>
        <time>2023-03-04T11:45:05Z</time>
      </trkpt>
      <trkpt lat="46.90574" lon="-1.0826">
        <ele>96</ele>
        <time>2023-03-04T11:45:08Z</time>
      </trkpt>
      <trkpt lat="46.90589" lon="-1.08274">
        <ele>96</ele>
        <time>2023-03-04T11:45:11Z</time>
      </trkpt>
      <trkpt lat="46.90799" lon="-1.08385">
        <ele>93</ele>
        <time>2023-03-04T11:45:51Z</time>
      </trkpt>
      <trkpt lat="46.90834" lon="-1.08415">
        <ele>93</ele>
        <time>2023-03-04T11:45:58Z</time>
      </trkpt>
      <trkpt lat="46.90851" lon="-1.08438">
        <ele>93</ele>
        <time>2023-03-04T11:46:02Z</time>
      </trkpt>
      <trkpt lat="46.90854" lon="-1.08434">
        <ele>93</ele>
        <time>2023-03-04T11:46:03Z</time>
      </trkpt>
      <trkpt lat="46.90857" lon="-1.08434">
        <ele>93</ele>
        <time>2023-03-04T11:46:04Z</time>
      </trkpt>
      <trkpt lat="46.9086" lon="-1.08437">
        <ele>93</ele>
        <time>2023-03-04T11:46:04Z</time>
      </trkpt>
      <trkpt lat="46.90862" lon="-1.08442">
        <ele>93</ele>
        <time>2023-03-04T11:46:05Z</time>
      </trkpt>
      <trkpt lat="46.90859" lon="-1.08449">
        <ele>93</ele>
        <time>2023-03-04T11:46:06Z</time>
      </trkpt>
      <trkpt lat="46.90871" lon="-1.08464">
        <ele>93</ele>
        <time>2023-03-04T11:46:09Z</time>
      </trkpt>
      <trkpt lat="46.90908" lon="-1.08533">
        <ele>93</ele>
        <time>2023-03-04T11:46:19Z</time>
      </trkpt>
      <trkpt lat="46.91019" lon="-1.08735">
        <ele>95</ele>
        <time>2023-03-04T11:46:51Z</time>
      </trkpt>
      <trkpt lat="46.91013" lon="-1.08738">
        <ele>94</ele>
        <time>2023-03-04T11:46:52Z</time>
      </trkpt>
      <trkpt lat="46.91002" lon="-1.08732">
        <ele>94</ele>
        <time>2023-03-04T11:46:54Z</time>
      </trkpt>
      <trkpt lat="46.91013" lon="-1.08738">
        <ele>94</ele>
        <time>2023-03-04T11:46:56Z</time>
      </trkpt>
      <trkpt lat="46.91019" lon="-1.08735">
        <ele>95</ele>
        <time>2023-03-04T11:46:57Z</time>
      </trkpt>
      <trkpt lat="46.91053" lon="-1.08801">
        <ele>96</ele>
        <time>2023-03-04T11:47:07Z</time>
      </trkpt>
      <trkpt lat="46.91074" lon="-1.08819">
        <ele>96</ele>
        <time>2023-03-04T11:47:12Z</time>
      </trkpt>
      <trkpt lat="46.91084" lon="-1.08804">
        <ele>96</ele>
        <time>2023-03-04T11:47:14Z</time>
      </trkpt>
      <trkpt lat="46.91094" lon="-1.08799">
        <ele>97</ele>
        <time>2023-03-04T11:47:16Z</time>
      </trkpt>
      <trkpt lat="46.91103" lon="-1.08801">
        <ele>97</ele>
        <time>2023-03-04T11:47:18Z</time>
      </trkpt>
      <trkpt lat="46.91116" lon="-1.0881">
        <ele>97</ele>
        <time>2023-03-04T11:47:20Z</time>
      </trkpt>
      <trkpt lat="46.91152" lon="-1.08844">
        <ele>98</ele>
        <time>2023-03-04T11:47:28Z</time>
      </trkpt>
      <trkpt lat="46.91164" lon="-1.08852">
        <ele>98</ele>
        <time>2023-03-04T11:47:30Z</time>
      </trkpt>
      <trkpt lat="46.91171" lon="-1.08852">
        <ele>98</ele>
        <time>2023-03-04T11:47:31Z</time>
      </trkpt>
      <trkpt lat="46.91216" lon="-1.0884">
        <ele>99</ele>
        <time>2023-03-04T11:47:40Z</time>
      </trkpt>
      <trkpt lat="46.91225" lon="-1.08841">
        <ele>99</ele>
        <time>2023-03-04T11:47:41Z</time>
      </trkpt>
      <trkpt lat="46.91241" lon="-1.08852">
        <ele>99</ele>
        <time>2023-03-04T11:47:44Z</time>
      </trkpt>
      <trkpt lat="46.91289" lon="-1.08913">
        <ele>99</ele>
        <time>2023-03-04T11:47:56Z</time>
      </trkpt>
      <trkpt lat="46.91293" lon="-1.08913">
        <ele>99</ele>
        <time>2023-03-04T11:47:56Z</time>
      </trkpt>
      <trkpt lat="46.91295" lon="-1.08916">
        <ele>99</ele>
        <time>2023-03-04T11:47:57Z</time>
      </trkpt>
      <trkpt lat="46.91295" lon="-1.08922">
        <ele>99</ele>
        <time>2023-03-04T11:47:58Z</time>
      </trkpt>
      <trkpt lat="46.91291" lon="-1.08924">
        <ele>99</ele>
        <time>2023-03-04T11:47:58Z</time>
      </trkpt>
      <trkpt lat="46.91354" lon="-1.09099">
        <ele>99</ele>
        <time>2023-03-04T11:48:22Z</time>
      </trkpt>
      <trkpt lat="46.91381" lon="-1.09181">
        <ele>100</ele>
        <time>2023-03-04T11:48:33Z</time>
      </trkpt>
      <trkpt lat="46.91402" lon="-1.09255">
        <ele>97</ele>
        <time>2023-03-04T11:48:43Z</time>
      </trkpt>
      <trkpt lat="46.91422" lon="-1.09355">
        <ele>94</ele>
        <time>2023-03-04T11:48:56Z</time>
      </trkpt>
      <trkpt lat="46.9142" lon="-1.09386">
        <ele>93</ele>
        <time>2023-03-04T11:49:00Z</time>
      </trkpt>
      <trkpt lat="46.91389" lon="-1.09544">
        <ele>91</ele>
        <time>2023-03-04T11:49:20Z</time>
      </trkpt>
      <trkpt lat="46.91393" lon="-1.09747">
        <ele>95</ele>
        <time>2023-03-04T11:49:44Z</time>
      </trkpt>
      <trkpt lat="46.91424" lon="-1.10019">
        <ele>103</ele>
        <time>2023-03-04T11:50:18Z</time>
      </trkpt>
      <trkpt lat="46.91422" lon="-1.10032">
        <ele>103</ele>
        <time>2023-03-04T11:50:19Z</time>
      </trkpt>
      <trkpt lat="46.91436" lon="-1.10043">
        <ele>103</ele>
        <time>2023-03-04T11:50:22Z</time>
      </trkpt>
      <trkpt lat="46.91527" lon="-1.10079">
        <ele>105</ele>
        <time>2023-03-04T11:50:39Z</time>
      </trkpt>
      <trkpt lat="46.91547" lon="-1.1008">
        <ele>106</ele>
        <time>2023-03-04T11:50:43Z</time>
      </trkpt>
      <trkpt lat="46.91723" lon="-1.10076">
        <ele>108</ele>
        <time>2023-03-04T11:51:14Z</time>
      </trkpt>
      <trkpt lat="46.91739" lon="-1.10081">
        <ele>108</ele>
        <time>2023-03-04T11:51:17Z</time>
      </trkpt>
      <trkpt lat="46.9178" lon="-1.10105">
        <ele>108</ele>
        <time>2023-03-04T11:51:25Z</time>
      </trkpt>
      <trkpt lat="46.91797" lon="-1.10113">
        <ele>108</ele>
        <time>2023-03-04T11:51:28Z</time>
      </trkpt>
      <trkpt lat="46.91823" lon="-1.1012">
        <ele>108</ele>
        <time>2023-03-04T11:51:33Z</time>
      </trkpt>
      <trkpt lat="46.9188" lon="-1.10141">
        <ele>107</ele>
        <time>2023-03-04T11:51:43Z</time>
      </trkpt>
      <trkpt lat="46.91901" lon="-1.10155">
        <ele>106</ele>
        <time>2023-03-04T11:51:47Z</time>
      </trkpt>
      <trkpt lat="46.91921" lon="-1.10177">
        <ele>106</ele>
        <time>2023-03-04T11:51:52Z</time>
      </trkpt>
      <trkpt lat="46.91926" lon="-1.10187">
        <ele>106</ele>
        <time>2023-03-04T11:51:53Z</time>
      </trkpt>
      <trkpt lat="46.92015" lon="-1.10451">
        <ele>104</ele>
        <time>2023-03-04T11:52:29Z</time>
      </trkpt>
      <trkpt lat="46.92029" lon="-1.10483">
        <ele>103</ele>
        <time>2023-03-04T11:52:34Z</time>
      </trkpt>
      <trkpt lat="46.92068" lon="-1.10536">
        <ele>103</ele>
        <time>2023-03-04T11:52:43Z</time>
      </trkpt>
      <trkpt lat="46.92107" lon="-1.10584">
        <ele>103</ele>
        <time>2023-03-04T11:52:52Z</time>
      </trkpt>
      <trkpt lat="46.92184" lon="-1.10663">
        <ele>101</ele>
        <time>2023-03-04T11:53:09Z</time>
      </trkpt>
      <trkpt lat="46.92195" lon="-1.10682">
        <ele>100</ele>
        <time>2023-03-04T11:53:12Z</time>
      </trkpt>
      <trkpt lat="46.92201" lon="-1.107">
        <ele>100</ele>
        <time>2023-03-04T11:53:14Z</time>
      </trkpt>
      <trkpt lat="46.92203" lon="-1.10716">
        <ele>99</ele>
        <time>2023-03-04T11:53:16Z</time>
      </trkpt>
      <trkpt lat="46.92206" lon="-1.10718">
        <ele>99</ele>
        <time>2023-03-04T11:53:17Z</time>
      </trkpt>
      <trkpt lat="46.92214" lon="-1.1073">
        <ele>99</ele>
        <time>2023-03-04T11:53:19Z</time>
      </trkpt>
      <trkpt lat="46.9223" lon="-1.10758">
        <ele>98</ele>
        <time>2023-03-04T11:53:23Z</time>
      </trkpt>
      <trkpt lat="46.92248" lon="-1.10784">
        <ele>98</ele>
        <time>2023-03-04T11:53:28Z</time>
      </trkpt>
      <trkpt lat="46.92267" lon="-1.10803">
        <ele>98</ele>
        <time>2023-03-04T11:53:32Z</time>
      </trkpt>
      <trkpt lat="46.92331" lon="-1.10853">
        <ele>97</ele>
        <time>2023-03-04T11:53:45Z</time>
      </trkpt>
      <trkpt lat="46.92382" lon="-1.10896">
        <ele>99</ele>
        <time>2023-03-04T11:53:55Z</time>
      </trkpt>
      <trkpt lat="46.92541" lon="-1.11023">
        <ele>98</ele>
        <time>2023-03-04T11:54:27Z</time>
      </trkpt>
      <trkpt lat="46.92577" lon="-1.11052">
        <ele>97</ele>
        <time>2023-03-04T11:54:35Z</time>
      </trkpt>
      <trkpt lat="46.92603" lon="-1.11066">
        <ele>96</ele>
        <time>2023-03-04T11:54:40Z</time>
      </trkpt>
      <trkpt lat="46.92744" lon="-1.11129">
        <ele>99</ele>
        <time>2023-03-04T11:55:06Z</time>
      </trkpt>
      <trkpt lat="46.92709" lon="-1.1136">
        <ele>94</ele>
        <time>2023-03-04T11:55:35Z</time>
      </trkpt>
      <trkpt lat="46.92698" lon="-1.11389">
        <ele>94</ele>
        <time>2023-03-04T11:55:39Z</time>
      </trkpt>
      <trkpt lat="46.92686" lon="-1.11407">
        <ele>94</ele>
        <time>2023-03-04T11:55:42Z</time>
      </trkpt>
      <trkpt lat="46.92514" lon="-1.11585">
        <ele>91</ele>
        <time>2023-03-04T11:56:19Z</time>
      </trkpt>
      <trkpt lat="46.92496" lon="-1.11601">
        <ele>91</ele>
        <time>2023-03-04T11:56:23Z</time>
      </trkpt>
      <trkpt lat="46.92457" lon="-1.1162">
        <ele>90</ele>
        <time>2023-03-04T11:56:30Z</time>
      </trkpt>
      <trkpt lat="46.92315" lon="-1.11657">
        <ele>92</ele>
        <time>2023-03-04T11:56:56Z</time>
      </trkpt>
      <trkpt lat="46.92276" lon="-1.11671">
        <ele>93</ele>
        <time>2023-03-04T11:57:03Z</time>
      </trkpt>
      <trkpt lat="46.9225" lon="-1.11691">
        <ele>93</ele>
        <time>2023-03-04T11:57:08Z</time>
      </trkpt>
      <trkpt lat="46.92236" lon="-1.1171">
        <ele>93</ele>
        <time>2023-03-04T11:57:12Z</time>
      </trkpt>
      <trkpt lat="46.92124" lon="-1.11881">
        <ele>91</ele>
        <time>2023-03-04T11:57:41Z</time>
      </trkpt>
      <trkpt lat="46.92092" lon="-1.11939">
        <ele>90</ele>
        <time>2023-03-04T11:57:50Z</time>
      </trkpt>
      <trkpt lat="46.9199" lon="-1.12144">
        <ele>86</ele>
        <time>2023-03-04T11:58:20Z</time>
      </trkpt>
      <trkpt lat="46.91984" lon="-1.12154">
        <ele>85</ele>
        <time>2023-03-04T11:58:22Z</time>
      </trkpt>
      <trkpt lat="46.9197" lon="-1.12172">
        <ele>85</ele>
        <time>2023-03-04T11:58:25Z</time>
      </trkpt>
      <trkpt lat="46.91951" lon="-1.12187">
        <ele>84</ele>
        <time>2023-03-04T11:58:29Z</time>
      </trkpt>
      <trkpt lat="46.9194" lon="-1.12192">
        <ele>84</ele>
        <time>2023-03-04T11:58:31Z</time>
      </trkpt>
      <trkpt lat="46.9166" lon="-1.12277">
        <ele>83</ele>
        <time>2023-03-04T11:59:22Z</time>
      </trkpt>
      <trkpt lat="46.91628" lon="-1.12292">
        <ele>83</ele>
        <time>2023-03-04T11:59:28Z</time>
      </trkpt>
      <trkpt lat="46.91614" lon="-1.12305">
        <ele>83</ele>
        <time>2023-03-04T11:59:31Z</time>
      </trkpt>
      <trkpt lat="46.91571" lon="-1.12351">
        <ele>85</ele>
        <time>2023-03-04T11:59:41Z</time>
      </trkpt>
      <trkpt lat="46.91454" lon="-1.12487">
        <ele>83</ele>
        <time>2023-03-04T12:00:07Z</time>
      </trkpt>
      <trkpt lat="46.91353" lon="-1.12602">
        <ele>79</ele>
        <time>2023-03-04T12:00:30Z</time>
      </trkpt>
      <trkpt lat="46.91328" lon="-1.12645">
        <ele>79</ele>
        <time>2023-03-04T12:00:37Z</time>
      </trkpt>
      <trkpt lat="46.91268" lon="-1.1278">
        <ele>78</ele>
        <time>2023-03-04T12:00:56Z</time>
      </trkpt>
      <trkpt lat="46.91247" lon="-1.12817">
        <ele>78</ele>
        <time>2023-03-04T12:01:02Z</time>
      </trkpt>
      <trkpt lat="46.91217" lon="-1.12854">
        <ele>78</ele>
        <time>2023-03-04T12:01:09Z</time>
      </trkpt>
      <trkpt lat="46.91191" lon="-1.1288">
        <ele>77</ele>
        <time>2023-03-04T12:01:15Z</time>
      </trkpt>
      <trkpt lat="46.91146" lon="-1.12916">
        <ele>76</ele>
        <time>2023-03-04T12:01:24Z</time>
      </trkpt>
      <trkpt lat="46.91027" lon="-1.12991">
        <ele>78</ele>
        <time>2023-03-04T12:01:47Z</time>
      </trkpt>
      <trkpt lat="46.90963" lon="-1.13035">
        <ele>81</ele>
        <time>2023-03-04T12:02:00Z</time>
      </trkpt>
      <trkpt lat="46.90911" lon="-1.13078">
        <ele>82</ele>
        <time>2023-03-04T12:02:10Z</time>
      </trkpt>
      <trkpt lat="46.90889" lon="-1.13098">
        <ele>83</ele>
        <time>2023-03-04T12:02:15Z</time>
      </trkpt>
      <trkpt lat="46.90849" lon="-1.13142">
        <ele>84</ele>
        <time>2023-03-04T12:02:24Z</time>
      </trkpt>
      <trkpt lat="46.90795" lon="-1.13207">
        <ele>85</ele>
        <time>2023-03-04T12:02:36Z</time>
      </trkpt>
      <trkpt lat="46.90728" lon="-1.13277">
        <ele>86</ele>
        <time>2023-03-04T12:02:51Z</time>
      </trkpt>
      <trkpt lat="46.90756" lon="-1.1333">
        <ele>87</ele>
        <time>2023-03-04T12:02:59Z</time>
      </trkpt>
      <trkpt lat="46.90762" lon="-1.13345">
        <ele>87</ele>
        <time>2023-03-04T12:03:01Z</time>
      </trkpt>
      <trkpt lat="46.90766" lon="-1.13364">
        <ele>87</ele>
        <time>2023-03-04T12:03:03Z</time>
      </trkpt>
      <trkpt lat="46.90775" lon="-1.13417">
        <ele>87</ele>
        <time>2023-03-04T12:03:10Z</time>
      </trkpt>
      <trkpt lat="46.90775" lon="-1.13435">
        <ele>88</ele>
        <time>2023-03-04T12:03:12Z</time>
      </trkpt>
      <trkpt lat="46.90778" lon="-1.13451">
        <ele>88</ele>
        <time>2023-03-04T12:03:14Z</time>
      </trkpt>
      <trkpt lat="46.90782" lon="-1.1346">
        <ele>88</ele>
        <time>2023-03-04T12:03:16Z</time>
      </trkpt>
      <trkpt lat="46.90794" lon="-1.13479">
        <ele>88</ele>
        <time>2023-03-04T12:03:19Z</time>
      </trkpt>
      <trkpt lat="46.90872" lon="-1.13713">
        <ele>88</ele>
        <time>2023-03-04T12:03:50Z</time>
      </trkpt>
      <trkpt lat="46.9103" lon="-1.14185">
        <ele>91</ele>
        <time>2023-03-04T12:04:54Z</time>
      </trkpt>
      <trkpt lat="46.91044" lon="-1.14232">
        <ele>90</ele>
        <time>2023-03-04T12:05:00Z</time>
      </trkpt>
      <trkpt lat="46.91049" lon="-1.14258">
        <ele>90</ele>
        <time>2023-03-04T12:05:04Z</time>
      </trkpt>
      <trkpt lat="46.91064" lon="-1.14351">
        <ele>90</ele>
        <time>2023-03-04T12:05:15Z</time>
      </trkpt>
      <trkpt lat="46.91069" lon="-1.14351">
        <ele>90</ele>
        <time>2023-03-04T12:05:16Z</time>
      </trkpt>
      <trkpt lat="46.91076" lon="-1.14359">
        <ele>90</ele>
        <time>2023-03-04T12:05:18Z</time>
      </trkpt>
      <trkpt lat="46.91096" lon="-1.14362">
        <ele>90</ele>
        <time>2023-03-04T12:05:21Z</time>
      </trkpt>
      <trkpt lat="46.91107" lon="-1.14367">
        <ele>90</ele>
        <time>2023-03-04T12:05:23Z</time>
      </trkpt>
      <trkpt lat="46.91114" lon="-1.14375">
        <ele>90</ele>
        <time>2023-03-04T12:05:25Z</time>
      </trkpt>
      <trkpt lat="46.91118" lon="-1.14382">
        <ele>90</ele>
        <time>2023-03-04T12:05:26Z</time>
      </trkpt>
      <trkpt lat="46.91145" lon="-1.14436">
        <ele>90</ele>
        <time>2023-03-04T12:05:34Z</time>
      </trkpt>
      <trkpt lat="46.91216" lon="-1.14594">
        <ele>90</ele>
        <time>2023-03-04T12:05:57Z</time>
      </trkpt>
      <trkpt lat="46.91311" lon="-1.148">
        <ele>90</ele>
        <time>2023-03-04T12:06:27Z</time>
      </trkpt>
      <trkpt lat="46.91337" lon="-1.14855">
        <ele>89</ele>
        <time>2023-03-04T12:06:36Z</time>
      </trkpt>
      <trkpt lat="46.91539" lon="-1.15214">
        <ele>85</ele>
        <time>2023-03-04T12:07:32Z</time>
      </trkpt>
      <trkpt lat="46.9156" lon="-1.15262">
        <ele>86</ele>
        <time>2023-03-04T12:07:39Z</time>
      </trkpt>
      <trkpt lat="46.91808" lon="-1.1596">
        <ele>82</ele>
        <time>2023-03-04T12:09:15Z</time>
      </trkpt>
      <trkpt lat="46.91861" lon="-1.16099">
        <ele>81</ele>
        <time>2023-03-04T12:09:34Z</time>
      </trkpt>
      <trkpt lat="46.91902" lon="-1.16178">
        <ele>78</ele>
        <time>2023-03-04T12:09:46Z</time>
      </trkpt>
      <trkpt lat="46.91953" lon="-1.16247">
        <ele>78</ele>
        <time>2023-03-04T12:09:58Z</time>
      </trkpt>
      <trkpt lat="46.91977" lon="-1.16273">
        <ele>77</ele>
        <time>2023-03-04T12:10:04Z</time>
      </trkpt>
      <trkpt lat="46.91967" lon="-1.16293">
        <ele>78</ele>
        <time>2023-03-04T12:10:07Z</time>
      </trkpt>
      <trkpt lat="46.91965" lon="-1.163">
        <ele>78</ele>
        <time>2023-03-04T12:10:08Z</time>
      </trkpt>
      <trkpt lat="46.91967" lon="-1.16309">
        <ele>78</ele>
        <time>2023-03-04T12:10:09Z</time>
      </trkpt>
      <trkpt lat="46.92041" lon="-1.16474">
        <ele>80</ele>
        <time>2023-03-04T12:10:33Z</time>
      </trkpt>
      <trkpt lat="46.92107" lon="-1.1661">
        <ele>82</ele>
        <time>2023-03-04T12:10:53Z</time>
      </trkpt>
      <trkpt lat="46.92161" lon="-1.16744">
        <ele>85</ele>
        <time>2023-03-04T12:11:12Z</time>
      </trkpt>
      <trkpt lat="46.92196" lon="-1.16852">
        <ele>86</ele>
        <time>2023-03-04T12:11:27Z</time>
      </trkpt>
      <trkpt lat="46.92272" lon="-1.1713">
        <ele>87</ele>
        <time>2023-03-04T12:12:03Z</time>
      </trkpt>
      <trkpt lat="46.92294" lon="-1.1722">
        <ele>87</ele>
        <time>2023-03-04T12:12:15Z</time>
      </trkpt>
      <trkpt lat="46.92343" lon="-1.17508">
        <ele>88</ele>
        <time>2023-03-04T12:12:51Z</time>
      </trkpt>
      <trkpt lat="46.92357" lon="-1.1762">
        <ele>88</ele>
        <time>2023-03-04T12:13:04Z</time>
      </trkpt>
      <trkpt lat="46.92363" lon="-1.17695">
        <ele>87</ele>
        <time>2023-03-04T12:13:14Z</time>
      </trkpt>
      <trkpt lat="46.92374" lon="-1.17771">
        <ele>87</ele>
        <time>2023-03-04T12:13:23Z</time>
      </trkpt>
      <trkpt lat="46.92385" lon="-1.17822">
        <ele>86</ele>
        <time>2023-03-04T12:13:30Z</time>
      </trkpt>
      <trkpt lat="46.92401" lon="-1.17865">
        <ele>85</ele>
        <time>2023-03-04T12:13:36Z</time>
      </trkpt>
      <trkpt lat="46.92463" lon="-1.18001">
        <ele>83</ele>
        <time>2023-03-04T12:13:55Z</time>
      </trkpt>
      <trkpt lat="46.92478" lon="-1.18042">
        <ele>82</ele>
        <time>2023-03-04T12:14:01Z</time>
      </trkpt>
      <trkpt lat="46.9249" lon="-1.18097">
        <ele>81</ele>
        <time>2023-03-04T12:14:08Z</time>
      </trkpt>
      <trkpt lat="46.92521" lon="-1.18173">
        <ele>80</ele>
        <time>2023-03-04T12:14:19Z</time>
      </trkpt>
      <trkpt lat="46.92533" lon="-1.18206">
        <ele>80</ele>
        <time>2023-03-04T12:14:23Z</time>
      </trkpt>
      <trkpt lat="46.92537" lon="-1.1823">
        <ele>79</ele>
        <time>2023-03-04T12:14:26Z</time>
      </trkpt>
      <trkpt lat="46.92537" lon="-1.18247">
        <ele>79</ele>
        <time>2023-03-04T12:14:28Z</time>
      </trkpt>
      <trkpt lat="46.92521" lon="-1.1835">
        <ele>79</ele>
        <time>2023-03-04T12:14:41Z</time>
      </trkpt>
      <trkpt lat="46.92526" lon="-1.18387">
        <ele>78</ele>
        <time>2023-03-04T12:14:46Z</time>
      </trkpt>
      <trkpt lat="46.92544" lon="-1.18457">
        <ele>77</ele>
        <time>2023-03-04T12:14:55Z</time>
      </trkpt>
      <trkpt lat="46.92551" lon="-1.18488">
        <ele>77</ele>
        <time>2023-03-04T12:14:59Z</time>
      </trkpt>
      <trkpt lat="46.92582" lon="-1.18607">
        <ele>76</ele>
        <time>2023-03-04T12:15:14Z</time>
      </trkpt>
      <trkpt lat="46.92649" lon="-1.18843">
        <ele>74</ele>
        <time>2023-03-04T12:15:45Z</time>
      </trkpt>
      <trkpt lat="46.92688" lon="-1.18969">
        <ele>76</ele>
        <time>2023-03-04T12:16:02Z</time>
      </trkpt>
      <trkpt lat="46.92724" lon="-1.19107">
        <ele>77</ele>
        <time>2023-03-04T12:16:20Z</time>
      </trkpt>
      <trkpt lat="46.92719" lon="-1.19158">
        <ele>77</ele>
        <time>2023-03-04T12:16:26Z</time>
      </trkpt>
      <trkpt lat="46.92708" lon="-1.1922">
        <ele>77</ele>
        <time>2023-03-04T12:16:34Z</time>
      </trkpt>
      <trkpt lat="46.92705" lon="-1.19262">
        <ele>78</ele>
        <time>2023-03-04T12:16:39Z</time>
      </trkpt>
      <trkpt lat="46.92713" lon="-1.19298">
        <ele>78</ele>
        <time>2023-03-04T12:16:44Z</time>
      </trkpt>
      <trkpt lat="46.9273" lon="-1.19346">
        <ele>79</ele>
        <time>2023-03-04T12:16:51Z</time>
      </trkpt>
      <trkpt lat="46.92761" lon="-1.19425">
        <ele>80</ele>
        <time>2023-03-04T12:17:02Z</time>
      </trkpt>
      <trkpt lat="46.92777" lon="-1.19472">
        <ele>80</ele>
        <time>2023-03-04T12:17:08Z</time>
      </trkpt>
      <trkpt lat="46.92784" lon="-1.19511">
        <ele>80</ele>
        <time>2023-03-04T12:17:13Z</time>
      </trkpt>
      <trkpt lat="46.92788" lon="-1.19563">
        <ele>81</ele>
        <time>2023-03-04T12:17:19Z</time>
      </trkpt>
      <trkpt lat="46.92795" lon="-1.196">
        <ele>81</ele>
        <time>2023-03-04T12:17:24Z</time>
      </trkpt>
      <trkpt lat="46.92817" lon="-1.19651">
        <ele>81</ele>
        <time>2023-03-04T12:17:31Z</time>
      </trkpt>
      <trkpt lat="46.92847" lon="-1.19713">
        <ele>81</ele>
        <time>2023-03-04T12:17:40Z</time>
      </trkpt>
      <trkpt lat="46.9298" lon="-1.19902">
        <ele>81</ele>
        <time>2023-03-04T12:18:13Z</time>
      </trkpt>
      <trkpt lat="46.93015" lon="-1.19959">
        <ele>81</ele>
        <time>2023-03-04T12:18:23Z</time>
      </trkpt>
      <trkpt lat="46.93046" lon="-1.2002">
        <ele>81</ele>
        <time>2023-03-04T12:18:32Z</time>
      </trkpt>
      <trkpt lat="46.93089" lon="-1.20117">
        <ele>82</ele>
        <time>2023-03-04T12:18:46Z</time>
      </trkpt>
      <trkpt lat="46.93103" lon="-1.20157">
        <ele>82</ele>
        <time>2023-03-04T12:18:52Z</time>
      </trkpt>
      <trkpt lat="46.93134" lon="-1.20278">
        <ele>80</ele>
        <time>2023-03-04T12:19:07Z</time>
      </trkpt>
      <trkpt lat="46.9319" lon="-1.20424">
        <ele>80</ele>
        <time>2023-03-04T12:19:28Z</time>
      </trkpt>
      <trkpt lat="46.93225" lon="-1.20531">
        <ele>76</ele>
        <time>2023-03-04T12:19:42Z</time>
      </trkpt>
      <trkpt lat="46.93243" lon="-1.20582">
        <ele>74</ele>
        <time>2023-03-04T12:19:49Z</time>
      </trkpt>
      <trkpt lat="46.93259" lon="-1.20619">
        <ele>73</ele>
        <time>2023-03-04T12:19:54Z</time>
      </trkpt>
      <trkpt lat="46.93277" lon="-1.20654">
        <ele>72</ele>
        <time>2023-03-04T12:20:00Z</time>
      </trkpt>
      <trkpt lat="46.93297" lon="-1.20685">
        <ele>71</ele>
        <time>2023-03-04T12:20:05Z</time>
      </trkpt>
      <trkpt lat="46.93324" lon="-1.20712">
        <ele>70</ele>
        <time>2023-03-04T12:20:11Z</time>
      </trkpt>
      <trkpt lat="46.93358" lon="-1.20736">
        <ele>68</ele>
        <time>2023-03-04T12:20:17Z</time>
      </trkpt>
      <trkpt lat="46.93449" lon="-1.20811">
        <ele>62</ele>
        <time>2023-03-04T12:20:36Z</time>
      </trkpt>
      <trkpt lat="46.93525" lon="-1.2089">
        <ele>58</ele>
        <time>2023-03-04T12:20:52Z</time>
      </trkpt>
      <trkpt lat="46.93531" lon="-1.20896">
        <ele>58</ele>
        <time>2023-03-04T12:20:54Z</time>
      </trkpt>
      <trkpt lat="46.93551" lon="-1.20925">
        <ele>58</ele>
        <time>2023-03-04T12:20:59Z</time>
      </trkpt>
      <trkpt lat="46.9358" lon="-1.21019">
        <ele>60</ele>
        <time>2023-03-04T12:21:11Z</time>
      </trkpt>
      <trkpt lat="46.93596" lon="-1.21101">
        <ele>63</ele>
        <time>2023-03-04T12:21:22Z</time>
      </trkpt>
      <trkpt lat="46.93601" lon="-1.21147">
        <ele>66</ele>
        <time>2023-03-04T12:21:27Z</time>
      </trkpt>
      <trkpt lat="46.93624" lon="-1.21297">
        <ele>70</ele>
        <time>2023-03-04T12:21:46Z</time>
      </trkpt>
      <trkpt lat="46.93655" lon="-1.21473">
        <ele>73</ele>
        <time>2023-03-04T12:22:08Z</time>
      </trkpt>
      <trkpt lat="46.93662" lon="-1.21507">
        <ele>73</ele>
        <time>2023-03-04T12:22:12Z</time>
      </trkpt>
      <trkpt lat="46.93648" lon="-1.21519">
        <ele>73</ele>
        <time>2023-03-04T12:22:15Z</time>
      </trkpt>
      <trkpt lat="46.93602" lon="-1.21549">
        <ele>72</ele>
        <time>2023-03-04T12:22:24Z</time>
      </trkpt>
      <trkpt lat="46.93576" lon="-1.21569">
        <ele>72</ele>
        <time>2023-03-04T12:22:29Z</time>
      </trkpt>
      <trkpt lat="46.93562" lon="-1.21583">
        <ele>71</ele>
        <time>2023-03-04T12:22:33Z</time>
      </trkpt>
      <trkpt lat="46.93546" lon="-1.21604">
        <ele>71</ele>
        <time>2023-03-04T12:22:36Z</time>
      </trkpt>
      <trkpt lat="46.93517" lon="-1.2165">
        <ele>70</ele>
        <time>2023-03-04T12:22:44Z</time>
      </trkpt>
      <trkpt lat="46.93406" lon="-1.21799">
        <ele>66</ele>
        <time>2023-03-04T12:23:11Z</time>
      </trkpt>
      <trkpt lat="46.93392" lon="-1.21821">
        <ele>66</ele>
        <time>2023-03-04T12:23:14Z</time>
      </trkpt>
      <trkpt lat="46.93351" lon="-1.21909">
        <ele>62</ele>
        <time>2023-03-04T12:23:27Z</time>
      </trkpt>
      <trkpt lat="46.93341" lon="-1.21925">
        <ele>62</ele>
        <time>2023-03-04T12:23:30Z</time>
      </trkpt>
      <trkpt lat="46.93328" lon="-1.21941">
        <ele>63</ele>
        <time>2023-03-04T12:23:33Z</time>
      </trkpt>
      <trkpt lat="46.9329" lon="-1.21973">
        <ele>64</ele>
        <time>2023-03-04T12:23:41Z</time>
      </trkpt>
      <trkpt lat="46.93261" lon="-1.21991">
        <ele>65</ele>
        <time>2023-03-04T12:23:46Z</time>
      </trkpt>
      <trkpt lat="46.93169" lon="-1.22039">
        <ele>62</ele>
        <time>2023-03-04T12:24:04Z</time>
      </trkpt>
      <trkpt lat="46.93135" lon="-1.22059">
        <ele>62</ele>
        <time>2023-03-04T12:24:10Z</time>
      </trkpt>
      <trkpt lat="46.93117" lon="-1.22075">
        <ele>62</ele>
        <time>2023-03-04T12:24:14Z</time>
      </trkpt>
      <trkpt lat="46.93106" lon="-1.22089">
        <ele>62</ele>
        <time>2023-03-04T12:24:17Z</time>
      </trkpt>
      <trkpt lat="46.93097" lon="-1.22103">
        <ele>62</ele>
        <time>2023-03-04T12:24:19Z</time>
      </trkpt>
      <trkpt lat="46.92985" lon="-1.22302">
        <ele>63</ele>
        <time>2023-03-04T12:24:50Z</time>
      </trkpt>
      <trkpt lat="46.92972" lon="-1.22339">
        <ele>63</ele>
        <time>2023-03-04T12:24:55Z</time>
      </trkpt>
      <trkpt lat="46.92939" lon="-1.22458">
        <ele>59</ele>
        <time>2023-03-04T12:25:11Z</time>
      </trkpt>
      <trkpt lat="46.92912" lon="-1.22555">
        <ele>57</ele>
        <time>2023-03-04T12:25:24Z</time>
      </trkpt>
      <trkpt lat="46.92904" lon="-1.22566">
        <ele>56</ele>
        <time>2023-03-04T12:25:26Z</time>
      </trkpt>
      <trkpt lat="46.92871" lon="-1.22595">
        <ele>53</ele>
        <time>2023-03-04T12:25:32Z</time>
      </trkpt>
      <trkpt lat="46.92825" lon="-1.22614">
        <ele>50</ele>
        <time>2023-03-04T12:25:41Z</time>
      </trkpt>
      <trkpt lat="46.92805" lon="-1.2262">
        <ele>50</ele>
        <time>2023-03-04T12:25:45Z</time>
      </trkpt>
      <trkpt lat="46.92784" lon="-1.22622">
        <ele>50</ele>
        <time>2023-03-04T12:25:48Z</time>
      </trkpt>
      <trkpt lat="46.92773" lon="-1.22619">
        <ele>50</ele>
        <time>2023-03-04T12:25:50Z</time>
      </trkpt>
      <trkpt lat="46.92736" lon="-1.22599">
        <ele>50</ele>
        <time>2023-03-04T12:25:57Z</time>
      </trkpt>
      <trkpt lat="46.92717" lon="-1.22592">
        <ele>49</ele>
        <time>2023-03-04T12:26:01Z</time>
      </trkpt>
      <trkpt lat="46.92713" lon="-1.22595">
        <ele>49</ele>
        <time>2023-03-04T12:26:02Z</time>
      </trkpt>
      <trkpt lat="46.92681" lon="-1.22661">
        <ele>45</ele>
        <time>2023-03-04T12:26:11Z</time>
      </trkpt>
      <trkpt lat="46.92674" lon="-1.2268">
        <ele>44</ele>
        <time>2023-03-04T12:26:14Z</time>
      </trkpt>
      <trkpt lat="46.92674" lon="-1.22691">
        <ele>44</ele>
        <time>2023-03-04T12:26:15Z</time>
      </trkpt>
      <trkpt lat="46.92676" lon="-1.227">
        <ele>44</ele>
        <time>2023-03-04T12:26:17Z</time>
      </trkpt>
      <trkpt lat="46.92681" lon="-1.22708">
        <ele>44</ele>
        <time>2023-03-04T12:26:18Z</time>
      </trkpt>
      <trkpt lat="46.92702" lon="-1.22729">
        <ele>43</ele>
        <time>2023-03-04T12:26:22Z</time>
      </trkpt>
      <trkpt lat="46.92711" lon="-1.22749">
        <ele>42</ele>
        <time>2023-03-04T12:26:25Z</time>
      </trkpt>
      <trkpt lat="46.92717" lon="-1.2279">
        <ele>43</ele>
        <time>2023-03-04T12:26:30Z</time>
      </trkpt>
      <trkpt lat="46.92718" lon="-1.22797">
        <ele>43</ele>
        <time>2023-03-04T12:26:31Z</time>
      </trkpt>
      <trkpt lat="46.92779" lon="-1.2279">
        <ele>42</ele>
        <time>2023-03-04T12:26:42Z</time>
      </trkpt>
      <trkpt lat="46.92803" lon="-1.22793">
        <ele>42</ele>
        <time>2023-03-04T12:26:46Z</time>
      </trkpt>
      <trkpt lat="46.92824" lon="-1.2281">
        <ele>43</ele>
        <time>2023-03-04T12:26:51Z</time>
      </trkpt>
      <trkpt lat="46.92836" lon="-1.22833">
        <ele>43</ele>
        <time>2023-03-04T12:26:54Z</time>
      </trkpt>
      <trkpt lat="46.92856" lon="-1.22895">
        <ele>46</ele>
        <time>2023-03-04T12:27:03Z</time>
      </trkpt>
      <trkpt lat="46.92882" lon="-1.23062">
        <ele>56</ele>
        <time>2023-03-04T12:27:23Z</time>
      </trkpt>
      <trkpt lat="46.92894" lon="-1.23096">
        <ele>58</ele>
        <time>2023-03-04T12:27:28Z</time>
      </trkpt>
      <trkpt lat="46.92913" lon="-1.23135">
        <ele>59</ele>
        <time>2023-03-04T12:27:34Z</time>
      </trkpt>
      <trkpt lat="46.92927" lon="-1.23179">
        <ele>60</ele>
        <time>2023-03-04T12:27:40Z</time>
      </trkpt>
      <trkpt lat="46.92934" lon="-1.23212">
        <ele>62</ele>
        <time>2023-03-04T12:27:44Z</time>
      </trkpt>
      <trkpt lat="46.92936" lon="-1.23223">
        <ele>62</ele>
        <time>2023-03-04T12:27:45Z</time>
      </trkpt>
      <trkpt lat="46.92938" lon="-1.23264">
        <ele>64</ele>
        <time>2023-03-04T12:27:50Z</time>
      </trkpt>
      <trkpt lat="46.92932" lon="-1.23329">
        <ele>67</ele>
        <time>2023-03-04T12:27:58Z</time>
      </trkpt>
      <trkpt lat="46.92924" lon="-1.23379">
        <ele>70</ele>
        <time>2023-03-04T12:28:05Z</time>
      </trkpt>
      <trkpt lat="46.92912" lon="-1.23414">
        <ele>72</ele>
        <time>2023-03-04T12:28:09Z</time>
      </trkpt>
      <trkpt lat="46.92889" lon="-1.23449">
        <ele>72</ele>
        <time>2023-03-04T12:28:15Z</time>
      </trkpt>
      <trkpt lat="46.92867" lon="-1.23489">
        <ele>71</ele>
        <time>2023-03-04T12:28:21Z</time>
      </trkpt>
      <trkpt lat="46.92862" lon="-1.23518">
        <ele>70</ele>
        <time>2023-03-04T12:28:25Z</time>
      </trkpt>
      <trkpt lat="46.92865" lon="-1.23589">
        <ele>67</ele>
        <time>2023-03-04T12:28:34Z</time>
      </trkpt>
      <trkpt lat="46.92865" lon="-1.23656">
        <ele>66</ele>
        <time>2023-03-04T12:28:42Z</time>
      </trkpt>
      <trkpt lat="46.92861" lon="-1.23719">
        <ele>64</ele>
        <time>2023-03-04T12:28:50Z</time>
      </trkpt>
      <trkpt lat="46.92854" lon="-1.23752">
        <ele>63</ele>
        <time>2023-03-04T12:28:54Z</time>
      </trkpt>
      <trkpt lat="46.92834" lon="-1.23794">
        <ele>63</ele>
        <time>2023-03-04T12:29:00Z</time>
      </trkpt>
      <trkpt lat="46.92829" lon="-1.23815">
        <ele>63</ele>
        <time>2023-03-04T12:29:03Z</time>
      </trkpt>
      <trkpt lat="46.92833" lon="-1.23845">
        <ele>63</ele>
        <time>2023-03-04T12:29:06Z</time>
      </trkpt>
      <trkpt lat="46.92844" lon="-1.23868">
        <ele>63</ele>
        <time>2023-03-04T12:29:10Z</time>
      </trkpt>
      <trkpt lat="46.92852" lon="-1.2389">
        <ele>64</ele>
        <time>2023-03-04T12:29:13Z</time>
      </trkpt>
      <trkpt lat="46.92852" lon="-1.23917">
        <ele>64</ele>
        <time>2023-03-04T12:29:16Z</time>
      </trkpt>
      <trkpt lat="46.92844" lon="-1.23935">
        <ele>64</ele>
        <time>2023-03-04T12:29:19Z</time>
      </trkpt>
      <trkpt lat="46.92824" lon="-1.23956">
        <ele>63</ele>
        <time>2023-03-04T12:29:23Z</time>
      </trkpt>
      <trkpt lat="46.92811" lon="-1.23976">
        <ele>63</ele>
        <time>2023-03-04T12:29:26Z</time>
      </trkpt>
      <trkpt lat="46.92807" lon="-1.24">
        <ele>62</ele>
        <time>2023-03-04T12:29:29Z</time>
      </trkpt>
      <trkpt lat="46.92805" lon="-1.24028">
        <ele>62</ele>
        <time>2023-03-04T12:29:33Z</time>
      </trkpt>
      <trkpt lat="46.92802" lon="-1.24139">
        <ele>59</ele>
        <time>2023-03-04T12:29:46Z</time>
      </trkpt>
      <trkpt lat="46.92807" lon="-1.24165">
        <ele>58</ele>
        <time>2023-03-04T12:29:50Z</time>
      </trkpt>
      <trkpt lat="46.9282" lon="-1.24203">
        <ele>57</ele>
        <time>2023-03-04T12:29:55Z</time>
      </trkpt>
      <trkpt lat="46.9284" lon="-1.2422">
        <ele>56</ele>
        <time>2023-03-04T12:29:59Z</time>
      </trkpt>
      <trkpt lat="46.92874" lon="-1.24237">
        <ele>55</ele>
        <time>2023-03-04T12:30:05Z</time>
      </trkpt>
      <trkpt lat="46.92928" lon="-1.24243">
        <ele>53</ele>
        <time>2023-03-04T12:30:15Z</time>
      </trkpt>
      <trkpt lat="46.92941" lon="-1.24249">
        <ele>53</ele>
        <time>2023-03-04T12:30:17Z</time>
      </trkpt>
      <trkpt lat="46.92948" lon="-1.24262">
        <ele>54</ele>
        <time>2023-03-04T12:30:19Z</time>
      </trkpt>
      <trkpt lat="46.92982" lon="-1.24375">
        <ele>59</ele>
        <time>2023-03-04T12:30:34Z</time>
      </trkpt>
      <trkpt lat="46.92995" lon="-1.24411">
        <ele>60</ele>
        <time>2023-03-04T12:30:39Z</time>
      </trkpt>
      <trkpt lat="46.93013" lon="-1.24484">
        <ele>63</ele>
        <time>2023-03-04T12:30:49Z</time>
      </trkpt>
      <trkpt lat="46.93019" lon="-1.24578">
        <ele>64</ele>
        <time>2023-03-04T12:31:00Z</time>
      </trkpt>
      <trkpt lat="46.93042" lon="-1.24744">
        <ele>65</ele>
        <time>2023-03-04T12:31:21Z</time>
      </trkpt>
      <trkpt lat="46.93071" lon="-1.24846">
        <ele>65</ele>
        <time>2023-03-04T12:31:34Z</time>
      </trkpt>
      <trkpt lat="46.93112" lon="-1.2496">
        <ele>66</ele>
        <time>2023-03-04T12:31:50Z</time>
      </trkpt>
      <trkpt lat="46.93166" lon="-1.25098">
        <ele>64</ele>
        <time>2023-03-04T12:32:09Z</time>
      </trkpt>
      <trkpt lat="46.93206" lon="-1.25183">
        <ele>65</ele>
        <time>2023-03-04T12:32:22Z</time>
      </trkpt>
      <trkpt lat="46.93241" lon="-1.25275">
        <ele>65</ele>
        <time>2023-03-04T12:32:35Z</time>
      </trkpt>
      <trkpt lat="46.93273" lon="-1.25401">
        <ele>64</ele>
        <time>2023-03-04T12:32:51Z</time>
      </trkpt>
      <trkpt lat="46.93284" lon="-1.25424">
        <ele>65</ele>
        <time>2023-03-04T12:32:54Z</time>
      </trkpt>
      <trkpt lat="46.93295" lon="-1.25437">
        <ele>64</ele>
        <time>2023-03-04T12:32:57Z</time>
      </trkpt>
      <trkpt lat="46.93382" lon="-1.25647">
        <ele>65</ele>
        <time>2023-03-04T12:33:27Z</time>
      </trkpt>
      <trkpt lat="46.93429" lon="-1.2576">
        <ele>65</ele>
        <time>2023-03-04T12:33:43Z</time>
      </trkpt>
      <trkpt lat="46.93469" lon="-1.25841">
        <ele>67</ele>
        <time>2023-03-04T12:33:55Z</time>
      </trkpt>
      <trkpt lat="46.93508" lon="-1.25927">
        <ele>67</ele>
        <time>2023-03-04T12:34:07Z</time>
      </trkpt>
      <trkpt lat="46.93549" lon="-1.26068">
        <ele>66</ele>
        <time>2023-03-04T12:34:26Z</time>
      </trkpt>
      <trkpt lat="46.93572" lon="-1.26171">
        <ele>63</ele>
        <time>2023-03-04T12:34:39Z</time>
      </trkpt>
      <trkpt lat="46.93581" lon="-1.26221">
        <ele>64</ele>
        <time>2023-03-04T12:34:46Z</time>
      </trkpt>
      <trkpt lat="46.9359" lon="-1.26354">
        <ele>65</ele>
        <time>2023-03-04T12:35:02Z</time>
      </trkpt>
      <trkpt lat="46.93595" lon="-1.26415">
        <ele>66</ele>
        <time>2023-03-04T12:35:09Z</time>
      </trkpt>
      <trkpt lat="46.93611" lon="-1.26523">
        <ele>64</ele>
        <time>2023-03-04T12:35:23Z</time>
      </trkpt>
      <trkpt lat="46.93639" lon="-1.26611">
        <ele>65</ele>
        <time>2023-03-04T12:35:34Z</time>
      </trkpt>
      <trkpt lat="46.93678" lon="-1.26723">
        <ele>64</ele>
        <time>2023-03-04T12:35:50Z</time>
      </trkpt>
      <trkpt lat="46.93764" lon="-1.26986">
        <ele>64</ele>
        <time>2023-03-04T12:36:25Z</time>
      </trkpt>
      <trkpt lat="46.93839" lon="-1.27255">
        <ele>62</ele>
        <time>2023-03-04T12:37:00Z</time>
      </trkpt>
      <trkpt lat="46.93877" lon="-1.27397">
        <ele>61</ele>
        <time>2023-03-04T12:37:19Z</time>
      </trkpt>
      <trkpt lat="46.93904" lon="-1.27488">
        <ele>61</ele>
        <time>2023-03-04T12:37:31Z</time>
      </trkpt>
      <trkpt lat="46.93869" lon="-1.27512">
        <ele>61</ele>
        <time>2023-03-04T12:37:38Z</time>
      </trkpt>
      <trkpt lat="46.93782" lon="-1.27565">
        <ele>60</ele>
        <time>2023-03-04T12:37:55Z</time>
      </trkpt>
      <trkpt lat="46.93729" lon="-1.27596">
        <ele>60</ele>
        <time>2023-03-04T12:38:05Z</time>
      </trkpt>
      <trkpt lat="46.93692" lon="-1.27615">
        <ele>60</ele>
        <time>2023-03-04T12:38:12Z</time>
      </trkpt>
      <trkpt lat="46.93681" lon="-1.27629">
        <ele>60</ele>
        <time>2023-03-04T12:38:14Z</time>
      </trkpt>
      <trkpt lat="46.93686" lon="-1.27646">
        <ele>60</ele>
        <time>2023-03-04T12:38:17Z</time>
      </trkpt>
      <trkpt lat="46.93687" lon="-1.27656">
        <ele>61</ele>
        <time>2023-03-04T12:38:18Z</time>
      </trkpt>
      <trkpt lat="46.93703" lon="-1.27679">
        <ele>61</ele>
        <time>2023-03-04T12:38:22Z</time>
      </trkpt>
      <trkpt lat="46.93718" lon="-1.27694">
        <ele>61</ele>
        <time>2023-03-04T12:38:25Z</time>
      </trkpt>
      <trkpt lat="46.93729" lon="-1.2771">
        <ele>61</ele>
        <time>2023-03-04T12:38:28Z</time>
      </trkpt>
      <trkpt lat="46.93735" lon="-1.27725">
        <ele>61</ele>
        <time>2023-03-04T12:38:30Z</time>
      </trkpt>
      <trkpt lat="46.93937" lon="-1.28077">
        <ele>60</ele>
        <time>2023-03-04T12:39:26Z</time>
      </trkpt>
      <trkpt lat="46.93945" lon="-1.28075">
        <ele>61</ele>
        <time>2023-03-04T12:39:27Z</time>
      </trkpt>
      <trkpt lat="46.9395" lon="-1.28079">
        <ele>61</ele>
        <time>2023-03-04T12:39:28Z</time>
      </trkpt>
      <trkpt lat="46.93952" lon="-1.28091">
        <ele>61</ele>
        <time>2023-03-04T12:39:30Z</time>
      </trkpt>
      <trkpt lat="46.93949" lon="-1.28099">
        <ele>61</ele>
        <time>2023-03-04T12:39:31Z</time>
      </trkpt>
      <trkpt lat="46.93953" lon="-1.28107">
        <ele>61</ele>
        <time>2023-03-04T12:39:32Z</time>
      </trkpt>
      <trkpt lat="46.94065" lon="-1.28301">
        <ele>60</ele>
        <time>2023-03-04T12:40:03Z</time>
      </trkpt>
      <trkpt lat="46.94303" lon="-1.28721">
        <ele>60</ele>
        <time>2023-03-04T12:41:09Z</time>
      </trkpt>
      <trkpt lat="46.94308" lon="-1.28716">
        <ele>60</ele>
        <time>2023-03-04T12:41:10Z</time>
      </trkpt>
      <trkpt lat="46.94315" lon="-1.28719">
        <ele>60</ele>
        <time>2023-03-04T12:41:12Z</time>
      </trkpt>
      <trkpt lat="46.94317" lon="-1.28722">
        <ele>60</ele>
        <time>2023-03-04T12:41:12Z</time>
      </trkpt>
      <trkpt lat="46.94319" lon="-1.28726">
        <ele>60</ele>
        <time>2023-03-04T12:41:13Z</time>
      </trkpt>
      <trkpt lat="46.94318" lon="-1.28735">
        <ele>60</ele>
        <time>2023-03-04T12:41:14Z</time>
      </trkpt>
      <trkpt lat="46.94315" lon="-1.28742">
        <ele>60</ele>
        <time>2023-03-04T12:41:15Z</time>
      </trkpt>
      <trkpt lat="46.94321" lon="-1.28749">
        <ele>60</ele>
        <time>2023-03-04T12:41:16Z</time>
      </trkpt>
      <trkpt lat="46.94316" lon="-1.28755">
        <ele>60</ele>
        <time>2023-03-04T12:41:17Z</time>
      </trkpt>
      <trkpt lat="46.94437" lon="-1.2897">
        <ele>57</ele>
        <time>2023-03-04T12:41:51Z</time>
      </trkpt>
      <trkpt lat="46.94444" lon="-1.28977">
        <ele>57</ele>
        <time>2023-03-04T12:41:53Z</time>
      </trkpt>
      <trkpt lat="46.94493" lon="-1.29064">
        <ele>56</ele>
        <time>2023-03-04T12:42:06Z</time>
      </trkpt>
      <trkpt lat="46.94496" lon="-1.29071">
        <ele>56</ele>
        <time>2023-03-04T12:42:07Z</time>
      </trkpt>
      <trkpt lat="46.94494" lon="-1.29077">
        <ele>56</ele>
        <time>2023-03-04T12:42:08Z</time>
      </trkpt>
      <trkpt lat="46.94495" lon="-1.29085">
        <ele>56</ele>
        <time>2023-03-04T12:42:09Z</time>
      </trkpt>
      <trkpt lat="46.94503" lon="-1.29084">
        <ele>56</ele>
        <time>2023-03-04T12:42:11Z</time>
      </trkpt>
      <trkpt lat="46.94507" lon="-1.2908">
        <ele>56</ele>
        <time>2023-03-04T12:42:12Z</time>
      </trkpt>
      <trkpt lat="46.94565" lon="-1.29179">
        <ele>55</ele>
        <time>2023-03-04T12:42:27Z</time>
      </trkpt>
      <trkpt lat="46.94638" lon="-1.29342">
        <ele>50</ele>
        <time>2023-03-04T12:42:51Z</time>
      </trkpt>
      <trkpt lat="46.94658" lon="-1.29383">
        <ele>50</ele>
        <time>2023-03-04T12:42:57Z</time>
      </trkpt>
      <trkpt lat="46.94688" lon="-1.29438">
        <ele>50</ele>
        <time>2023-03-04T12:43:06Z</time>
      </trkpt>
      <trkpt lat="46.94709" lon="-1.29481">
        <ele>51</ele>
        <time>2023-03-04T12:43:12Z</time>
      </trkpt>
      <trkpt lat="46.94749" lon="-1.29584">
        <ele>54</ele>
        <time>2023-03-04T12:43:27Z</time>
      </trkpt>
      <trkpt lat="46.9479" lon="-1.29698">
        <ele>49</ele>
        <time>2023-03-04T12:43:42Z</time>
      </trkpt>
      <trkpt lat="46.94781" lon="-1.29703">
        <ele>49</ele>
        <time>2023-03-04T12:43:44Z</time>
      </trkpt>
      <trkpt lat="46.94783" lon="-1.29708">
        <ele>49</ele>
        <time>2023-03-04T12:43:45Z</time>
      </trkpt>
      <trkpt lat="46.94789" lon="-1.29712">
        <ele>48</ele>
        <time>2023-03-04T12:43:46Z</time>
      </trkpt>
      <trkpt lat="46.9479" lon="-1.29715">
        <ele>48</ele>
        <time>2023-03-04T12:43:46Z</time>
      </trkpt>
      <trkpt lat="46.94801" lon="-1.29754">
        <ele>47</ele>
        <time>2023-03-04T12:43:51Z</time>
      </trkpt>
      <trkpt lat="46.94804" lon="-1.29767">
        <ele>46</ele>
        <time>2023-03-04T12:43:53Z</time>
      </trkpt>
      <trkpt lat="46.94808" lon="-1.29764">
        <ele>46</ele>
        <time>2023-03-04T12:43:54Z</time>
      </trkpt>
      <trkpt lat="46.94823" lon="-1.29823">
        <ele>44</ele>
        <time>2023-03-04T12:44:01Z</time>
      </trkpt>
      <trkpt lat="46.94833" lon="-1.29853">
        <ele>44</ele>
        <time>2023-03-04T12:44:06Z</time>
      </trkpt>
      <trkpt lat="46.94842" lon="-1.29871">
        <ele>43</ele>
        <time>2023-03-04T12:44:08Z</time>
      </trkpt>
      <trkpt lat="46.94856" lon="-1.29891">
        <ele>42</ele>
        <time>2023-03-04T12:44:12Z</time>
      </trkpt>
      <trkpt lat="46.9486" lon="-1.29887">
        <ele>42</ele>
        <time>2023-03-04T12:44:13Z</time>
      </trkpt>
      <trkpt lat="46.94864" lon="-1.29886">
        <ele>42</ele>
        <time>2023-03-04T12:44:13Z</time>
      </trkpt>
      <trkpt lat="46.94869" lon="-1.29893">
        <ele>42</ele>
        <time>2023-03-04T12:44:15Z</time>
      </trkpt>
      <trkpt lat="46.94869" lon="-1.299">
        <ele>42</ele>
        <time>2023-03-04T12:44:15Z</time>
      </trkpt>
      <trkpt lat="46.94864" lon="-1.29907">
        <ele>42</ele>
        <time>2023-03-04T12:44:17Z</time>
      </trkpt>
      <trkpt lat="46.94867" lon="-1.2992">
        <ele>42</ele>
        <time>2023-03-04T12:44:18Z</time>
      </trkpt>
      <trkpt lat="46.94878" lon="-1.29947">
        <ele>42</ele>
        <time>2023-03-04T12:44:22Z</time>
      </trkpt>
      <trkpt lat="46.94933" lon="-1.30057">
        <ele>39</ele>
        <time>2023-03-04T12:44:39Z</time>
      </trkpt>
      <trkpt lat="46.9503" lon="-1.3024">
        <ele>36</ele>
        <time>2023-03-04T12:45:07Z</time>
      </trkpt>
      <trkpt lat="46.95038" lon="-1.30257">
        <ele>35</ele>
        <time>2023-03-04T12:45:09Z</time>
      </trkpt>
      <trkpt lat="46.95043" lon="-1.30254">
        <ele>35</ele>
        <time>2023-03-04T12:45:10Z</time>
      </trkpt>
      <trkpt lat="46.95047" lon="-1.30254">
        <ele>35</ele>
        <time>2023-03-04T12:45:11Z</time>
      </trkpt>
      <trkpt lat="46.95053" lon="-1.3026">
        <ele>35</ele>
        <time>2023-03-04T12:45:12Z</time>
      </trkpt>
      <trkpt lat="46.95056" lon="-1.30255">
        <ele>35</ele>
        <time>2023-03-04T12:45:13Z</time>
      </trkpt>
      <trkpt lat="46.95062" lon="-1.3025">
        <ele>35</ele>
        <time>2023-03-04T12:45:14Z</time>
      </trkpt>
      <trkpt lat="46.95072" lon="-1.30247">
        <ele>34</ele>
        <time>2023-03-04T12:45:16Z</time>
      </trkpt>
      <trkpt lat="46.9509" lon="-1.30239">
        <ele>35</ele>
        <time>2023-03-04T12:45:19Z</time>
      </trkpt>
      <trkpt lat="46.95114" lon="-1.30227">
        <ele>37</ele>
        <time>2023-03-04T12:45:24Z</time>
      </trkpt>
      <trkpt lat="46.95118" lon="-1.30223">
        <ele>37</ele>
        <time>2023-03-04T12:45:25Z</time>
      </trkpt>
      <trkpt lat="46.95123" lon="-1.30214">
        <ele>38</ele>
        <time>2023-03-04T12:45:26Z</time>
      </trkpt>
      <trkpt lat="46.95125" lon="-1.30202">
        <ele>38</ele>
        <time>2023-03-04T12:45:28Z</time>
      </trkpt>
      <trkpt lat="46.95131" lon="-1.30208">
        <ele>39</ele>
        <time>2023-03-04T12:45:29Z</time>
      </trkpt>
      <trkpt lat="46.95252" lon="-1.30375">
        <ele>42</ele>
        <time>2023-03-04T12:45:59Z</time>
      </trkpt>
      <trkpt lat="46.95263" lon="-1.30387">
        <ele>43</ele>
        <time>2023-03-04T12:46:01Z</time>
      </trkpt>
      <trkpt lat="46.95267" lon="-1.30392">
        <ele>43</ele>
        <time>2023-03-04T12:46:02Z</time>
      </trkpt>
      <trkpt lat="46.9527" lon="-1.30402">
        <ele>43</ele>
        <time>2023-03-04T12:46:03Z</time>
      </trkpt>
      <trkpt lat="46.95272" lon="-1.30416">
        <ele>43</ele>
        <time>2023-03-04T12:46:05Z</time>
      </trkpt>
      <trkpt lat="46.95276" lon="-1.30421">
        <ele>43</ele>
        <time>2023-03-04T12:46:06Z</time>
      </trkpt>
      <trkpt lat="46.95281" lon="-1.30424">
        <ele>43</ele>
        <time>2023-03-04T12:46:07Z</time>
      </trkpt>
      <trkpt lat="46.95312" lon="-1.30434">
        <ele>45</ele>
        <time>2023-03-04T12:46:13Z</time>
      </trkpt>
      <trkpt lat="46.95643" lon="-1.30515">
        <ele>48</ele>
        <time>2023-03-04T12:47:12Z</time>
      </trkpt>
      <trkpt lat="46.95662" lon="-1.30512">
        <ele>49</ele>
        <time>2023-03-04T12:47:16Z</time>
      </trkpt>
      <trkpt lat="46.9567" lon="-1.30514">
        <ele>49</ele>
        <time>2023-03-04T12:47:17Z</time>
      </trkpt>
      <trkpt lat="46.95934" lon="-1.30578">
        <ele>48</ele>
        <time>2023-03-04T12:48:05Z</time>
      </trkpt>
      <trkpt lat="46.95957" lon="-1.30594">
        <ele>48</ele>
        <time>2023-03-04T12:48:09Z</time>
      </trkpt>
      <trkpt lat="46.96109" lon="-1.30629">
        <ele>47</ele>
        <time>2023-03-04T12:48:37Z</time>
      </trkpt>
      <trkpt lat="46.96128" lon="-1.30629">
        <ele>46</ele>
        <time>2023-03-04T12:48:40Z</time>
      </trkpt>
      <trkpt lat="46.96137" lon="-1.30625">
        <ele>46</ele>
        <time>2023-03-04T12:48:42Z</time>
      </trkpt>
      <trkpt lat="46.96144" lon="-1.30616">
        <ele>46</ele>
        <time>2023-03-04T12:48:43Z</time>
      </trkpt>
      <trkpt lat="46.96152" lon="-1.30618">
        <ele>46</ele>
        <time>2023-03-04T12:48:45Z</time>
      </trkpt>
      <trkpt lat="46.9616" lon="-1.30621">
        <ele>46</ele>
        <time>2023-03-04T12:48:46Z</time>
      </trkpt>
      <trkpt lat="46.96168" lon="-1.30639">
        <ele>46</ele>
        <time>2023-03-04T12:48:49Z</time>
      </trkpt>
      <trkpt lat="46.96176" lon="-1.30645">
        <ele>45</ele>
        <time>2023-03-04T12:48:50Z</time>
      </trkpt>
      <trkpt lat="46.96384" lon="-1.30696">
        <ele>38</ele>
        <time>2023-03-04T12:49:28Z</time>
      </trkpt>
      <trkpt lat="46.96413" lon="-1.307">
        <ele>38</ele>
        <time>2023-03-04T12:49:33Z</time>
      </trkpt>
      <trkpt lat="46.96433" lon="-1.30696">
        <ele>38</ele>
        <time>2023-03-04T12:49:37Z</time>
      </trkpt>
      <trkpt lat="46.96445" lon="-1.30675">
        <ele>39</ele>
        <time>2023-03-04T12:49:40Z</time>
      </trkpt>
      <trkpt lat="46.96449" lon="-1.30671">
        <ele>39</ele>
        <time>2023-03-04T12:49:41Z</time>
      </trkpt>
      <trkpt lat="46.96466" lon="-1.30668">
        <ele>39</ele>
        <time>2023-03-04T12:49:44Z</time>
      </trkpt>
      <trkpt lat="46.96471" lon="-1.30665">
        <ele>39</ele>
        <time>2023-03-04T12:49:45Z</time>
      </trkpt>
      <trkpt lat="46.96475" lon="-1.3066">
        <ele>39</ele>
        <time>2023-03-04T12:49:46Z</time>
      </trkpt>
      <trkpt lat="46.96494" lon="-1.3067">
        <ele>39</ele>
        <time>2023-03-04T12:49:50Z</time>
      </trkpt>
      <trkpt lat="46.96493" lon="-1.30682">
        <ele>39</ele>
        <time>2023-03-04T12:49:51Z</time>
      </trkpt>
      <trkpt lat="46.965" lon="-1.30698">
        <ele>39</ele>
        <time>2023-03-04T12:49:53Z</time>
      </trkpt>
      <trkpt lat="46.96506" lon="-1.30717">
        <ele>38</ele>
        <time>2023-03-04T12:49:56Z</time>
      </trkpt>
      <trkpt lat="46.96514" lon="-1.30724">
        <ele>38</ele>
        <time>2023-03-04T12:49:57Z</time>
      </trkpt>
      <trkpt lat="46.96543" lon="-1.30736">
        <ele>38</ele>
        <time>2023-03-04T12:50:03Z</time>
      </trkpt>
      <trkpt lat="46.96606" lon="-1.30749">
        <ele>39</ele>
        <time>2023-03-04T12:50:14Z</time>
      </trkpt>
      <trkpt lat="46.96658" lon="-1.30764">
        <ele>42</ele>
        <time>2023-03-04T12:50:24Z</time>
      </trkpt>
      <trkpt lat="46.96801" lon="-1.30798">
        <ele>47</ele>
        <time>2023-03-04T12:50:49Z</time>
      </trkpt>
      <trkpt lat="46.96854" lon="-1.30808">
        <ele>47</ele>
        <time>2023-03-04T12:50:59Z</time>
      </trkpt>
      <trkpt lat="46.96919" lon="-1.30797">
        <ele>47</ele>
        <time>2023-03-04T12:51:11Z</time>
      </trkpt>
      <trkpt lat="46.96982" lon="-1.30774">
        <ele>49</ele>
        <time>2023-03-04T12:51:22Z</time>
      </trkpt>
      <trkpt lat="46.97008" lon="-1.30763">
        <ele>49</ele>
        <time>2023-03-04T12:51:27Z</time>
      </trkpt>
      <trkpt lat="46.97012" lon="-1.30758">
        <ele>49</ele>
        <time>2023-03-04T12:51:28Z</time>
      </trkpt>
      <trkpt lat="46.97015" lon="-1.30746">
        <ele>49</ele>
        <time>2023-03-04T12:51:29Z</time>
      </trkpt>
      <trkpt lat="46.97014" lon="-1.3074">
        <ele>49</ele>
        <time>2023-03-04T12:51:30Z</time>
      </trkpt>
      <trkpt lat="46.9701" lon="-1.30731">
        <ele>49</ele>
        <time>2023-03-04T12:51:31Z</time>
      </trkpt>
      <trkpt lat="46.97011" lon="-1.30725">
        <ele>49</ele>
        <time>2023-03-04T12:51:32Z</time>
      </trkpt>
      <trkpt lat="46.97015" lon="-1.3072">
        <ele>49</ele>
        <time>2023-03-04T12:51:33Z</time>
      </trkpt>
      <trkpt lat="46.9702" lon="-1.30718">
        <ele>49</ele>
        <time>2023-03-04T12:51:34Z</time>
      </trkpt>
      <trkpt lat="46.97041" lon="-1.30735">
        <ele>49</ele>
        <time>2023-03-04T12:51:38Z</time>
      </trkpt>
      <trkpt lat="46.97049" lon="-1.30736">
        <ele>49</ele>
        <time>2023-03-04T12:51:40Z</time>
      </trkpt>
      <trkpt lat="46.9713" lon="-1.30683">
        <ele>49</ele>
        <time>2023-03-04T12:51:56Z</time>
      </trkpt>
      <trkpt lat="46.9721" lon="-1.30621">
        <ele>47</ele>
        <time>2023-03-04T12:52:12Z</time>
      </trkpt>
      <trkpt lat="46.97212" lon="-1.30627">
        <ele>47</ele>
        <time>2023-03-04T12:52:12Z</time>
      </trkpt>
      <trkpt lat="46.97235" lon="-1.30609">
        <ele>47</ele>
        <time>2023-03-04T12:52:17Z</time>
      </trkpt>
      <trkpt lat="46.9725" lon="-1.30597">
        <ele>47</ele>
        <time>2023-03-04T12:52:20Z</time>
      </trkpt>
      <trkpt lat="46.97258" lon="-1.30584">
        <ele>47</ele>
        <time>2023-03-04T12:52:22Z</time>
      </trkpt>
      <trkpt lat="46.9726" lon="-1.30577">
        <ele>47</ele>
        <time>2023-03-04T12:52:23Z</time>
      </trkpt>
      <trkpt lat="46.97262" lon="-1.30562">
        <ele>47</ele>
        <time>2023-03-04T12:52:25Z</time>
      </trkpt>
      <trkpt lat="46.97266" lon="-1.30548">
        <ele>47</ele>
        <time>2023-03-04T12:52:27Z</time>
      </trkpt>
      <trkpt lat="46.97272" lon="-1.30552">
        <ele>47</ele>
        <time>2023-03-04T12:52:28Z</time>
      </trkpt>
      <trkpt lat="46.97275" lon="-1.30558">
        <ele>47</ele>
        <time>2023-03-04T12:52:29Z</time>
      </trkpt>
      <trkpt lat="46.97279" lon="-1.30561">
        <ele>47</ele>
        <time>2023-03-04T12:52:30Z</time>
      </trkpt>
      <trkpt lat="46.97286" lon="-1.30561">
        <ele>47</ele>
        <time>2023-03-04T12:52:31Z</time>
      </trkpt>
      <trkpt lat="46.97403" lon="-1.30474">
        <ele>43</ele>
        <time>2023-03-04T12:52:54Z</time>
      </trkpt>
      <trkpt lat="46.97599" lon="-1.30323">
        <ele>36</ele>
        <time>2023-03-04T12:53:34Z</time>
      </trkpt>
      <trkpt lat="46.97636" lon="-1.30296">
        <ele>38</ele>
        <time>2023-03-04T12:53:41Z</time>
      </trkpt>
      <trkpt lat="46.97683" lon="-1.30261">
        <ele>41</ele>
        <time>2023-03-04T12:53:50Z</time>
      </trkpt>
      <trkpt lat="46.97717" lon="-1.30243">
        <ele>43</ele>
        <time>2023-03-04T12:53:57Z</time>
      </trkpt>
      <trkpt lat="46.97762" lon="-1.30231">
        <ele>46</ele>
        <time>2023-03-04T12:54:05Z</time>
      </trkpt>
      <trkpt lat="46.9779" lon="-1.30229">
        <ele>47</ele>
        <time>2023-03-04T12:54:10Z</time>
      </trkpt>
      <trkpt lat="46.97836" lon="-1.30233">
        <ele>49</ele>
        <time>2023-03-04T12:54:18Z</time>
      </trkpt>
      <trkpt lat="46.97836" lon="-1.3024">
        <ele>48</ele>
        <time>2023-03-04T12:54:19Z</time>
      </trkpt>
      <trkpt lat="46.97859" lon="-1.30245">
        <ele>49</ele>
        <time>2023-03-04T12:54:23Z</time>
      </trkpt>
      <trkpt lat="46.97888" lon="-1.30246">
        <ele>51</ele>
        <time>2023-03-04T12:54:28Z</time>
      </trkpt>
      <trkpt lat="46.979" lon="-1.30204">
        <ele>51</ele>
        <time>2023-03-04T12:54:34Z</time>
      </trkpt>
      <trkpt lat="46.97922" lon="-1.30056">
        <ele>53</ele>
        <time>2023-03-04T12:54:52Z</time>
      </trkpt>
      <trkpt lat="46.97952" lon="-1.29872">
        <ele>56</ele>
        <time>2023-03-04T12:55:15Z</time>
      </trkpt>
      <trkpt lat="46.97952" lon="-1.29841">
        <ele>56</ele>
        <time>2023-03-04T12:55:19Z</time>
      </trkpt>
      <trkpt lat="46.97949" lon="-1.29837">
        <ele>56</ele>
        <time>2023-03-04T12:55:20Z</time>
      </trkpt>
      <trkpt lat="46.97947" lon="-1.29826">
        <ele>56</ele>
        <time>2023-03-04T12:55:21Z</time>
      </trkpt>
      <trkpt lat="46.97949" lon="-1.29814">
        <ele>56</ele>
        <time>2023-03-04T12:55:23Z</time>
      </trkpt>
      <trkpt lat="46.97956" lon="-1.29807">
        <ele>56</ele>
        <time>2023-03-04T12:55:24Z</time>
      </trkpt>
      <trkpt lat="46.97967" lon="-1.29774">
        <ele>56</ele>
        <time>2023-03-04T12:55:29Z</time>
      </trkpt>
      <trkpt lat="46.98035" lon="-1.29329">
        <ele>57</ele>
        <time>2023-03-04T12:56:24Z</time>
      </trkpt>
      <trkpt lat="46.9804" lon="-1.29292">
        <ele>57</ele>
        <time>2023-03-04T12:56:29Z</time>
      </trkpt>
      <trkpt lat="46.98067" lon="-1.29121">
        <ele>57</ele>
        <time>2023-03-04T12:56:50Z</time>
      </trkpt>
      <trkpt lat="46.98077" lon="-1.29049">
        <ele>58</ele>
        <time>2023-03-04T12:56:59Z</time>
      </trkpt>
      <trkpt lat="46.98078" lon="-1.29017">
        <ele>59</ele>
        <time>2023-03-04T12:57:03Z</time>
      </trkpt>
      <trkpt lat="46.98075" lon="-1.28977">
        <ele>59</ele>
        <time>2023-03-04T12:57:08Z</time>
      </trkpt>
      <trkpt lat="46.9807" lon="-1.28955">
        <ele>59</ele>
        <time>2023-03-04T12:57:10Z</time>
      </trkpt>
      <trkpt lat="46.9806" lon="-1.28946">
        <ele>59</ele>
        <time>2023-03-04T12:57:12Z</time>
      </trkpt>
      <trkpt lat="46.98056" lon="-1.2894">
        <ele>59</ele>
        <time>2023-03-04T12:57:13Z</time>
      </trkpt>
      <trkpt lat="46.9805" lon="-1.28918">
        <ele>59</ele>
        <time>2023-03-04T12:57:16Z</time>
      </trkpt>
      <trkpt lat="46.9805" lon="-1.28903">
        <ele>59</ele>
        <time>2023-03-04T12:57:18Z</time>
      </trkpt>
      <trkpt lat="46.98053" lon="-1.28889">
        <ele>60</ele>
        <time>2023-03-04T12:57:20Z</time>
      </trkpt>
      <trkpt lat="46.98058" lon="-1.28878">
        <ele>60</ele>
        <time>2023-03-04T12:57:22Z</time>
      </trkpt>
      <trkpt lat="46.98066" lon="-1.28869">
        <ele>60</ele>
        <time>2023-03-04T12:57:23Z</time>
      </trkpt>
      <trkpt lat="46.98075" lon="-1.28864">
        <ele>60</ele>
        <time>2023-03-04T12:57:25Z</time>
      </trkpt>
      <trkpt lat="46.98084" lon="-1.28863">
        <ele>61</ele>
        <time>2023-03-04T12:57:27Z</time>
      </trkpt>
      <trkpt lat="46.98096" lon="-1.28851">
        <ele>61</ele>
        <time>2023-03-04T12:57:29Z</time>
      </trkpt>
      <trkpt lat="46.98116" lon="-1.28792">
        <ele>63</ele>
        <time>2023-03-04T12:57:37Z</time>
      </trkpt>
      <trkpt lat="46.98163" lon="-1.28494">
        <ele>69</ele>
        <time>2023-03-04T12:58:14Z</time>
      </trkpt>
      <trkpt lat="46.98181" lon="-1.28372">
        <ele>69</ele>
        <time>2023-03-04T12:58:29Z</time>
      </trkpt>
      <trkpt lat="46.98185" lon="-1.28312">
        <ele>68</ele>
        <time>2023-03-04T12:58:37Z</time>
      </trkpt>
      <trkpt lat="46.98254" lon="-1.27173">
        <ele>53</ele>
        <time>2023-03-04T13:00:56Z</time>
      </trkpt>
      <trkpt lat="46.98262" lon="-1.27026">
        <ele>53</ele>
        <time>2023-03-04T13:01:14Z</time>
      </trkpt>
      <trkpt lat="46.98272" lon="-1.26875">
        <ele>54</ele>
        <time>2023-03-04T13:01:32Z</time>
      </trkpt>
      <trkpt lat="46.98318" lon="-1.26099">
        <ele>55</ele>
        <time>2023-03-04T13:03:06Z</time>
      </trkpt>
      <trkpt lat="46.98346" lon="-1.25641">
        <ele>57</ele>
        <time>2023-03-04T13:04:02Z</time>
      </trkpt>
      <trkpt lat="46.9837" lon="-1.25243">
        <ele>59</ele>
        <time>2023-03-04T13:04:51Z</time>
      </trkpt>
      <trkpt lat="46.98436" lon="-1.24139">
        <ele>70</ele>
        <time>2023-03-04T13:07:05Z</time>
      </trkpt>
      <trkpt lat="46.98453" lon="-1.23805">
        <ele>71</ele>
        <time>2023-03-04T13:07:46Z</time>
      </trkpt>
      <trkpt lat="46.98454" lon="-1.23785">
        <ele>70</ele>
        <time>2023-03-04T13:07:48Z</time>
      </trkpt>
      <trkpt lat="46.98449" lon="-1.2378">
        <ele>70</ele>
        <time>2023-03-04T13:07:49Z</time>
      </trkpt>
      <trkpt lat="46.98448" lon="-1.23775">
        <ele>70</ele>
        <time>2023-03-04T13:07:50Z</time>
      </trkpt>
      <trkpt lat="46.98449" lon="-1.2377">
        <ele>70</ele>
        <time>2023-03-04T13:07:51Z</time>
      </trkpt>
      <trkpt lat="46.98454" lon="-1.23765">
        <ele>70</ele>
        <time>2023-03-04T13:07:52Z</time>
      </trkpt>
      <trkpt lat="46.98469" lon="-1.23466">
        <ele>68</ele>
        <time>2023-03-04T13:08:28Z</time>
      </trkpt>
      <trkpt lat="46.98467" lon="-1.23453">
        <ele>67</ele>
        <time>2023-03-04T13:08:30Z</time>
      </trkpt>
      <trkpt lat="46.98467" lon="-1.23432">
        <ele>67</ele>
        <time>2023-03-04T13:08:32Z</time>
      </trkpt>
      <trkpt lat="46.98469" lon="-1.23403">
        <ele>67</ele>
        <time>2023-03-04T13:08:36Z</time>
      </trkpt>
      <trkpt lat="46.98475" lon="-1.23352">
        <ele>66</ele>
        <time>2023-03-04T13:08:42Z</time>
      </trkpt>
      <trkpt lat="46.98476" lon="-1.23333">
        <ele>66</ele>
        <time>2023-03-04T13:08:45Z</time>
      </trkpt>
      <trkpt lat="46.98475" lon="-1.23325">
        <ele>66</ele>
        <time>2023-03-04T13:08:46Z</time>
      </trkpt>
      <trkpt lat="46.98478" lon="-1.23299">
        <ele>66</ele>
        <time>2023-03-04T13:08:49Z</time>
      </trkpt>
      <trkpt lat="46.98482" lon="-1.23151">
        <ele>67</ele>
        <time>2023-03-04T13:09:07Z</time>
      </trkpt>
      <trkpt lat="46.98455" lon="-1.23137">
        <ele>66</ele>
        <time>2023-03-04T13:09:12Z</time>
      </trkpt>
      <trkpt lat="46.98417" lon="-1.23128">
        <ele>66</ele>
        <time>2023-03-04T13:09:19Z</time>
      </trkpt>
      <trkpt lat="46.98412" lon="-1.23124">
        <ele>66</ele>
        <time>2023-03-04T13:09:20Z</time>
      </trkpt>
      <trkpt lat="46.98407" lon="-1.23126">
        <ele>66</ele>
        <time>2023-03-04T13:09:21Z</time>
      </trkpt>
      <trkpt lat="46.98404" lon="-1.23121">
        <ele>66</ele>
        <time>2023-03-04T13:09:21Z</time>
      </trkpt>
      <trkpt lat="46.98404" lon="-1.23116">
        <ele>66</ele>
        <time>2023-03-04T13:09:22Z</time>
      </trkpt>
      <trkpt lat="46.98409" lon="-1.23112">
        <ele>66</ele>
        <time>2023-03-04T13:09:23Z</time>
      </trkpt>
      <trkpt lat="46.98411" lon="-1.23095">
        <ele>66</ele>
        <time>2023-03-04T13:09:25Z</time>
      </trkpt>
      <trkpt lat="46.9841" lon="-1.23085">
        <ele>66</ele>
        <time>2023-03-04T13:09:26Z</time>
      </trkpt>
      <trkpt lat="46.98408" lon="-1.23074">
        <ele>66</ele>
        <time>2023-03-04T13:09:28Z</time>
      </trkpt>
      <trkpt lat="46.98398" lon="-1.23064">
        <ele>65</ele>
        <time>2023-03-04T13:09:30Z</time>
      </trkpt>
      <trkpt lat="46.98377" lon="-1.23062">
        <ele>65</ele>
        <time>2023-03-04T13:09:34Z</time>
      </trkpt>
      <trkpt lat="46.98373" lon="-1.23058">
        <ele>65</ele>
        <time>2023-03-04T13:09:34Z</time>
      </trkpt>
      <trkpt lat="46.98366" lon="-1.23029">
        <ele>65</ele>
        <time>2023-03-04T13:09:38Z</time>
      </trkpt>
      <trkpt lat="46.98363" lon="-1.23007">
        <ele>65</ele>
        <time>2023-03-04T13:09:41Z</time>
      </trkpt>
      <trkpt lat="46.98366" lon="-1.22928">
        <ele>64</ele>
        <time>2023-03-04T13:09:51Z</time>
      </trkpt>
      <trkpt lat="46.98365" lon="-1.22909">
        <ele>64</ele>
        <time>2023-03-04T13:09:53Z</time>
      </trkpt>
      <trkpt lat="46.98363" lon="-1.229">
        <ele>64</ele>
        <time>2023-03-04T13:09:54Z</time>
      </trkpt>
      <trkpt lat="46.98342" lon="-1.22856">
        <ele>64</ele>
        <time>2023-03-04T13:10:01Z</time>
      </trkpt>
      <trkpt lat="46.98316" lon="-1.22768">
        <ele>64</ele>
        <time>2023-03-04T13:10:12Z</time>
      </trkpt>
      <trkpt lat="46.98251" lon="-1.22618">
        <ele>66</ele>
        <time>2023-03-04T13:10:34Z</time>
      </trkpt>
      <trkpt lat="46.9823" lon="-1.22561">
        <ele>66</ele>
        <time>2023-03-04T13:10:42Z</time>
      </trkpt>
      <trkpt lat="46.98235" lon="-1.22558">
        <ele>67</ele>
        <time>2023-03-04T13:10:43Z</time>
      </trkpt>
      <trkpt lat="46.98227" lon="-1.22534">
        <ele>67</ele>
        <time>2023-03-04T13:10:46Z</time>
      </trkpt>
      <trkpt lat="46.98206" lon="-1.22483">
        <ele>67</ele>
        <time>2023-03-04T13:10:53Z</time>
      </trkpt>
      <trkpt lat="46.98207" lon="-1.22477">
        <ele>67</ele>
        <time>2023-03-04T13:10:54Z</time>
      </trkpt>
      <trkpt lat="46.982" lon="-1.22458">
        <ele>67</ele>
        <time>2023-03-04T13:10:56Z</time>
      </trkpt>
      <trkpt lat="46.98194" lon="-1.22435">
        <ele>67</ele>
        <time>2023-03-04T13:10:59Z</time>
      </trkpt>
      <trkpt lat="46.98176" lon="-1.22349">
        <ele>66</ele>
        <time>2023-03-04T13:11:10Z</time>
      </trkpt>
      <trkpt lat="46.98162" lon="-1.22261">
        <ele>66</ele>
        <time>2023-03-04T13:11:21Z</time>
      </trkpt>
      <trkpt lat="46.98141" lon="-1.22188">
        <ele>67</ele>
        <time>2023-03-04T13:11:31Z</time>
      </trkpt>
      <trkpt lat="46.98136" lon="-1.22157">
        <ele>67</ele>
        <time>2023-03-04T13:11:35Z</time>
      </trkpt>
      <trkpt lat="46.9813" lon="-1.22159">
        <ele>67</ele>
        <time>2023-03-04T13:11:36Z</time>
      </trkpt>
      <trkpt lat="46.98123" lon="-1.22098">
        <ele>66</ele>
        <time>2023-03-04T13:11:43Z</time>
      </trkpt>
      <trkpt lat="46.98119" lon="-1.22057">
        <ele>67</ele>
        <time>2023-03-04T13:11:48Z</time>
      </trkpt>
      <trkpt lat="46.9811" lon="-1.2191">
        <ele>68</ele>
        <time>2023-03-04T13:12:06Z</time>
      </trkpt>
      <trkpt lat="46.98098" lon="-1.2185">
        <ele>70</ele>
        <time>2023-03-04T13:12:14Z</time>
      </trkpt>
      <trkpt lat="46.98065" lon="-1.21709">
        <ele>73</ele>
        <time>2023-03-04T13:12:32Z</time>
      </trkpt>
      <trkpt lat="46.9804" lon="-1.21582">
        <ele>74</ele>
        <time>2023-03-04T13:12:48Z</time>
      </trkpt>
      <trkpt lat="46.98033" lon="-1.21556">
        <ele>74</ele>
        <time>2023-03-04T13:12:51Z</time>
      </trkpt>
      <trkpt lat="46.98024" lon="-1.21534">
        <ele>74</ele>
        <time>2023-03-04T13:12:55Z</time>
      </trkpt>
      <trkpt lat="46.98014" lon="-1.21512">
        <ele>74</ele>
        <time>2023-03-04T13:12:58Z</time>
      </trkpt>
      <trkpt lat="46.97977" lon="-1.21444">
        <ele>73</ele>
        <time>2023-03-04T13:13:08Z</time>
      </trkpt>
      <trkpt lat="46.97969" lon="-1.21423">
        <ele>73</ele>
        <time>2023-03-04T13:13:11Z</time>
      </trkpt>
      <trkpt lat="46.97926" lon="-1.21274">
        <ele>74</ele>
        <time>2023-03-04T13:13:31Z</time>
      </trkpt>
      <trkpt lat="46.97908" lon="-1.21203">
        <ele>75</ele>
        <time>2023-03-04T13:13:40Z</time>
      </trkpt>
      <trkpt lat="46.97879" lon="-1.21061">
        <ele>76</ele>
        <time>2023-03-04T13:13:58Z</time>
      </trkpt>
      <trkpt lat="46.97838" lon="-1.20914">
        <ele>76</ele>
        <time>2023-03-04T13:14:17Z</time>
      </trkpt>
      <trkpt lat="46.97828" lon="-1.20873">
        <ele>76</ele>
        <time>2023-03-04T13:14:23Z</time>
      </trkpt>
      <trkpt lat="46.97818" lon="-1.20628">
        <ele>77</ele>
        <time>2023-03-04T13:14:52Z</time>
      </trkpt>
      <trkpt lat="46.97816" lon="-1.20528">
        <ele>76</ele>
        <time>2023-03-04T13:15:05Z</time>
      </trkpt>
      <trkpt lat="46.9781" lon="-1.20479">
        <ele>76</ele>
        <time>2023-03-04T13:15:11Z</time>
      </trkpt>
      <trkpt lat="46.97681" lon="-1.20513">
        <ele>77</ele>
        <time>2023-03-04T13:15:34Z</time>
      </trkpt>
      <trkpt lat="46.97553" lon="-1.20568">
        <ele>76</ele>
        <time>2023-03-04T13:15:58Z</time>
      </trkpt>
      <trkpt lat="46.97401" lon="-1.20657">
        <ele>75</ele>
        <time>2023-03-04T13:16:27Z</time>
      </trkpt>
      <trkpt lat="46.97369" lon="-1.20673">
        <ele>74</ele>
        <time>2023-03-04T13:16:33Z</time>
      </trkpt>
      <trkpt lat="46.97355" lon="-1.20677">
        <ele>73</ele>
        <time>2023-03-04T13:16:35Z</time>
      </trkpt>
      <trkpt lat="46.97341" lon="-1.20677">
        <ele>73</ele>
        <time>2023-03-04T13:16:38Z</time>
      </trkpt>
      <trkpt lat="46.97256" lon="-1.20665">
        <ele>70</ele>
        <time>2023-03-04T13:16:53Z</time>
      </trkpt>
      <trkpt lat="46.97197" lon="-1.20651">
        <ele>70</ele>
        <time>2023-03-04T13:17:04Z</time>
      </trkpt>
      <trkpt lat="46.97184" lon="-1.20645">
        <ele>70</ele>
        <time>2023-03-04T13:17:06Z</time>
      </trkpt>
      <trkpt lat="46.96941" lon="-1.20476">
        <ele>71</ele>
        <time>2023-03-04T13:17:54Z</time>
      </trkpt>
      <trkpt lat="46.96454" lon="-1.20137">
        <ele>78</ele>
        <time>2023-03-04T13:19:30Z</time>
      </trkpt>
      <trkpt lat="46.96422" lon="-1.2011">
        <ele>78</ele>
        <time>2023-03-04T13:19:36Z</time>
      </trkpt>
      <trkpt lat="46.96296" lon="-1.19967">
        <ele>78</ele>
        <time>2023-03-04T13:20:05Z</time>
      </trkpt>
      <trkpt lat="46.96276" lon="-1.19938">
        <ele>78</ele>
        <time>2023-03-04T13:20:10Z</time>
      </trkpt>
      <trkpt lat="46.95846" lon="-1.19287">
        <ele>85</ele>
        <time>2023-03-04T13:22:00Z</time>
      </trkpt>
      <trkpt lat="46.95818" lon="-1.19253">
        <ele>85</ele>
        <time>2023-03-04T13:22:06Z</time>
      </trkpt>
      <trkpt lat="46.95761" lon="-1.19209">
        <ele>85</ele>
        <time>2023-03-04T13:22:18Z</time>
      </trkpt>
      <trkpt lat="46.95714" lon="-1.19183">
        <ele>84</ele>
        <time>2023-03-04T13:22:27Z</time>
      </trkpt>
      <trkpt lat="46.95669" lon="-1.19166">
        <ele>83</ele>
        <time>2023-03-04T13:22:35Z</time>
      </trkpt>
      <trkpt lat="46.95639" lon="-1.19162">
        <ele>83</ele>
        <time>2023-03-04T13:22:40Z</time>
      </trkpt>
      <trkpt lat="46.95516" lon="-1.19185">
        <ele>83</ele>
        <time>2023-03-04T13:23:02Z</time>
      </trkpt>
      <trkpt lat="46.95447" lon="-1.19193">
        <ele>84</ele>
        <time>2023-03-04T13:23:15Z</time>
      </trkpt>
      <trkpt lat="46.95323" lon="-1.19186">
        <ele>83</ele>
        <time>2023-03-04T13:23:37Z</time>
      </trkpt>
      <trkpt lat="46.95292" lon="-1.19176">
        <ele>83</ele>
        <time>2023-03-04T13:23:42Z</time>
      </trkpt>
      <trkpt lat="46.95268" lon="-1.19182">
        <ele>84</ele>
        <time>2023-03-04T13:23:47Z</time>
      </trkpt>
      <trkpt lat="46.95177" lon="-1.19224">
        <ele>81</ele>
        <time>2023-03-04T13:24:04Z</time>
      </trkpt>
      <trkpt lat="46.95153" lon="-1.19226">
        <ele>81</ele>
        <time>2023-03-04T13:24:08Z</time>
      </trkpt>
      <trkpt lat="46.95121" lon="-1.19219">
        <ele>80</ele>
        <time>2023-03-04T13:24:14Z</time>
      </trkpt>
      <trkpt lat="46.95108" lon="-1.19211">
        <ele>80</ele>
        <time>2023-03-04T13:24:16Z</time>
      </trkpt>
      <trkpt lat="46.95079" lon="-1.19181">
        <ele>79</ele>
        <time>2023-03-04T13:24:23Z</time>
      </trkpt>
      <trkpt lat="46.95016" lon="-1.19102">
        <ele>80</ele>
        <time>2023-03-04T13:24:37Z</time>
      </trkpt>
      <trkpt lat="46.95002" lon="-1.19083">
        <ele>80</ele>
        <time>2023-03-04T13:24:41Z</time>
      </trkpt>
      <trkpt lat="46.95" lon="-1.19074">
        <ele>80</ele>
        <time>2023-03-04T13:24:42Z</time>
      </trkpt>
      <trkpt lat="46.94999" lon="-1.19056">
        <ele>80</ele>
        <time>2023-03-04T13:24:44Z</time>
      </trkpt>
      <trkpt lat="46.95006" lon="-1.19046">
        <ele>80</ele>
        <time>2023-03-04T13:24:46Z</time>
      </trkpt>
      <trkpt lat="46.95038" lon="-1.19029">
        <ele>79</ele>
        <time>2023-03-04T13:24:52Z</time>
      </trkpt>
      <trkpt lat="46.95042" lon="-1.19024">
        <ele>79</ele>
        <time>2023-03-04T13:24:53Z</time>
      </trkpt>
      <trkpt lat="46.95045" lon="-1.19016">
        <ele>79</ele>
        <time>2023-03-04T13:24:54Z</time>
      </trkpt>
      <trkpt lat="46.95045" lon="-1.19007">
        <ele>79</ele>
        <time>2023-03-04T13:24:55Z</time>
      </trkpt>
      <trkpt lat="46.95041" lon="-1.18986">
        <ele>79</ele>
        <time>2023-03-04T13:24:58Z</time>
      </trkpt>
      <trkpt lat="46.95034" lon="-1.18971">
        <ele>79</ele>
        <time>2023-03-04T13:25:00Z</time>
      </trkpt>
      <trkpt lat="46.94994" lon="-1.18906">
        <ele>78</ele>
        <time>2023-03-04T13:25:10Z</time>
      </trkpt>
      <trkpt lat="46.94989" lon="-1.18895">
        <ele>78</ele>
        <time>2023-03-04T13:25:12Z</time>
      </trkpt>
      <trkpt lat="46.94979" lon="-1.18863">
        <ele>77</ele>
        <time>2023-03-04T13:25:16Z</time>
      </trkpt>
      <trkpt lat="46.94976" lon="-1.18841">
        <ele>77</ele>
        <time>2023-03-04T13:25:19Z</time>
      </trkpt>
      <trkpt lat="46.94986" lon="-1.18579">
        <ele>79</ele>
        <time>2023-03-04T13:25:51Z</time>
      </trkpt>
      <trkpt lat="46.94986" lon="-1.18542">
        <ele>80</ele>
        <time>2023-03-04T13:25:55Z</time>
      </trkpt>
      <trkpt lat="46.94989" lon="-1.18518">
        <ele>81</ele>
        <time>2023-03-04T13:25:58Z</time>
      </trkpt>
      <trkpt lat="46.95002" lon="-1.18444">
        <ele>81</ele>
        <time>2023-03-04T13:26:08Z</time>
      </trkpt>
      <trkpt lat="46.95045" lon="-1.18213">
        <ele>77</ele>
        <time>2023-03-04T13:26:37Z</time>
      </trkpt>
      <trkpt lat="46.95052" lon="-1.18183">
        <ele>77</ele>
        <time>2023-03-04T13:26:41Z</time>
      </trkpt>
      <trkpt lat="46.95062" lon="-1.1815">
        <ele>77</ele>
        <time>2023-03-04T13:26:45Z</time>
      </trkpt>
      <trkpt lat="46.95307" lon="-1.17604">
        <ele>84</ele>
        <time>2023-03-04T13:28:04Z</time>
      </trkpt>
      <trkpt lat="46.95336" lon="-1.17541">
        <ele>84</ele>
        <time>2023-03-04T13:28:14Z</time>
      </trkpt>
      <trkpt lat="46.95347" lon="-1.17525">
        <ele>84</ele>
        <time>2023-03-04T13:28:16Z</time>
      </trkpt>
      <trkpt lat="46.95361" lon="-1.17508">
        <ele>85</ele>
        <time>2023-03-04T13:28:20Z</time>
      </trkpt>
      <trkpt lat="46.95621" lon="-1.17262">
        <ele>91</ele>
        <time>2023-03-04T13:29:15Z</time>
      </trkpt>
      <trkpt lat="46.95636" lon="-1.17243">
        <ele>91</ele>
        <time>2023-03-04T13:29:18Z</time>
      </trkpt>
      <trkpt lat="46.95648" lon="-1.17227">
        <ele>91</ele>
        <time>2023-03-04T13:29:21Z</time>
      </trkpt>
      <trkpt lat="46.95665" lon="-1.17196">
        <ele>91</ele>
        <time>2023-03-04T13:29:26Z</time>
      </trkpt>
      <trkpt lat="46.95763" lon="-1.17004">
        <ele>92</ele>
        <time>2023-03-04T13:29:55Z</time>
      </trkpt>
      <trkpt lat="46.95783" lon="-1.16973">
        <ele>93</ele>
        <time>2023-03-04T13:30:00Z</time>
      </trkpt>
      <trkpt lat="46.95929" lon="-1.16777">
        <ele>91</ele>
        <time>2023-03-04T13:30:35Z</time>
      </trkpt>
      <trkpt lat="46.95952" lon="-1.1674">
        <ele>92</ele>
        <time>2023-03-04T13:30:42Z</time>
      </trkpt>
      <trkpt lat="46.9596" lon="-1.16722">
        <ele>92</ele>
        <time>2023-03-04T13:30:44Z</time>
      </trkpt>
      <trkpt lat="46.95971" lon="-1.16688">
        <ele>92</ele>
        <time>2023-03-04T13:30:49Z</time>
      </trkpt>
      <trkpt lat="46.95976" lon="-1.16665">
        <ele>92</ele>
        <time>2023-03-04T13:30:52Z</time>
      </trkpt>
      <trkpt lat="46.95981" lon="-1.16618">
        <ele>92</ele>
        <time>2023-03-04T13:30:57Z</time>
      </trkpt>
      <trkpt lat="46.95985" lon="-1.16267">
        <ele>87</ele>
        <time>2023-03-04T13:31:40Z</time>
      </trkpt>
      <trkpt lat="46.95991" lon="-1.15695">
        <ele>91</ele>
        <time>2023-03-04T13:32:50Z</time>
      </trkpt>
      <trkpt lat="46.96005" lon="-1.14344">
        <ele>101</ele>
        <time>2023-03-04T13:35:34Z</time>
      </trkpt>
      <trkpt lat="46.9601" lon="-1.14217">
        <ele>100</ele>
        <time>2023-03-04T13:35:49Z</time>
      </trkpt>
      <trkpt lat="46.96134" lon="-1.12734">
        <ele>101</ele>
        <time>2023-03-04T13:38:50Z</time>
      </trkpt>
      <trkpt lat="46.96128" lon="-1.12729">
        <ele>101</ele>
        <time>2023-03-04T13:38:52Z</time>
      </trkpt>
      <trkpt lat="46.96125" lon="-1.1272">
        <ele>101</ele>
        <time>2023-03-04T13:38:53Z</time>
      </trkpt>
      <trkpt lat="46.96126" lon="-1.12715">
        <ele>101</ele>
        <time>2023-03-04T13:38:54Z</time>
      </trkpt>
      <trkpt lat="46.9613" lon="-1.12707">
        <ele>101</ele>
        <time>2023-03-04T13:38:55Z</time>
      </trkpt>
      <trkpt lat="46.96136" lon="-1.12705">
        <ele>101</ele>
        <time>2023-03-04T13:38:56Z</time>
      </trkpt>
      <trkpt lat="46.96143" lon="-1.12608">
        <ele>101</ele>
        <time>2023-03-04T13:39:08Z</time>
      </trkpt>
      <trkpt lat="46.96148" lon="-1.12411">
        <ele>104</ele>
        <time>2023-03-04T13:39:32Z</time>
      </trkpt>
      <trkpt lat="46.96154" lon="-1.12047">
        <ele>106</ele>
        <time>2023-03-04T13:40:16Z</time>
      </trkpt>
      <trkpt lat="46.96152" lon="-1.12031">
        <ele>106</ele>
        <time>2023-03-04T13:40:18Z</time>
      </trkpt>
      <trkpt lat="46.96243" lon="-1.11999">
        <ele>106</ele>
        <time>2023-03-04T13:40:34Z</time>
      </trkpt>
      <trkpt lat="46.96342" lon="-1.11957">
        <ele>109</ele>
        <time>2023-03-04T13:40:53Z</time>
      </trkpt>
      <trkpt lat="46.96348" lon="-1.11953">
        <ele>109</ele>
        <time>2023-03-04T13:40:54Z</time>
      </trkpt>
      <trkpt lat="46.96354" lon="-1.11944">
        <ele>109</ele>
        <time>2023-03-04T13:40:56Z</time>
      </trkpt>
      <trkpt lat="46.96382" lon="-1.11945">
        <ele>110</ele>
        <time>2023-03-04T13:41:01Z</time>
      </trkpt>
      <trkpt lat="46.96403" lon="-1.1194">
        <ele>110</ele>
        <time>2023-03-04T13:41:04Z</time>
      </trkpt>
      <trkpt lat="46.96444" lon="-1.11918">
        <ele>111</ele>
        <time>2023-03-04T13:41:12Z</time>
      </trkpt>
      <trkpt lat="46.96492" lon="-1.11882">
        <ele>110</ele>
        <time>2023-03-04T13:41:22Z</time>
      </trkpt>
      <trkpt lat="46.9666" lon="-1.11722">
        <ele>106</ele>
        <time>2023-03-04T13:41:57Z</time>
      </trkpt>
      <trkpt lat="46.96659" lon="-1.11716">
        <ele>106</ele>
        <time>2023-03-04T13:41:58Z</time>
      </trkpt>
      <trkpt lat="46.96661" lon="-1.11711">
        <ele>106</ele>
        <time>2023-03-04T13:41:59Z</time>
      </trkpt>
      <trkpt lat="46.96665" lon="-1.11709">
        <ele>106</ele>
        <time>2023-03-04T13:42:00Z</time>
      </trkpt>
      <trkpt lat="46.96669" lon="-1.11712">
        <ele>106</ele>
        <time>2023-03-04T13:42:00Z</time>
      </trkpt>
      <trkpt lat="46.96759" lon="-1.11625">
        <ele>106</ele>
        <time>2023-03-04T13:42:19Z</time>
      </trkpt>
      <trkpt lat="46.97128" lon="-1.11378">
        <ele>89</ele>
        <time>2023-03-04T13:43:32Z</time>
      </trkpt>
      <trkpt lat="46.97224" lon="-1.11314">
        <ele>86</ele>
        <time>2023-03-04T13:43:50Z</time>
      </trkpt>
      <trkpt lat="46.9738" lon="-1.11232">
        <ele>83</ele>
        <time>2023-03-04T13:44:20Z</time>
      </trkpt>
      <trkpt lat="46.97387" lon="-1.11229">
        <ele>83</ele>
        <time>2023-03-04T13:44:21Z</time>
      </trkpt>
      <trkpt lat="46.97416" lon="-1.11219">
        <ele>82</ele>
        <time>2023-03-04T13:44:27Z</time>
      </trkpt>
      <trkpt lat="46.97456" lon="-1.11216">
        <ele>84</ele>
        <time>2023-03-04T13:44:34Z</time>
      </trkpt>
      <trkpt lat="46.97672" lon="-1.11238">
        <ele>86</ele>
        <time>2023-03-04T13:45:12Z</time>
      </trkpt>
      <trkpt lat="46.97874" lon="-1.11262">
        <ele>84</ele>
        <time>2023-03-04T13:45:48Z</time>
      </trkpt>
      <trkpt lat="46.97903" lon="-1.11263">
        <ele>84</ele>
        <time>2023-03-04T13:45:53Z</time>
      </trkpt>
      <trkpt lat="46.97935" lon="-1.11258">
        <ele>85</ele>
        <time>2023-03-04T13:45:59Z</time>
      </trkpt>
      <trkpt lat="46.98244" lon="-1.11158">
        <ele>89</ele>
        <time>2023-03-04T13:46:55Z</time>
      </trkpt>
      <trkpt lat="46.98824" lon="-1.10994">
        <ele>86</ele>
        <time>2023-03-04T13:48:41Z</time>
      </trkpt>
      <trkpt lat="46.98996" lon="-1.10969">
        <ele>80</ele>
        <time>2023-03-04T13:49:11Z</time>
      </trkpt>
      <trkpt lat="46.99025" lon="-1.10962">
        <ele>79</ele>
        <time>2023-03-04T13:49:17Z</time>
      </trkpt>
      <trkpt lat="46.99052" lon="-1.10947">
        <ele>77</ele>
        <time>2023-03-04T13:49:22Z</time>
      </trkpt>
      <trkpt lat="46.9918" lon="-1.10845">
        <ele>74</ele>
        <time>2023-03-04T13:49:48Z</time>
      </trkpt>
      <trkpt lat="46.99222" lon="-1.10828">
        <ele>74</ele>
        <time>2023-03-04T13:49:55Z</time>
      </trkpt>
      <trkpt lat="46.9927" lon="-1.10822">
        <ele>74</ele>
        <time>2023-03-04T13:50:04Z</time>
      </trkpt>
      <trkpt lat="46.99287" lon="-1.10819">
        <ele>74</ele>
        <time>2023-03-04T13:50:07Z</time>
      </trkpt>
      <trkpt lat="46.99298" lon="-1.10823">
        <ele>74</ele>
        <time>2023-03-04T13:50:09Z</time>
      </trkpt>
      <trkpt lat="46.99317" lon="-1.10838">
        <ele>74</ele>
        <time>2023-03-04T13:50:13Z</time>
      </trkpt>
      <trkpt lat="46.99334" lon="-1.10855">
        <ele>74</ele>
        <time>2023-03-04T13:50:16Z</time>
      </trkpt>
      <trkpt lat="46.99342" lon="-1.10867">
        <ele>74</ele>
        <time>2023-03-04T13:50:19Z</time>
      </trkpt>
      <trkpt lat="46.99351" lon="-1.10891">
        <ele>74</ele>
        <time>2023-03-04T13:50:22Z</time>
      </trkpt>
      <trkpt lat="46.99359" lon="-1.10948">
        <ele>74</ele>
        <time>2023-03-04T13:50:29Z</time>
      </trkpt>
      <trkpt lat="46.99367" lon="-1.10972">
        <ele>75</ele>
        <time>2023-03-04T13:50:32Z</time>
      </trkpt>
      <trkpt lat="46.99377" lon="-1.10996">
        <ele>75</ele>
        <time>2023-03-04T13:50:36Z</time>
      </trkpt>
      <trkpt lat="46.99388" lon="-1.11016">
        <ele>75</ele>
        <time>2023-03-04T13:50:39Z</time>
      </trkpt>
      <trkpt lat="46.99408" lon="-1.11046">
        <ele>75</ele>
        <time>2023-03-04T13:50:44Z</time>
      </trkpt>
      <trkpt lat="46.99435" lon="-1.1107">
        <ele>75</ele>
        <time>2023-03-04T13:50:49Z</time>
      </trkpt>
      <trkpt lat="46.99448" lon="-1.11074">
        <ele>76</ele>
        <time>2023-03-04T13:50:52Z</time>
      </trkpt>
      <trkpt lat="46.99474" lon="-1.11072">
        <ele>78</ele>
        <time>2023-03-04T13:50:56Z</time>
      </trkpt>
      <trkpt lat="46.99499" lon="-1.1106">
        <ele>81</ele>
        <time>2023-03-04T13:51:01Z</time>
      </trkpt>
      <trkpt lat="46.99521" lon="-1.11046">
        <ele>83</ele>
        <time>2023-03-04T13:51:05Z</time>
      </trkpt>
      <trkpt lat="46.99535" lon="-1.11032">
        <ele>83</ele>
        <time>2023-03-04T13:51:08Z</time>
      </trkpt>
      <trkpt lat="46.99551" lon="-1.11011">
        <ele>85</ele>
        <time>2023-03-04T13:51:12Z</time>
      </trkpt>
      <trkpt lat="46.99595" lon="-1.10909">
        <ele>86</ele>
        <time>2023-03-04T13:51:27Z</time>
      </trkpt>
      <trkpt lat="46.99611" lon="-1.10883">
        <ele>86</ele>
        <time>2023-03-04T13:51:31Z</time>
      </trkpt>
      <trkpt lat="46.99626" lon="-1.10869">
        <ele>86</ele>
        <time>2023-03-04T13:51:34Z</time>
      </trkpt>
      <trkpt lat="46.99645" lon="-1.10858">
        <ele>86</ele>
        <time>2023-03-04T13:51:38Z</time>
      </trkpt>
      <trkpt lat="47.00075" lon="-1.10779">
        <ele>86</ele>
        <time>2023-03-04T13:52:55Z</time>
      </trkpt>
      <trkpt lat="47.00103" lon="-1.10779">
        <ele>87</ele>
        <time>2023-03-04T13:53:00Z</time>
      </trkpt>
      <trkpt lat="47.00283" lon="-1.10824">
        <ele>90</ele>
        <time>2023-03-04T13:53:32Z</time>
      </trkpt>
      <trkpt lat="47.00755" lon="-1.10935">
        <ele>99</ele>
        <time>2023-03-04T13:54:57Z</time>
      </trkpt>
      <trkpt lat="47.00917" lon="-1.10971">
        <ele>101</ele>
        <time>2023-03-04T13:55:27Z</time>
      </trkpt>
      <trkpt lat="47.01071" lon="-1.11006">
        <ele>101</ele>
        <time>2023-03-04T13:55:54Z</time>
      </trkpt>
      <trkpt lat="47.01086" lon="-1.11012">
        <ele>101</ele>
        <time>2023-03-04T13:55:57Z</time>
      </trkpt>
      <trkpt lat="47.01086" lon="-1.11007">
        <ele>101</ele>
        <time>2023-03-04T13:55:58Z</time>
      </trkpt>
      <trkpt lat="47.01077" lon="-1.10983">
        <ele>101</ele>
        <time>2023-03-04T13:56:01Z</time>
      </trkpt>
      <trkpt lat="47.01084" lon="-1.10975">
        <ele>101</ele>
        <time>2023-03-04T13:56:03Z</time>
      </trkpt>
      <trkpt lat="47.01105" lon="-1.10974">
        <ele>100</ele>
        <time>2023-03-04T13:56:06Z</time>
      </trkpt>
      <trkpt lat="47.01112" lon="-1.10971">
        <ele>100</ele>
        <time>2023-03-04T13:56:08Z</time>
      </trkpt>
      <trkpt lat="47.01136" lon="-1.10942">
        <ele>99</ele>
        <time>2023-03-04T13:56:13Z</time>
      </trkpt>
      <trkpt lat="47.0116" lon="-1.10922">
        <ele>98</ele>
        <time>2023-03-04T13:56:18Z</time>
      </trkpt>
      <trkpt lat="47.01128" lon="-1.10828">
        <ele>101</ele>
        <time>2023-03-04T13:56:31Z</time>
      </trkpt>
      <trkpt lat="47.01117" lon="-1.10783">
        <ele>102</ele>
        <time>2023-03-04T13:56:37Z</time>
      </trkpt>
      <trkpt lat="47.01112" lon="-1.10759">
        <ele>102</ele>
        <time>2023-03-04T13:56:40Z</time>
      </trkpt>
      <trkpt lat="47.01103" lon="-1.10693">
        <ele>102</ele>
        <time>2023-03-04T13:56:48Z</time>
      </trkpt>
      <trkpt lat="47.01092" lon="-1.10542">
        <ele>104</ele>
        <time>2023-03-04T13:57:06Z</time>
      </trkpt>
      <trkpt lat="47.01091" lon="-1.10525">
        <ele>104</ele>
        <time>2023-03-04T13:57:08Z</time>
      </trkpt>
      <trkpt lat="47.01082" lon="-1.10462">
        <ele>105</ele>
        <time>2023-03-04T13:57:16Z</time>
      </trkpt>
      <trkpt lat="47.01077" lon="-1.10441">
        <ele>105</ele>
        <time>2023-03-04T13:57:19Z</time>
      </trkpt>
      <trkpt lat="47.01053" lon="-1.10363">
        <ele>106</ele>
        <time>2023-03-04T13:57:29Z</time>
      </trkpt>
      <trkpt lat="47.01023" lon="-1.10297">
        <ele>107</ele>
        <time>2023-03-04T13:57:39Z</time>
      </trkpt>
      <trkpt lat="47.00977" lon="-1.10209">
        <ele>110</ele>
        <time>2023-03-04T13:57:52Z</time>
      </trkpt>
      <trkpt lat="47.00928" lon="-1.10124">
        <ele>109</ele>
        <time>2023-03-04T13:58:06Z</time>
      </trkpt>
      <trkpt lat="47.00889" lon="-1.10046">
        <ele>107</ele>
        <time>2023-03-04T13:58:18Z</time>
      </trkpt>
      <trkpt lat="47.00818" lon="-1.09878">
        <ele>106</ele>
        <time>2023-03-04T13:58:42Z</time>
      </trkpt>
      <trkpt lat="47.00788" lon="-1.09822">
        <ele>107</ele>
        <time>2023-03-04T13:58:50Z</time>
      </trkpt>
      <trkpt lat="47.00676" lon="-1.0967">
        <ele>105</ele>
        <time>2023-03-04T13:59:17Z</time>
      </trkpt>
      <trkpt lat="47.0065" lon="-1.09641">
        <ele>105</ele>
        <time>2023-03-04T13:59:23Z</time>
      </trkpt>
      <trkpt lat="47.00626" lon="-1.0962">
        <ele>105</ele>
        <time>2023-03-04T13:59:28Z</time>
      </trkpt>
      <trkpt lat="47.00563" lon="-1.09579">
        <ele>105</ele>
        <time>2023-03-04T13:59:40Z</time>
      </trkpt>
      <trkpt lat="47.00553" lon="-1.09568">
        <ele>105</ele>
        <time>2023-03-04T13:59:43Z</time>
      </trkpt>
      <trkpt lat="47.00541" lon="-1.09547">
        <ele>105</ele>
        <time>2023-03-04T13:59:46Z</time>
      </trkpt>
      <trkpt lat="47.00511" lon="-1.09484">
        <ele>104</ele>
        <time>2023-03-04T13:59:55Z</time>
      </trkpt>
      <trkpt lat="47.0047" lon="-1.09378">
        <ele>103</ele>
        <time>2023-03-04T14:00:10Z</time>
      </trkpt>
      <trkpt lat="47.00428" lon="-1.09282">
        <ele>103</ele>
        <time>2023-03-04T14:00:24Z</time>
      </trkpt>
      <trkpt lat="47.0041" lon="-1.09246">
        <ele>104</ele>
        <time>2023-03-04T14:00:29Z</time>
      </trkpt>
      <trkpt lat="47.0039" lon="-1.09201">
        <ele>104</ele>
        <time>2023-03-04T14:00:36Z</time>
      </trkpt>
      <trkpt lat="47.00378" lon="-1.09178">
        <ele>104</ele>
        <time>2023-03-04T14:00:39Z</time>
      </trkpt>
      <trkpt lat="47.00236" lon="-1.08986">
        <ele>107</ele>
        <time>2023-03-04T14:01:14Z</time>
      </trkpt>
      <trkpt lat="47.00191" lon="-1.08934">
        <ele>106</ele>
        <time>2023-03-04T14:01:24Z</time>
      </trkpt>
      <trkpt lat="47.00158" lon="-1.0889">
        <ele>106</ele>
        <time>2023-03-04T14:01:32Z</time>
      </trkpt>
      <trkpt lat="47.00137" lon="-1.08854">
        <ele>105</ele>
        <time>2023-03-04T14:01:38Z</time>
      </trkpt>
      <trkpt lat="47.00075" lon="-1.08738">
        <ele>106</ele>
        <time>2023-03-04T14:01:55Z</time>
      </trkpt>
      <trkpt lat="46.99995" lon="-1.08579">
        <ele>105</ele>
        <time>2023-03-04T14:02:19Z</time>
      </trkpt>
      <trkpt lat="46.99927" lon="-1.08417">
        <ele>100</ele>
        <time>2023-03-04T14:02:43Z</time>
      </trkpt>
      <trkpt lat="46.99886" lon="-1.0833">
        <ele>97</ele>
        <time>2023-03-04T14:02:55Z</time>
      </trkpt>
      <trkpt lat="46.99847" lon="-1.08235">
        <ele>92</ele>
        <time>2023-03-04T14:03:09Z</time>
      </trkpt>
      <trkpt lat="46.9984" lon="-1.08212">
        <ele>91</ele>
        <time>2023-03-04T14:03:12Z</time>
      </trkpt>
      <trkpt lat="46.99837" lon="-1.08181">
        <ele>90</ele>
        <time>2023-03-04T14:03:16Z</time>
      </trkpt>
      <trkpt lat="46.99834" lon="-1.08114">
        <ele>88</ele>
        <time>2023-03-04T14:03:24Z</time>
      </trkpt>
      <trkpt lat="46.99834" lon="-1.07986">
        <ele>84</ele>
        <time>2023-03-04T14:03:39Z</time>
      </trkpt>
      <trkpt lat="46.99831" lon="-1.07955">
        <ele>84</ele>
        <time>2023-03-04T14:03:43Z</time>
      </trkpt>
      <trkpt lat="46.99827" lon="-1.07929">
        <ele>83</ele>
        <time>2023-03-04T14:03:46Z</time>
      </trkpt>
      <trkpt lat="46.99814" lon="-1.07822">
        <ele>79</ele>
        <time>2023-03-04T14:04:00Z</time>
      </trkpt>
      <trkpt lat="46.99809" lon="-1.07768">
        <ele>78</ele>
        <time>2023-03-04T14:04:06Z</time>
      </trkpt>
      <trkpt lat="46.99791" lon="-1.07467">
        <ele>63</ele>
        <time>2023-03-04T14:04:43Z</time>
      </trkpt>
      <trkpt lat="46.9981" lon="-1.07461">
        <ele>63</ele>
        <time>2023-03-04T14:04:46Z</time>
      </trkpt>
      <trkpt lat="46.9985" lon="-1.07436">
        <ele>63</ele>
        <time>2023-03-04T14:04:54Z</time>
      </trkpt>
      <trkpt lat="46.99879" lon="-1.07413">
        <ele>63</ele>
        <time>2023-03-04T14:05:00Z</time>
      </trkpt>
      <trkpt lat="46.99891" lon="-1.074">
        <ele>64</ele>
        <time>2023-03-04T14:05:03Z</time>
      </trkpt>
      <trkpt lat="46.99903" lon="-1.07381">
        <ele>65</ele>
        <time>2023-03-04T14:05:06Z</time>
      </trkpt>
      <trkpt lat="46.99907" lon="-1.07367">
        <ele>66</ele>
        <time>2023-03-04T14:05:08Z</time>
      </trkpt>
      <trkpt lat="46.99914" lon="-1.0734">
        <ele>68</ele>
        <time>2023-03-04T14:05:11Z</time>
      </trkpt>
      <trkpt lat="46.99918" lon="-1.07305">
        <ele>69</ele>
        <time>2023-03-04T14:05:15Z</time>
      </trkpt>
      <trkpt lat="46.99918" lon="-1.07284">
        <ele>70</ele>
        <time>2023-03-04T14:05:18Z</time>
      </trkpt>
      <trkpt lat="46.99905" lon="-1.07108">
        <ele>75</ele>
        <time>2023-03-04T14:05:39Z</time>
      </trkpt>
      <trkpt lat="46.99899" lon="-1.07079">
        <ele>76</ele>
        <time>2023-03-04T14:05:43Z</time>
      </trkpt>
      <trkpt lat="46.99891" lon="-1.07059">
        <ele>78</ele>
        <time>2023-03-04T14:05:46Z</time>
      </trkpt>
      <trkpt lat="46.99884" lon="-1.07049">
        <ele>78</ele>
        <time>2023-03-04T14:05:48Z</time>
      </trkpt>
      <trkpt lat="46.99869" lon="-1.07035">
        <ele>80</ele>
        <time>2023-03-04T14:05:51Z</time>
      </trkpt>
      <trkpt lat="46.99799" lon="-1.07011">
        <ele>82</ele>
        <time>2023-03-04T14:06:04Z</time>
      </trkpt>
      <trkpt lat="46.99775" lon="-1.06998">
        <ele>83</ele>
        <time>2023-03-04T14:06:08Z</time>
      </trkpt>
      <trkpt lat="46.99767" lon="-1.0699">
        <ele>83</ele>
        <time>2023-03-04T14:06:10Z</time>
      </trkpt>
      <trkpt lat="46.99758" lon="-1.0697">
        <ele>83</ele>
        <time>2023-03-04T14:06:13Z</time>
      </trkpt>
      <trkpt lat="46.99756" lon="-1.06959">
        <ele>83</ele>
        <time>2023-03-04T14:06:14Z</time>
      </trkpt>
      <trkpt lat="46.99755" lon="-1.06941">
        <ele>83</ele>
        <time>2023-03-04T14:06:16Z</time>
      </trkpt>
      <trkpt lat="46.99757" lon="-1.06861">
        <ele>83</ele>
        <time>2023-03-04T14:06:26Z</time>
      </trkpt>
      <trkpt lat="46.9976" lon="-1.0679">
        <ele>85</ele>
        <time>2023-03-04T14:06:35Z</time>
      </trkpt>
      <trkpt lat="46.99768" lon="-1.06735">
        <ele>86</ele>
        <time>2023-03-04T14:06:42Z</time>
      </trkpt>
      <trkpt lat="46.99769" lon="-1.06715">
        <ele>87</ele>
        <time>2023-03-04T14:06:44Z</time>
      </trkpt>
      <trkpt lat="46.99767" lon="-1.06696">
        <ele>87</ele>
        <time>2023-03-04T14:06:46Z</time>
      </trkpt>
      <trkpt lat="46.99758" lon="-1.06637">
        <ele>89</ele>
        <time>2023-03-04T14:06:54Z</time>
      </trkpt>
      <trkpt lat="46.99748" lon="-1.06583">
        <ele>90</ele>
        <time>2023-03-04T14:07:00Z</time>
      </trkpt>
      <trkpt lat="46.99738" lon="-1.0654">
        <ele>91</ele>
        <time>2023-03-04T14:07:06Z</time>
      </trkpt>
      <trkpt lat="46.99685" lon="-1.06362">
        <ele>97</ele>
        <time>2023-03-04T14:07:29Z</time>
      </trkpt>
      <trkpt lat="46.9966" lon="-1.06282">
        <ele>101</ele>
        <time>2023-03-04T14:07:40Z</time>
      </trkpt>
      <trkpt lat="46.99649" lon="-1.06253">
        <ele>102</ele>
        <time>2023-03-04T14:07:44Z</time>
      </trkpt>
      <trkpt lat="46.99606" lon="-1.06172">
        <ele>104</ele>
        <time>2023-03-04T14:07:57Z</time>
      </trkpt>
      <trkpt lat="46.99558" lon="-1.06094">
        <ele>104</ele>
        <time>2023-03-04T14:08:09Z</time>
      </trkpt>
      <trkpt lat="46.99511" lon="-1.06006">
        <ele>105</ele>
        <time>2023-03-04T14:08:23Z</time>
      </trkpt>
      <trkpt lat="46.99491" lon="-1.05978">
        <ele>105</ele>
        <time>2023-03-04T14:08:28Z</time>
      </trkpt>
      <trkpt lat="46.9944" lon="-1.05923">
        <ele>106</ele>
        <time>2023-03-04T14:08:39Z</time>
      </trkpt>
      <trkpt lat="46.99388" lon="-1.05855">
        <ele>108</ele>
        <time>2023-03-04T14:08:52Z</time>
      </trkpt>
      <trkpt lat="46.99366" lon="-1.05821">
        <ele>107</ele>
        <time>2023-03-04T14:08:57Z</time>
      </trkpt>
      <trkpt lat="46.99306" lon="-1.05705">
        <ele>102</ele>
        <time>2023-03-04T14:09:15Z</time>
      </trkpt>
      <trkpt lat="46.99281" lon="-1.05654">
        <ele>101</ele>
        <time>2023-03-04T14:09:23Z</time>
      </trkpt>
      <trkpt lat="46.99259" lon="-1.05603">
        <ele>100</ele>
        <time>2023-03-04T14:09:30Z</time>
      </trkpt>
      <trkpt lat="46.99248" lon="-1.05573">
        <ele>100</ele>
        <time>2023-03-04T14:09:34Z</time>
      </trkpt>
      <trkpt lat="46.99241" lon="-1.05529">
        <ele>101</ele>
        <time>2023-03-04T14:09:39Z</time>
      </trkpt>
      <trkpt lat="46.9923" lon="-1.05411">
        <ele>102</ele>
        <time>2023-03-04T14:09:54Z</time>
      </trkpt>
      <trkpt lat="46.99224" lon="-1.05287">
        <ele>105</ele>
        <time>2023-03-04T14:10:09Z</time>
      </trkpt>
      <trkpt lat="46.99222" lon="-1.05085">
        <ele>112</ele>
        <time>2023-03-04T14:10:34Z</time>
      </trkpt>
      <trkpt lat="46.99224" lon="-1.05055">
        <ele>113</ele>
        <time>2023-03-04T14:10:37Z</time>
      </trkpt>
      <trkpt lat="46.99228" lon="-1.0504">
        <ele>114</ele>
        <time>2023-03-04T14:10:39Z</time>
      </trkpt>
      <trkpt lat="46.99222" lon="-1.05026">
        <ele>115</ele>
        <time>2023-03-04T14:10:41Z</time>
      </trkpt>
      <trkpt lat="46.99196" lon="-1.04936">
        <ele>120</ele>
        <time>2023-03-04T14:10:53Z</time>
      </trkpt>
      <trkpt lat="46.9919" lon="-1.0487">
        <ele>123</ele>
        <time>2023-03-04T14:11:01Z</time>
      </trkpt>
      <trkpt lat="46.99188" lon="-1.04842">
        <ele>124</ele>
        <time>2023-03-04T14:11:05Z</time>
      </trkpt>
      <trkpt lat="46.99179" lon="-1.04773">
        <ele>129</ele>
        <time>2023-03-04T14:11:13Z</time>
      </trkpt>
      <trkpt lat="46.99156" lon="-1.04656">
        <ele>134</ele>
        <time>2023-03-04T14:11:28Z</time>
      </trkpt>
      <trkpt lat="46.99155" lon="-1.04638">
        <ele>134</ele>
        <time>2023-03-04T14:11:30Z</time>
      </trkpt>
      <trkpt lat="46.99157" lon="-1.04601">
        <ele>134</ele>
        <time>2023-03-04T14:11:35Z</time>
      </trkpt>
      <trkpt lat="46.9916" lon="-1.04581">
        <ele>135</ele>
        <time>2023-03-04T14:11:37Z</time>
      </trkpt>
      <trkpt lat="46.9917" lon="-1.04504">
        <ele>134</ele>
        <time>2023-03-04T14:11:47Z</time>
      </trkpt>
      <trkpt lat="46.99171" lon="-1.04457">
        <ele>134</ele>
        <time>2023-03-04T14:11:52Z</time>
      </trkpt>
      <trkpt lat="46.99165" lon="-1.04453">
        <ele>134</ele>
        <time>2023-03-04T14:11:53Z</time>
      </trkpt>
      <trkpt lat="46.99163" lon="-1.04443">
        <ele>134</ele>
        <time>2023-03-04T14:11:55Z</time>
      </trkpt>
      <trkpt lat="46.99166" lon="-1.04437">
        <ele>134</ele>
        <time>2023-03-04T14:11:56Z</time>
      </trkpt>
      <trkpt lat="46.99171" lon="-1.04434">
        <ele>134</ele>
        <time>2023-03-04T14:11:57Z</time>
      </trkpt>
      <trkpt lat="46.99177" lon="-1.04439">
        <ele>134</ele>
        <time>2023-03-04T14:11:58Z</time>
      </trkpt>
      <trkpt lat="46.99206" lon="-1.04403">
        <ele>134</ele>
        <time>2023-03-04T14:12:04Z</time>
      </trkpt>
      <trkpt lat="46.99234" lon="-1.04386">
        <ele>133</ele>
        <time>2023-03-04T14:12:10Z</time>
      </trkpt>
      <trkpt lat="46.9926" lon="-1.04364">
        <ele>134</ele>
        <time>2023-03-04T14:12:15Z</time>
      </trkpt>
      <trkpt lat="46.99435" lon="-1.03806">
        <ele>139</ele>
        <time>2023-03-04T14:13:30Z</time>
      </trkpt>
      <trkpt lat="46.99442" lon="-1.03775">
        <ele>139</ele>
        <time>2023-03-04T14:13:34Z</time>
      </trkpt>
      <trkpt lat="46.99456" lon="-1.03733">
        <ele>139</ele>
        <time>2023-03-04T14:13:39Z</time>
      </trkpt>
      <trkpt lat="46.99499" lon="-1.03609">
        <ele>138</ele>
        <time>2023-03-04T14:13:56Z</time>
      </trkpt>
      <trkpt lat="46.99537" lon="-1.03484">
        <ele>136</ele>
        <time>2023-03-04T14:14:13Z</time>
      </trkpt>
      <trkpt lat="46.99568" lon="-1.03374">
        <ele>133</ele>
        <time>2023-03-04T14:14:27Z</time>
      </trkpt>
      <trkpt lat="46.99598" lon="-1.03252">
        <ele>133</ele>
        <time>2023-03-04T14:14:43Z</time>
      </trkpt>
      <trkpt lat="46.99611" lon="-1.03216">
        <ele>132</ele>
        <time>2023-03-04T14:14:48Z</time>
      </trkpt>
      <trkpt lat="46.99627" lon="-1.0319">
        <ele>131</ele>
        <time>2023-03-04T14:14:52Z</time>
      </trkpt>
      <trkpt lat="46.99649" lon="-1.0317">
        <ele>130</ele>
        <time>2023-03-04T14:14:57Z</time>
      </trkpt>
      <trkpt lat="46.99754" lon="-1.03108">
        <ele>125</ele>
        <time>2023-03-04T14:15:17Z</time>
      </trkpt>
      <trkpt lat="46.99764" lon="-1.03098">
        <ele>125</ele>
        <time>2023-03-04T14:15:19Z</time>
      </trkpt>
      <trkpt lat="46.99773" lon="-1.03085">
        <ele>124</ele>
        <time>2023-03-04T14:15:21Z</time>
      </trkpt>
      <trkpt lat="46.99783" lon="-1.03062">
        <ele>124</ele>
        <time>2023-03-04T14:15:25Z</time>
      </trkpt>
      <trkpt lat="46.99796" lon="-1.0301">
        <ele>123</ele>
        <time>2023-03-04T14:15:31Z</time>
      </trkpt>
      <trkpt lat="46.99887" lon="-1.0259">
        <ele>113</ele>
        <time>2023-03-04T14:16:25Z</time>
      </trkpt>
      <trkpt lat="46.99898" lon="-1.02563">
        <ele>113</ele>
        <time>2023-03-04T14:16:29Z</time>
      </trkpt>
      <trkpt lat="46.9991" lon="-1.02548">
        <ele>113</ele>
        <time>2023-03-04T14:16:32Z</time>
      </trkpt>
      <trkpt lat="46.9995" lon="-1.02524">
        <ele>111</ele>
        <time>2023-03-04T14:16:39Z</time>
      </trkpt>
      <trkpt lat="47.00031" lon="-1.02493">
        <ele>107</ele>
        <time>2023-03-04T14:16:54Z</time>
      </trkpt>
      <trkpt lat="47.00061" lon="-1.02486">
        <ele>106</ele>
        <time>2023-03-04T14:17:00Z</time>
      </trkpt>
      <trkpt lat="47.00103" lon="-1.02485">
        <ele>105</ele>
        <time>2023-03-04T14:17:07Z</time>
      </trkpt>
      <trkpt lat="47.00144" lon="-1.02496">
        <ele>104</ele>
        <time>2023-03-04T14:17:14Z</time>
      </trkpt>
      <trkpt lat="47.00158" lon="-1.02494">
        <ele>103</ele>
        <time>2023-03-04T14:17:17Z</time>
      </trkpt>
      <trkpt lat="47.00172" lon="-1.02485">
        <ele>103</ele>
        <time>2023-03-04T14:17:20Z</time>
      </trkpt>
      <trkpt lat="47.00193" lon="-1.02464">
        <ele>101</ele>
        <time>2023-03-04T14:17:24Z</time>
      </trkpt>
      <trkpt lat="47.00206" lon="-1.02455">
        <ele>100</ele>
        <time>2023-03-04T14:17:27Z</time>
      </trkpt>
      <trkpt lat="47.00252" lon="-1.02432">
        <ele>93</ele>
        <time>2023-03-04T14:17:35Z</time>
      </trkpt>
      <trkpt lat="47.00284" lon="-1.02397">
        <ele>90</ele>
        <time>2023-03-04T14:17:42Z</time>
      </trkpt>
      <trkpt lat="47.00291" lon="-1.02385">
        <ele>89</ele>
        <time>2023-03-04T14:17:44Z</time>
      </trkpt>
      <trkpt lat="47.00297" lon="-1.02369">
        <ele>89</ele>
        <time>2023-03-04T14:17:47Z</time>
      </trkpt>
      <trkpt lat="47.00299" lon="-1.0235">
        <ele>89</ele>
        <time>2023-03-04T14:17:49Z</time>
      </trkpt>
      <trkpt lat="47.00297" lon="-1.02307">
        <ele>91</ele>
        <time>2023-03-04T14:17:54Z</time>
      </trkpt>
      <trkpt lat="47.00298" lon="-1.02277">
        <ele>92</ele>
        <time>2023-03-04T14:17:58Z</time>
      </trkpt>
      <trkpt lat="47.00304" lon="-1.02257">
        <ele>91</ele>
        <time>2023-03-04T14:18:00Z</time>
      </trkpt>
      <trkpt lat="47.00329" lon="-1.02227">
        <ele>88</ele>
        <time>2023-03-04T14:18:06Z</time>
      </trkpt>
      <trkpt lat="47.0034" lon="-1.02208">
        <ele>85</ele>
        <time>2023-03-04T14:18:09Z</time>
      </trkpt>
      <trkpt lat="47.00343" lon="-1.022">
        <ele>85</ele>
        <time>2023-03-04T14:18:10Z</time>
      </trkpt>
      <trkpt lat="47.0035" lon="-1.02163">
        <ele>84</ele>
        <time>2023-03-04T14:18:15Z</time>
      </trkpt>
      <trkpt lat="47.00362" lon="-1.02075">
        <ele>80</ele>
        <time>2023-03-04T14:18:26Z</time>
      </trkpt>
      <trkpt lat="47.00367" lon="-1.02035">
        <ele>78</ele>
        <time>2023-03-04T14:18:31Z</time>
      </trkpt>
      <trkpt lat="47.0037" lon="-1.01999">
        <ele>77</ele>
        <time>2023-03-04T14:18:35Z</time>
      </trkpt>
      <trkpt lat="47.00367" lon="-1.01951">
        <ele>75</ele>
        <time>2023-03-04T14:18:41Z</time>
      </trkpt>
      <trkpt lat="47.0036" lon="-1.01908">
        <ele>73</ele>
        <time>2023-03-04T14:18:46Z</time>
      </trkpt>
      <trkpt lat="47.00341" lon="-1.01838">
        <ele>70</ele>
        <time>2023-03-04T14:18:56Z</time>
      </trkpt>
      <trkpt lat="47.00317" lon="-1.01771">
        <ele>68</ele>
        <time>2023-03-04T14:19:05Z</time>
      </trkpt>
      <trkpt lat="47.00301" lon="-1.01737">
        <ele>68</ele>
        <time>2023-03-04T14:19:10Z</time>
      </trkpt>
      <trkpt lat="47.00263" lon="-1.01676">
        <ele>68</ele>
        <time>2023-03-04T14:19:20Z</time>
      </trkpt>
      <trkpt lat="47.00255" lon="-1.0166">
        <ele>68</ele>
        <time>2023-03-04T14:19:22Z</time>
      </trkpt>
      <trkpt lat="47.0025" lon="-1.01645">
        <ele>67</ele>
        <time>2023-03-04T14:19:24Z</time>
      </trkpt>
      <trkpt lat="47.00248" lon="-1.01633">
        <ele>66</ele>
        <time>2023-03-04T14:19:26Z</time>
      </trkpt>
      <trkpt lat="47.00249" lon="-1.0161">
        <ele>63</ele>
        <time>2023-03-04T14:19:29Z</time>
      </trkpt>
      <trkpt lat="47.00253" lon="-1.01595">
        <ele>61</ele>
        <time>2023-03-04T14:19:30Z</time>
      </trkpt>
      <trkpt lat="47.00262" lon="-1.01575">
        <ele>60</ele>
        <time>2023-03-04T14:19:33Z</time>
      </trkpt>
      <trkpt lat="47.0029" lon="-1.01526">
        <ele>63</ele>
        <time>2023-03-04T14:19:41Z</time>
      </trkpt>
      <trkpt lat="47.00296" lon="-1.01512">
        <ele>64</ele>
        <time>2023-03-04T14:19:43Z</time>
      </trkpt>
      <trkpt lat="47.00299" lon="-1.015">
        <ele>65</ele>
        <time>2023-03-04T14:19:45Z</time>
      </trkpt>
      <trkpt lat="47.003" lon="-1.01481">
        <ele>66</ele>
        <time>2023-03-04T14:19:47Z</time>
      </trkpt>
      <trkpt lat="47.00298" lon="-1.01468">
        <ele>67</ele>
        <time>2023-03-04T14:19:49Z</time>
      </trkpt>
      <trkpt lat="47.00292" lon="-1.01455">
        <ele>67</ele>
        <time>2023-03-04T14:19:51Z</time>
      </trkpt>
      <trkpt lat="47.00261" lon="-1.0141">
        <ele>68</ele>
        <time>2023-03-04T14:19:58Z</time>
      </trkpt>
      <trkpt lat="47.0024" lon="-1.01375">
        <ele>68</ele>
        <time>2023-03-04T14:20:04Z</time>
      </trkpt>
      <trkpt lat="47.00225" lon="-1.01338">
        <ele>69</ele>
        <time>2023-03-04T14:20:09Z</time>
      </trkpt>
      <trkpt lat="47.0022" lon="-1.01315">
        <ele>68</ele>
        <time>2023-03-04T14:20:12Z</time>
      </trkpt>
      <trkpt lat="47.00219" lon="-1.01282">
        <ele>69</ele>
        <time>2023-03-04T14:20:16Z</time>
      </trkpt>
      <trkpt lat="47.00221" lon="-1.01257">
        <ele>70</ele>
        <time>2023-03-04T14:20:19Z</time>
      </trkpt>
      <trkpt lat="47.00226" lon="-1.01245">
        <ele>70</ele>
        <time>2023-03-04T14:20:21Z</time>
      </trkpt>
      <trkpt lat="47.00236" lon="-1.01234">
        <ele>71</ele>
        <time>2023-03-04T14:20:23Z</time>
      </trkpt>
      <trkpt lat="47.00284" lon="-1.01202">
        <ele>74</ele>
        <time>2023-03-04T14:20:32Z</time>
      </trkpt>
      <trkpt lat="47.00306" lon="-1.01183">
        <ele>76</ele>
        <time>2023-03-04T14:20:37Z</time>
      </trkpt>
      <trkpt lat="47.0033" lon="-1.01156">
        <ele>79</ele>
        <time>2023-03-04T14:20:42Z</time>
      </trkpt>
      <trkpt lat="47.00342" lon="-1.01134">
        <ele>80</ele>
        <time>2023-03-04T14:20:46Z</time>
      </trkpt>
      <trkpt lat="47.00368" lon="-1.01077">
        <ele>83</ele>
        <time>2023-03-04T14:20:54Z</time>
      </trkpt>
      <trkpt lat="47.0038" lon="-1.0106">
        <ele>84</ele>
        <time>2023-03-04T14:20:57Z</time>
      </trkpt>
      <trkpt lat="47.00467" lon="-1.00964">
        <ele>90</ele>
        <time>2023-03-04T14:21:17Z</time>
      </trkpt>
      <trkpt lat="47.00474" lon="-1.00952">
        <ele>90</ele>
        <time>2023-03-04T14:21:18Z</time>
      </trkpt>
      <trkpt lat="47.00481" lon="-1.00926">
        <ele>91</ele>
        <time>2023-03-04T14:21:22Z</time>
      </trkpt>
      <trkpt lat="47.00486" lon="-1.00871">
        <ele>92</ele>
        <time>2023-03-04T14:21:29Z</time>
      </trkpt>
      <trkpt lat="47.00489" lon="-1.0085">
        <ele>93</ele>
        <time>2023-03-04T14:21:31Z</time>
      </trkpt>
      <trkpt lat="47.00512" lon="-1.00783">
        <ele>95</ele>
        <time>2023-03-04T14:21:40Z</time>
      </trkpt>
      <trkpt lat="47.00534" lon="-1.00733">
        <ele>97</ele>
        <time>2023-03-04T14:21:47Z</time>
      </trkpt>
      <trkpt lat="47.00545" lon="-1.00716">
        <ele>97</ele>
        <time>2023-03-04T14:21:50Z</time>
      </trkpt>
      <trkpt lat="47.00567" lon="-1.00698">
        <ele>98</ele>
        <time>2023-03-04T14:21:55Z</time>
      </trkpt>
      <trkpt lat="47.006" lon="-1.00684">
        <ele>99</ele>
        <time>2023-03-04T14:22:01Z</time>
      </trkpt>
      <trkpt lat="47.00624" lon="-1.00669">
        <ele>101</ele>
        <time>2023-03-04T14:22:06Z</time>
      </trkpt>
      <trkpt lat="47.00641" lon="-1.00649">
        <ele>102</ele>
        <time>2023-03-04T14:22:09Z</time>
      </trkpt>
      <trkpt lat="47.00708" lon="-1.00548">
        <ele>108</ele>
        <time>2023-03-04T14:22:27Z</time>
      </trkpt>
      <trkpt lat="47.00729" lon="-1.0052">
        <ele>110</ele>
        <time>2023-03-04T14:22:32Z</time>
      </trkpt>
      <trkpt lat="47.00829" lon="-1.00393">
        <ele>116</ele>
        <time>2023-03-04T14:22:55Z</time>
      </trkpt>
      <trkpt lat="47.00787" lon="-1.00339">
        <ele>115</ele>
        <time>2023-03-04T14:23:05Z</time>
      </trkpt>
      <trkpt lat="47.00758" lon="-1.00307">
        <ele>115</ele>
        <time>2023-03-04T14:23:12Z</time>
      </trkpt>
      <trkpt lat="47.0072" lon="-1.00271">
        <ele>114</ele>
        <time>2023-03-04T14:23:20Z</time>
      </trkpt>
      <trkpt lat="47.00709" lon="-1.00253">
        <ele>114</ele>
        <time>2023-03-04T14:23:22Z</time>
      </trkpt>
      <trkpt lat="47.00668" lon="-1.00143">
        <ele>113</ele>
        <time>2023-03-04T14:23:38Z</time>
      </trkpt>
      <trkpt lat="47.00661" lon="-1.00112">
        <ele>113</ele>
        <time>2023-03-04T14:23:42Z</time>
      </trkpt>
      <trkpt lat="47.00656" lon="-1.00058">
        <ele>113</ele>
        <time>2023-03-04T14:23:48Z</time>
      </trkpt>
      <trkpt lat="47.00655" lon="-1.00001">
        <ele>113</ele>
        <time>2023-03-04T14:23:55Z</time>
      </trkpt>
      <trkpt lat="47.00658" lon="-0.99904">
        <ele>110</ele>
        <time>2023-03-04T14:24:07Z</time>
      </trkpt>
      <trkpt lat="47.00655" lon="-0.99832">
        <ele>109</ele>
        <time>2023-03-04T14:24:16Z</time>
      </trkpt>
      <trkpt lat="47.00651" lon="-0.99813">
        <ele>109</ele>
        <time>2023-03-04T14:24:18Z</time>
      </trkpt>
      <trkpt lat="47.00624" lon="-0.99736">
        <ele>107</ele>
        <time>2023-03-04T14:24:29Z</time>
      </trkpt>
      <trkpt lat="47.00609" lon="-0.99674">
        <ele>108</ele>
        <time>2023-03-04T14:24:37Z</time>
      </trkpt>
      <trkpt lat="47.00598" lon="-0.99604">
        <ele>108</ele>
        <time>2023-03-04T14:24:45Z</time>
      </trkpt>
      <trkpt lat="47.00588" lon="-0.9956">
        <ele>107</ele>
        <time>2023-03-04T14:24:51Z</time>
      </trkpt>
      <trkpt lat="47.00532" lon="-0.99426">
        <ele>106</ele>
        <time>2023-03-04T14:25:10Z</time>
      </trkpt>
      <trkpt lat="47.00522" lon="-0.99401">
        <ele>106</ele>
        <time>2023-03-04T14:25:14Z</time>
      </trkpt>
      <trkpt lat="47.00516" lon="-0.99374">
        <ele>107</ele>
        <time>2023-03-04T14:25:17Z</time>
      </trkpt>
      <trkpt lat="47.00513" lon="-0.99349">
        <ele>108</ele>
        <time>2023-03-04T14:25:20Z</time>
      </trkpt>
      <trkpt lat="47.00511" lon="-0.99304">
        <ele>110</ele>
        <time>2023-03-04T14:25:26Z</time>
      </trkpt>
      <trkpt lat="47.00512" lon="-0.99116">
        <ele>113</ele>
        <time>2023-03-04T14:25:48Z</time>
      </trkpt>
      <trkpt lat="47.00514" lon="-0.99097">
        <ele>113</ele>
        <time>2023-03-04T14:25:51Z</time>
      </trkpt>
      <trkpt lat="47.00519" lon="-0.99076">
        <ele>113</ele>
        <time>2023-03-04T14:25:53Z</time>
      </trkpt>
      <trkpt lat="47.00527" lon="-0.99059">
        <ele>113</ele>
        <time>2023-03-04T14:25:56Z</time>
      </trkpt>
      <trkpt lat="47.00547" lon="-0.99034">
        <ele>114</ele>
        <time>2023-03-04T14:26:01Z</time>
      </trkpt>
      <trkpt lat="47.00556" lon="-0.99021">
        <ele>114</ele>
        <time>2023-03-04T14:26:03Z</time>
      </trkpt>
      <trkpt lat="47.00562" lon="-0.99003">
        <ele>114</ele>
        <time>2023-03-04T14:26:05Z</time>
      </trkpt>
      <trkpt lat="47.00565" lon="-0.98963">
        <ele>113</ele>
        <time>2023-03-04T14:26:10Z</time>
      </trkpt>
      <trkpt lat="47.00565" lon="-0.98906">
        <ele>111</ele>
        <time>2023-03-04T14:26:17Z</time>
      </trkpt>
      <trkpt lat="47.00536" lon="-0.98707">
        <ele>111</ele>
        <time>2023-03-04T14:26:42Z</time>
      </trkpt>
      <trkpt lat="47.00536" lon="-0.98607">
        <ele>117</ele>
        <time>2023-03-04T14:26:54Z</time>
      </trkpt>
      <trkpt lat="47.00535" lon="-0.9859">
        <ele>117</ele>
        <time>2023-03-04T14:26:56Z</time>
      </trkpt>
      <trkpt lat="47.0053" lon="-0.9856">
        <ele>118</ele>
        <time>2023-03-04T14:27:00Z</time>
      </trkpt>
      <trkpt lat="47.00507" lon="-0.9849">
        <ele>119</ele>
        <time>2023-03-04T14:27:09Z</time>
      </trkpt>
      <trkpt lat="47.00484" lon="-0.98361">
        <ele>118</ele>
        <time>2023-03-04T14:27:25Z</time>
      </trkpt>
      <trkpt lat="47.0046" lon="-0.98283">
        <ele>117</ele>
        <time>2023-03-04T14:27:36Z</time>
      </trkpt>
      <trkpt lat="47.00454" lon="-0.98266">
        <ele>116</ele>
        <time>2023-03-04T14:27:38Z</time>
      </trkpt>
      <trkpt lat="47.00446" lon="-0.98252">
        <ele>116</ele>
        <time>2023-03-04T14:27:40Z</time>
      </trkpt>
      <trkpt lat="47.00377" lon="-0.98141">
        <ele>114</ele>
        <time>2023-03-04T14:27:58Z</time>
      </trkpt>
      <trkpt lat="47.00374" lon="-0.98127">
        <ele>114</ele>
        <time>2023-03-04T14:28:00Z</time>
      </trkpt>
      <trkpt lat="47.00373" lon="-0.98113">
        <ele>114</ele>
        <time>2023-03-04T14:28:02Z</time>
      </trkpt>
      <trkpt lat="47.00378" lon="-0.9806">
        <ele>116</ele>
        <time>2023-03-04T14:28:08Z</time>
      </trkpt>
      <trkpt lat="47.00375" lon="-0.98027">
        <ele>117</ele>
        <time>2023-03-04T14:28:12Z</time>
      </trkpt>
      <trkpt lat="47.00365" lon="-0.97993">
        <ele>119</ele>
        <time>2023-03-04T14:28:17Z</time>
      </trkpt>
      <trkpt lat="47.00265" lon="-0.97814">
        <ele>114</ele>
        <time>2023-03-04T14:28:45Z</time>
      </trkpt>
      <trkpt lat="47.0024" lon="-0.97769">
        <ele>115</ele>
        <time>2023-03-04T14:28:52Z</time>
      </trkpt>
      <trkpt lat="47.00221" lon="-0.97739">
        <ele>115</ele>
        <time>2023-03-04T14:28:57Z</time>
      </trkpt>
      <trkpt lat="47.0018" lon="-0.97691">
        <ele>115</ele>
        <time>2023-03-04T14:29:06Z</time>
      </trkpt>
      <trkpt lat="47.0017" lon="-0.97674">
        <ele>115</ele>
        <time>2023-03-04T14:29:09Z</time>
      </trkpt>
      <trkpt lat="47.00139" lon="-0.97603">
        <ele>117</ele>
        <time>2023-03-04T14:29:19Z</time>
      </trkpt>
      <trkpt lat="47.0013" lon="-0.97574">
        <ele>118</ele>
        <time>2023-03-04T14:29:23Z</time>
      </trkpt>
      <trkpt lat="47.00114" lon="-0.97512">
        <ele>118</ele>
        <time>2023-03-04T14:29:31Z</time>
      </trkpt>
      <trkpt lat="47.00111" lon="-0.97513">
        <ele>118</ele>
        <time>2023-03-04T14:29:32Z</time>
      </trkpt>
      <trkpt lat="47.00108" lon="-0.97507">
        <ele>118</ele>
        <time>2023-03-04T14:29:33Z</time>
      </trkpt>
      <trkpt lat="47.00108" lon="-0.97503">
        <ele>118</ele>
        <time>2023-03-04T14:29:33Z</time>
      </trkpt>
      <trkpt lat="47.00112" lon="-0.97497">
        <ele>118</ele>
        <time>2023-03-04T14:29:34Z</time>
      </trkpt>
      <trkpt lat="47.001" lon="-0.97432">
        <ele>117</ele>
        <time>2023-03-04T14:29:42Z</time>
      </trkpt>
      <trkpt lat="47.00095" lon="-0.97412">
        <ele>116</ele>
        <time>2023-03-04T14:29:45Z</time>
      </trkpt>
      <trkpt lat="47.00077" lon="-0.97357">
        <ele>115</ele>
        <time>2023-03-04T14:29:52Z</time>
      </trkpt>
      <trkpt lat="47.00053" lon="-0.97295">
        <ele>115</ele>
        <time>2023-03-04T14:30:01Z</time>
      </trkpt>
      <trkpt lat="47.00036" lon="-0.97261">
        <ele>115</ele>
        <time>2023-03-04T14:30:06Z</time>
      </trkpt>
      <trkpt lat="47.00029" lon="-0.9723">
        <ele>113</ele>
        <time>2023-03-04T14:30:10Z</time>
      </trkpt>
      <trkpt lat="47.00018" lon="-0.97169">
        <ele>109</ele>
        <time>2023-03-04T14:30:18Z</time>
      </trkpt>
      <trkpt lat="47.00007" lon="-0.97151">
        <ele>109</ele>
        <time>2023-03-04T14:30:21Z</time>
      </trkpt>
      <trkpt lat="46.99996" lon="-0.9714">
        <ele>108</ele>
        <time>2023-03-04T14:30:23Z</time>
      </trkpt>
      <trkpt lat="46.99983" lon="-0.97121">
        <ele>108</ele>
        <time>2023-03-04T14:30:26Z</time>
      </trkpt>
      <trkpt lat="46.99976" lon="-0.97104">
        <ele>107</ele>
        <time>2023-03-04T14:30:29Z</time>
      </trkpt>
      <trkpt lat="46.99964" lon="-0.97063">
        <ele>106</ele>
        <time>2023-03-04T14:30:34Z</time>
      </trkpt>
      <trkpt lat="46.99944" lon="-0.96973">
        <ele>100</ele>
        <time>2023-03-04T14:30:46Z</time>
      </trkpt>
      <trkpt lat="46.99935" lon="-0.96948">
        <ele>98</ele>
        <time>2023-03-04T14:30:49Z</time>
      </trkpt>
      <trkpt lat="46.99926" lon="-0.96928">
        <ele>96</ele>
        <time>2023-03-04T14:30:52Z</time>
      </trkpt>
      <trkpt lat="46.99883" lon="-0.96849">
        <ele>94</ele>
        <time>2023-03-04T14:31:04Z</time>
      </trkpt>
      <trkpt lat="46.99858" lon="-0.9682">
        <ele>92</ele>
        <time>2023-03-04T14:31:10Z</time>
      </trkpt>
      <trkpt lat="46.99844" lon="-0.96807">
        <ele>91</ele>
        <time>2023-03-04T14:31:13Z</time>
      </trkpt>
      <trkpt lat="46.99821" lon="-0.96804">
        <ele>91</ele>
        <time>2023-03-04T14:31:17Z</time>
      </trkpt>
      <trkpt lat="46.99788" lon="-0.96784">
        <ele>91</ele>
        <time>2023-03-04T14:31:23Z</time>
      </trkpt>
      <trkpt lat="46.99716" lon="-0.9671">
        <ele>83</ele>
        <time>2023-03-04T14:31:39Z</time>
      </trkpt>
      <trkpt lat="46.99701" lon="-0.96688">
        <ele>81</ele>
        <time>2023-03-04T14:31:43Z</time>
      </trkpt>
      <trkpt lat="46.99684" lon="-0.96675">
        <ele>79</ele>
        <time>2023-03-04T14:31:46Z</time>
      </trkpt>
      <trkpt lat="46.99668" lon="-0.96667">
        <ele>76</ele>
        <time>2023-03-04T14:31:49Z</time>
      </trkpt>
      <trkpt lat="46.99664" lon="-0.96661">
        <ele>76</ele>
        <time>2023-03-04T14:31:50Z</time>
      </trkpt>
      <trkpt lat="46.99653" lon="-0.96627">
        <ele>77</ele>
        <time>2023-03-04T14:31:55Z</time>
      </trkpt>
      <trkpt lat="46.99641" lon="-0.96597">
        <ele>78</ele>
        <time>2023-03-04T14:31:59Z</time>
      </trkpt>
      <trkpt lat="46.99627" lon="-0.96567">
        <ele>78</ele>
        <time>2023-03-04T14:32:03Z</time>
      </trkpt>
      <trkpt lat="46.99599" lon="-0.96519">
        <ele>75</ele>
        <time>2023-03-04T14:32:11Z</time>
      </trkpt>
      <trkpt lat="46.99578" lon="-0.96477">
        <ele>76</ele>
        <time>2023-03-04T14:32:17Z</time>
      </trkpt>
      <trkpt lat="46.99541" lon="-0.96382">
        <ele>80</ele>
        <time>2023-03-04T14:32:31Z</time>
      </trkpt>
      <trkpt lat="46.99507" lon="-0.96336">
        <ele>76</ele>
        <time>2023-03-04T14:32:39Z</time>
      </trkpt>
      <trkpt lat="46.9944" lon="-0.96095">
        <ele>79</ele>
        <time>2023-03-04T14:33:10Z</time>
      </trkpt>
      <trkpt lat="46.99435" lon="-0.96077">
        <ele>79</ele>
        <time>2023-03-04T14:33:13Z</time>
      </trkpt>
      <trkpt lat="46.99433" lon="-0.96063">
        <ele>79</ele>
        <time>2023-03-04T14:33:15Z</time>
      </trkpt>
      <trkpt lat="46.99433" lon="-0.96053">
        <ele>80</ele>
        <time>2023-03-04T14:33:16Z</time>
      </trkpt>
      <trkpt lat="46.99444" lon="-0.96024">
        <ele>84</ele>
        <time>2023-03-04T14:33:20Z</time>
      </trkpt>
      <trkpt lat="46.99459" lon="-0.95996">
        <ele>88</ele>
        <time>2023-03-04T14:33:24Z</time>
      </trkpt>
      <trkpt lat="46.99463" lon="-0.95996">
        <ele>89</ele>
        <time>2023-03-04T14:33:25Z</time>
      </trkpt>
      <trkpt lat="46.99472" lon="-0.95942">
        <ele>94</ele>
        <time>2023-03-04T14:33:32Z</time>
      </trkpt>
      <trkpt lat="46.99472" lon="-0.95923">
        <ele>95</ele>
        <time>2023-03-04T14:33:34Z</time>
      </trkpt>
      <trkpt lat="46.99463" lon="-0.95818">
        <ele>103</ele>
        <time>2023-03-04T14:33:47Z</time>
      </trkpt>
      <trkpt lat="46.99456" lon="-0.95786">
        <ele>104</ele>
        <time>2023-03-04T14:33:51Z</time>
      </trkpt>
      <trkpt lat="46.99446" lon="-0.95783">
        <ele>103</ele>
        <time>2023-03-04T14:33:53Z</time>
      </trkpt>
      <trkpt lat="46.99418" lon="-0.95781">
        <ele>101</ele>
        <time>2023-03-04T14:33:58Z</time>
      </trkpt>
      <trkpt lat="46.99414" lon="-0.9578">
        <ele>101</ele>
        <time>2023-03-04T14:33:58Z</time>
      </trkpt>
      <trkpt lat="46.9941" lon="-0.95776">
        <ele>101</ele>
        <time>2023-03-04T14:33:59Z</time>
      </trkpt>
      <trkpt lat="46.99407" lon="-0.95762">
        <ele>102</ele>
        <time>2023-03-04T14:34:01Z</time>
      </trkpt>
      <trkpt lat="46.99405" lon="-0.95743">
        <ele>103</ele>
        <time>2023-03-04T14:34:03Z</time>
      </trkpt>
      <trkpt lat="46.994" lon="-0.95658">
        <ele>104</ele>
        <time>2023-03-04T14:34:14Z</time>
      </trkpt>
      <trkpt lat="46.99393" lon="-0.95593">
        <ele>106</ele>
        <time>2023-03-04T14:34:22Z</time>
      </trkpt>
      <trkpt lat="46.9937" lon="-0.95606">
        <ele>107</ele>
        <time>2023-03-04T14:34:26Z</time>
      </trkpt>
      <trkpt lat="46.99302" lon="-0.95602">
        <ele>110</ele>
        <time>2023-03-04T14:34:38Z</time>
      </trkpt>
      <trkpt lat="46.99298" lon="-0.95601">
        <ele>110</ele>
        <time>2023-03-04T14:34:39Z</time>
      </trkpt>
      <trkpt lat="46.99274" lon="-0.95606">
        <ele>109</ele>
        <time>2023-03-04T14:34:43Z</time>
      </trkpt>
      <trkpt lat="46.99233" lon="-0.95545">
        <ele>112</ele>
        <time>2023-03-04T14:34:54Z</time>
      </trkpt>
      <trkpt lat="46.9923" lon="-0.9554">
        <ele>112</ele>
        <time>2023-03-04T14:34:54Z</time>
      </trkpt>
      <trkpt lat="46.99222" lon="-0.95498">
        <ele>115</ele>
        <time>2023-03-04T14:35:00Z</time>
      </trkpt>
      <trkpt lat="46.99218" lon="-0.95487">
        <ele>115</ele>
        <time>2023-03-04T14:35:01Z</time>
      </trkpt>
      <trkpt lat="46.99197" lon="-0.95466">
        <ele>115</ele>
        <time>2023-03-04T14:35:06Z</time>
      </trkpt>
      <trkpt lat="46.99176" lon="-0.95458">
        <ele>114</ele>
        <time>2023-03-04T14:35:10Z</time>
      </trkpt>
      <trkpt lat="46.99167" lon="-0.95461">
        <ele>113</ele>
        <time>2023-03-04T14:35:11Z</time>
      </trkpt>
      <trkpt lat="46.99137" lon="-0.95444">
        <ele>112</ele>
        <time>2023-03-04T14:35:17Z</time>
      </trkpt>
      <trkpt lat="46.99097" lon="-0.95462">
        <ele>108</ele>
        <time>2023-03-04T14:35:24Z</time>
      </trkpt>
      <trkpt lat="46.99074" lon="-0.95439">
        <ele>107</ele>
        <time>2023-03-04T14:35:29Z</time>
      </trkpt>
      <trkpt lat="46.99066" lon="-0.95417">
        <ele>108</ele>
        <time>2023-03-04T14:35:32Z</time>
      </trkpt>
      <trkpt lat="46.99" lon="-0.95436">
        <ele>102</ele>
        <time>2023-03-04T14:35:44Z</time>
      </trkpt>
      <trkpt lat="46.98942" lon="-0.95463">
        <ele>98</ele>
        <time>2023-03-04T14:35:55Z</time>
      </trkpt>
      <trkpt lat="46.98923" lon="-0.95478">
        <ele>96</ele>
        <time>2023-03-04T14:35:59Z</time>
      </trkpt>
      <trkpt lat="46.98914" lon="-0.95491">
        <ele>95</ele>
        <time>2023-03-04T14:36:01Z</time>
      </trkpt>
      <trkpt lat="46.9891" lon="-0.95503">
        <ele>94</ele>
        <time>2023-03-04T14:36:03Z</time>
      </trkpt>
      <trkpt lat="46.98905" lon="-0.95524">
        <ele>92</ele>
        <time>2023-03-04T14:36:06Z</time>
      </trkpt>
      <trkpt lat="46.989" lon="-0.95557">
        <ele>88</ele>
        <time>2023-03-04T14:36:10Z</time>
      </trkpt>
      <trkpt lat="46.98891" lon="-0.95586">
        <ele>86</ele>
        <time>2023-03-04T14:36:14Z</time>
      </trkpt>
      <trkpt lat="46.9888" lon="-0.95607">
        <ele>85</ele>
        <time>2023-03-04T14:36:17Z</time>
      </trkpt>
      <trkpt lat="46.9883" lon="-0.95662">
        <ele>85</ele>
        <time>2023-03-04T14:36:28Z</time>
      </trkpt>
      <trkpt lat="46.98822" lon="-0.95676">
        <ele>85</ele>
        <time>2023-03-04T14:36:30Z</time>
      </trkpt>
      <trkpt lat="46.98794" lon="-0.95734">
        <ele>82</ele>
        <time>2023-03-04T14:36:39Z</time>
      </trkpt>
      <trkpt lat="46.98771" lon="-0.95771">
        <ele>81</ele>
        <time>2023-03-04T14:36:45Z</time>
      </trkpt>
      <trkpt lat="46.98688" lon="-0.95864">
        <ele>77</ele>
        <time>2023-03-04T14:37:03Z</time>
      </trkpt>
      <trkpt lat="46.98678" lon="-0.95879">
        <ele>76</ele>
        <time>2023-03-04T14:37:06Z</time>
      </trkpt>
      <trkpt lat="46.98676" lon="-0.95888">
        <ele>75</ele>
        <time>2023-03-04T14:37:07Z</time>
      </trkpt>
      <trkpt lat="46.98673" lon="-0.95901">
        <ele>73</ele>
        <time>2023-03-04T14:37:09Z</time>
      </trkpt>
      <trkpt lat="46.98672" lon="-0.95922">
        <ele>71</ele>
        <time>2023-03-04T14:37:11Z</time>
      </trkpt>
      <trkpt lat="46.98683" lon="-0.96048">
        <ele>80</ele>
        <time>2023-03-04T14:37:27Z</time>
      </trkpt>
      <trkpt lat="46.98683" lon="-0.96049">
        <ele>80</ele>
        <time>2023-03-04T14:37:27Z</time>
      </trkpt>
      <trkpt lat="46.98681" lon="-0.96064">
        <ele>83</ele>
        <time>2023-03-04T14:37:29Z</time>
      </trkpt>
      <trkpt lat="46.98676" lon="-0.96077">
        <ele>85</ele>
        <time>2023-03-04T14:37:30Z</time>
      </trkpt>
      <trkpt lat="46.98673" lon="-0.96082">
        <ele>86</ele>
        <time>2023-03-04T14:37:31Z</time>
      </trkpt>
      <trkpt lat="46.9866" lon="-0.9609">
        <ele>88</ele>
        <time>2023-03-04T14:37:34Z</time>
      </trkpt>
      <trkpt lat="46.98628" lon="-0.96096">
        <ele>91</ele>
        <time>2023-03-04T14:37:40Z</time>
      </trkpt>
      <trkpt lat="46.98596" lon="-0.96095">
        <ele>93</ele>
        <time>2023-03-04T14:37:45Z</time>
      </trkpt>
      <trkpt lat="46.98578" lon="-0.96086">
        <ele>92</ele>
        <time>2023-03-04T14:37:49Z</time>
      </trkpt>
      <trkpt lat="46.98526" lon="-0.96035">
        <ele>88</ele>
        <time>2023-03-04T14:38:00Z</time>
      </trkpt>
      <trkpt lat="46.9852" lon="-0.96031">
        <ele>88</ele>
        <time>2023-03-04T14:38:01Z</time>
      </trkpt>
      <trkpt lat="46.98503" lon="-0.96028">
        <ele>90</ele>
        <time>2023-03-04T14:38:04Z</time>
      </trkpt>
      <trkpt lat="46.98487" lon="-0.96034">
        <ele>93</ele>
        <time>2023-03-04T14:38:07Z</time>
      </trkpt>
      <trkpt lat="46.98475" lon="-0.96048">
        <ele>97</ele>
        <time>2023-03-04T14:38:10Z</time>
      </trkpt>
      <trkpt lat="46.98469" lon="-0.96064">
        <ele>100</ele>
        <time>2023-03-04T14:38:12Z</time>
      </trkpt>
      <trkpt lat="46.98466" lon="-0.96089">
        <ele>103</ele>
        <time>2023-03-04T14:38:15Z</time>
      </trkpt>
      <trkpt lat="46.98473" lon="-0.96135">
        <ele>104</ele>
        <time>2023-03-04T14:38:21Z</time>
      </trkpt>
      <trkpt lat="46.98472" lon="-0.96148">
        <ele>105</ele>
        <time>2023-03-04T14:38:22Z</time>
      </trkpt>
      <trkpt lat="46.98467" lon="-0.96165">
        <ele>106</ele>
        <time>2023-03-04T14:38:24Z</time>
      </trkpt>
      <trkpt lat="46.98453" lon="-0.96184">
        <ele>108</ele>
        <time>2023-03-04T14:38:28Z</time>
      </trkpt>
      <trkpt lat="46.98409" lon="-0.96219">
        <ele>110</ele>
        <time>2023-03-04T14:38:37Z</time>
      </trkpt>
      <trkpt lat="46.97805" lon="-0.96554">
        <ele>129</ele>
        <time>2023-03-04T14:40:32Z</time>
      </trkpt>
      <trkpt lat="46.97622" lon="-0.96651">
        <ele>128</ele>
        <time>2023-03-04T14:41:06Z</time>
      </trkpt>
      <trkpt lat="46.97583" lon="-0.96677">
        <ele>129</ele>
        <time>2023-03-04T14:41:14Z</time>
      </trkpt>
      <trkpt lat="46.97575" lon="-0.96686">
        <ele>129</ele>
        <time>2023-03-04T14:41:16Z</time>
      </trkpt>
      <trkpt lat="46.9755" lon="-0.9673">
        <ele>129</ele>
        <time>2023-03-04T14:41:23Z</time>
      </trkpt>
      <trkpt lat="46.97537" lon="-0.96742">
        <ele>128</ele>
        <time>2023-03-04T14:41:25Z</time>
      </trkpt>
      <trkpt lat="46.97532" lon="-0.96756">
        <ele>128</ele>
        <time>2023-03-04T14:41:27Z</time>
      </trkpt>
      <trkpt lat="46.97529" lon="-0.96762">
        <ele>128</ele>
        <time>2023-03-04T14:41:28Z</time>
      </trkpt>
      <trkpt lat="46.97524" lon="-0.96795">
        <ele>128</ele>
        <time>2023-03-04T14:41:32Z</time>
      </trkpt>
      <trkpt lat="46.97513" lon="-0.96845">
        <ele>127</ele>
        <time>2023-03-04T14:41:39Z</time>
      </trkpt>
      <trkpt lat="46.97509" lon="-0.96884">
        <ele>127</ele>
        <time>2023-03-04T14:41:44Z</time>
      </trkpt>
      <trkpt lat="46.975" lon="-0.97154">
        <ele>124</ele>
        <time>2023-03-04T14:42:16Z</time>
      </trkpt>
      <trkpt lat="46.97484" lon="-0.97572">
        <ele>118</ele>
        <time>2023-03-04T14:43:07Z</time>
      </trkpt>
      <trkpt lat="46.9748" lon="-0.97633">
        <ele>114</ele>
        <time>2023-03-04T14:43:15Z</time>
      </trkpt>
      <trkpt lat="46.97476" lon="-0.9766">
        <ele>112</ele>
        <time>2023-03-04T14:43:18Z</time>
      </trkpt>
      <trkpt lat="46.97457" lon="-0.97762">
        <ele>107</ele>
        <time>2023-03-04T14:43:31Z</time>
      </trkpt>
      <trkpt lat="46.97441" lon="-0.97818">
        <ele>105</ele>
        <time>2023-03-04T14:43:38Z</time>
      </trkpt>
      <trkpt lat="46.97396" lon="-0.97943">
        <ele>111</ele>
        <time>2023-03-04T14:43:55Z</time>
      </trkpt>
      <trkpt lat="46.97346" lon="-0.98109">
        <ele>108</ele>
        <time>2023-03-04T14:44:17Z</time>
      </trkpt>
      <trkpt lat="46.97334" lon="-0.98139">
        <ele>109</ele>
        <time>2023-03-04T14:44:22Z</time>
      </trkpt>
      <trkpt lat="46.97323" lon="-0.98165">
        <ele>110</ele>
        <time>2023-03-04T14:44:25Z</time>
      </trkpt>
      <trkpt lat="46.97263" lon="-0.98275">
        <ele>110</ele>
        <time>2023-03-04T14:44:42Z</time>
      </trkpt>
      <trkpt lat="46.97252" lon="-0.983">
        <ele>111</ele>
        <time>2023-03-04T14:44:46Z</time>
      </trkpt>
      <trkpt lat="46.97234" lon="-0.98348">
        <ele>113</ele>
        <time>2023-03-04T14:44:53Z</time>
      </trkpt>
      <trkpt lat="46.97213" lon="-0.98423">
        <ele>117</ele>
        <time>2023-03-04T14:45:02Z</time>
      </trkpt>
      <trkpt lat="46.97202" lon="-0.98471">
        <ele>119</ele>
        <time>2023-03-04T14:45:09Z</time>
      </trkpt>
      <trkpt lat="46.97187" lon="-0.98527">
        <ele>120</ele>
        <time>2023-03-04T14:45:16Z</time>
      </trkpt>
      <trkpt lat="46.97178" lon="-0.98553">
        <ele>121</ele>
        <time>2023-03-04T14:45:19Z</time>
      </trkpt>
      <trkpt lat="46.97166" lon="-0.98577">
        <ele>122</ele>
        <time>2023-03-04T14:45:23Z</time>
      </trkpt>
      <trkpt lat="46.97151" lon="-0.98603">
        <ele>124</ele>
        <time>2023-03-04T14:45:27Z</time>
      </trkpt>
      <trkpt lat="46.97125" lon="-0.98635">
        <ele>126</ele>
        <time>2023-03-04T14:45:33Z</time>
      </trkpt>
      <trkpt lat="46.96987" lon="-0.98783">
        <ele>136</ele>
        <time>2023-03-04T14:46:04Z</time>
      </trkpt>
      <trkpt lat="46.96959" lon="-0.98817">
        <ele>139</ele>
        <time>2023-03-04T14:46:10Z</time>
      </trkpt>
      <trkpt lat="46.96855" lon="-0.98955">
        <ele>141</ele>
        <time>2023-03-04T14:46:35Z</time>
      </trkpt>
      <trkpt lat="46.96795" lon="-0.9904">
        <ele>142</ele>
        <time>2023-03-04T14:46:50Z</time>
      </trkpt>
      <trkpt lat="46.96717" lon="-0.99136">
        <ele>146</ele>
        <time>2023-03-04T14:47:08Z</time>
      </trkpt>
      <trkpt lat="46.9664" lon="-0.9924">
        <ele>150</ele>
        <time>2023-03-04T14:47:27Z</time>
      </trkpt>
      <trkpt lat="46.96551" lon="-0.99351">
        <ele>152</ele>
        <time>2023-03-04T14:47:48Z</time>
      </trkpt>
      <trkpt lat="46.9653" lon="-0.99372">
        <ele>152</ele>
        <time>2023-03-04T14:47:52Z</time>
      </trkpt>
      <trkpt lat="46.96518" lon="-0.99379">
        <ele>152</ele>
        <time>2023-03-04T14:47:54Z</time>
      </trkpt>
      <trkpt lat="46.96417" lon="-0.99411">
        <ele>152</ele>
        <time>2023-03-04T14:48:13Z</time>
      </trkpt>
      <trkpt lat="46.96278" lon="-0.99458">
        <ele>156</ele>
        <time>2023-03-04T14:48:38Z</time>
      </trkpt>
      <trkpt lat="46.96239" lon="-0.99469">
        <ele>157</ele>
        <time>2023-03-04T14:48:45Z</time>
      </trkpt>
      <trkpt lat="46.96206" lon="-0.99474">
        <ele>157</ele>
        <time>2023-03-04T14:48:51Z</time>
      </trkpt>
      <trkpt lat="46.9618" lon="-0.99488">
        <ele>158</ele>
        <time>2023-03-04T14:48:56Z</time>
      </trkpt>
      <trkpt lat="46.96163" lon="-0.99491">
        <ele>158</ele>
        <time>2023-03-04T14:48:59Z</time>
      </trkpt>
      <trkpt lat="46.96156" lon="-0.99494">
        <ele>158</ele>
        <time>2023-03-04T14:49:00Z</time>
      </trkpt>
      <trkpt lat="46.9615" lon="-0.995">
        <ele>158</ele>
        <time>2023-03-04T14:49:02Z</time>
      </trkpt>
      <trkpt lat="46.96144" lon="-0.99511">
        <ele>158</ele>
        <time>2023-03-04T14:49:03Z</time>
      </trkpt>
      <trkpt lat="46.96141" lon="-0.99523">
        <ele>158</ele>
        <time>2023-03-04T14:49:05Z</time>
      </trkpt>
      <trkpt lat="46.96141" lon="-0.99537">
        <ele>159</ele>
        <time>2023-03-04T14:49:07Z</time>
      </trkpt>
      <trkpt lat="46.96129" lon="-0.99551">
        <ele>159</ele>
        <time>2023-03-04T14:49:09Z</time>
      </trkpt>
      <trkpt lat="46.95976" lon="-0.9977">
        <ele>163</ele>
        <time>2023-03-04T14:49:47Z</time>
      </trkpt>
      <trkpt lat="46.95947" lon="-0.99821">
        <ele>165</ele>
        <time>2023-03-04T14:49:55Z</time>
      </trkpt>
      <trkpt lat="46.95882" lon="-0.99938">
        <ele>169</ele>
        <time>2023-03-04T14:50:14Z</time>
      </trkpt>
      <trkpt lat="46.95808" lon="-1.0007">
        <ele>175</ele>
        <time>2023-03-04T14:50:35Z</time>
      </trkpt>
      <trkpt lat="46.95788" lon="-1.00099">
        <ele>176</ele>
        <time>2023-03-04T14:50:40Z</time>
      </trkpt>
      <trkpt lat="46.95778" lon="-1.00111">
        <ele>177</ele>
        <time>2023-03-04T14:50:42Z</time>
      </trkpt>
      <trkpt lat="46.95726" lon="-1.00158">
        <ele>179</ele>
        <time>2023-03-04T14:50:53Z</time>
      </trkpt>
      <trkpt lat="46.95562" lon="-1.00297">
        <ele>183</ele>
        <time>2023-03-04T14:51:26Z</time>
      </trkpt>
      <trkpt lat="46.95526" lon="-1.00339">
        <ele>182</ele>
        <time>2023-03-04T14:51:35Z</time>
      </trkpt>
      <trkpt lat="46.95499" lon="-1.00379">
        <ele>183</ele>
        <time>2023-03-04T14:51:41Z</time>
      </trkpt>
      <trkpt lat="46.95471" lon="-1.00429">
        <ele>184</ele>
        <time>2023-03-04T14:51:49Z</time>
      </trkpt>
      <trkpt lat="46.95426" lon="-1.00525">
        <ele>186</ele>
        <time>2023-03-04T14:52:03Z</time>
      </trkpt>
      <trkpt lat="46.95405" lon="-1.00582">
        <ele>186</ele>
        <time>2023-03-04T14:52:11Z</time>
      </trkpt>
      <trkpt lat="46.95356" lon="-1.00737">
        <ele>191</ele>
        <time>2023-03-04T14:52:32Z</time>
      </trkpt>
      <trkpt lat="46.95345" lon="-1.00759">
        <ele>192</ele>
        <time>2023-03-04T14:52:35Z</time>
      </trkpt>
      <trkpt lat="46.95304" lon="-1.00824">
        <ele>194</ele>
        <time>2023-03-04T14:52:46Z</time>
      </trkpt>
      <trkpt lat="46.95281" lon="-1.0085">
        <ele>195</ele>
        <time>2023-03-04T14:52:51Z</time>
      </trkpt>
      <trkpt lat="46.95249" lon="-1.0087">
        <ele>196</ele>
        <time>2023-03-04T14:52:57Z</time>
      </trkpt>
      <trkpt lat="46.95221" lon="-1.00896">
        <ele>197</ele>
        <time>2023-03-04T14:53:03Z</time>
      </trkpt>
      <trkpt lat="46.95219" lon="-1.00907">
        <ele>197</ele>
        <time>2023-03-04T14:53:05Z</time>
      </trkpt>
      <trkpt lat="46.95213" lon="-1.00918">
        <ele>197</ele>
        <time>2023-03-04T14:53:06Z</time>
      </trkpt>
      <trkpt lat="46.95204" lon="-1.00924">
        <ele>197</ele>
        <time>2023-03-04T14:53:08Z</time>
      </trkpt>
      <trkpt lat="46.95198" lon="-1.00925">
        <ele>197</ele>
        <time>2023-03-04T14:53:09Z</time>
      </trkpt>
      <trkpt lat="46.95188" lon="-1.00935">
        <ele>197</ele>
        <time>2023-03-04T14:53:11Z</time>
      </trkpt>
      <trkpt lat="46.95178" lon="-1.00957">
        <ele>197</ele>
        <time>2023-03-04T14:53:15Z</time>
      </trkpt>
      <trkpt lat="46.95176" lon="-1.00984">
        <ele>197</ele>
        <time>2023-03-04T14:53:18Z</time>
      </trkpt>
      <trkpt lat="46.95178" lon="-1.00999">
        <ele>197</ele>
        <time>2023-03-04T14:53:20Z</time>
      </trkpt>
      <trkpt lat="46.95188" lon="-1.01045">
        <ele>198</ele>
        <time>2023-03-04T14:53:26Z</time>
      </trkpt>
      <trkpt lat="46.9519" lon="-1.01074">
        <ele>199</ele>
        <time>2023-03-04T14:53:29Z</time>
      </trkpt>
      <trkpt lat="46.95181" lon="-1.01149">
        <ele>200</ele>
        <time>2023-03-04T14:53:38Z</time>
      </trkpt>
      <trkpt lat="46.95177" lon="-1.01204">
        <ele>200</ele>
        <time>2023-03-04T14:53:45Z</time>
      </trkpt>
      <trkpt lat="46.95176" lon="-1.01268">
        <ele>199</ele>
        <time>2023-03-04T14:53:53Z</time>
      </trkpt>
      <trkpt lat="46.95177" lon="-1.01292">
        <ele>199</ele>
        <time>2023-03-04T14:53:56Z</time>
      </trkpt>
      <trkpt lat="46.95184" lon="-1.01366">
        <ele>197</ele>
        <time>2023-03-04T14:54:05Z</time>
      </trkpt>
      <trkpt lat="46.95224" lon="-1.01621">
        <ele>184</ele>
        <time>2023-03-04T14:54:37Z</time>
      </trkpt>
      <trkpt lat="46.95233" lon="-1.01708">
        <ele>179</ele>
        <time>2023-03-04T14:54:47Z</time>
      </trkpt>
      <trkpt lat="46.95233" lon="-1.0176">
        <ele>177</ele>
        <time>2023-03-04T14:54:54Z</time>
      </trkpt>
      <trkpt lat="46.95225" lon="-1.02086">
        <ele>165</ele>
        <time>2023-03-04T14:55:33Z</time>
      </trkpt>
      <trkpt lat="46.95218" lon="-1.02159">
        <ele>163</ele>
        <time>2023-03-04T14:55:42Z</time>
      </trkpt>
      <trkpt lat="46.95207" lon="-1.02233">
        <ele>162</ele>
        <time>2023-03-04T14:55:51Z</time>
      </trkpt>
      <trkpt lat="46.95182" lon="-1.02359">
        <ele>161</ele>
        <time>2023-03-04T14:56:07Z</time>
      </trkpt>
      <trkpt lat="46.95174" lon="-1.02388">
        <ele>160</ele>
        <time>2023-03-04T14:56:11Z</time>
      </trkpt>
      <trkpt lat="46.95146" lon="-1.02475">
        <ele>159</ele>
        <time>2023-03-04T14:56:23Z</time>
      </trkpt>
      <trkpt lat="46.94897" lon="-1.03175">
        <ele>145</ele>
        <time>2023-03-04T14:57:59Z</time>
      </trkpt>
      <trkpt lat="46.94867" lon="-1.03276">
        <ele>146</ele>
        <time>2023-03-04T14:58:12Z</time>
      </trkpt>
      <trkpt lat="46.94856" lon="-1.0333">
        <ele>145</ele>
        <time>2023-03-04T14:58:19Z</time>
      </trkpt>
      <trkpt lat="46.94825" lon="-1.03496">
        <ele>137</ele>
        <time>2023-03-04T14:58:40Z</time>
      </trkpt>
      <trkpt lat="46.94822" lon="-1.03518">
        <ele>137</ele>
        <time>2023-03-04T14:58:43Z</time>
      </trkpt>
      <trkpt lat="46.94791" lon="-1.03696">
        <ele>135</ele>
        <time>2023-03-04T14:59:05Z</time>
      </trkpt>
      <trkpt lat="46.94784" lon="-1.0375">
        <ele>135</ele>
        <time>2023-03-04T14:59:12Z</time>
      </trkpt>
      <trkpt lat="46.94784" lon="-1.03803">
        <ele>136</ele>
        <time>2023-03-04T14:59:18Z</time>
      </trkpt>
      <trkpt lat="46.9479" lon="-1.04181">
        <ele>142</ele>
        <time>2023-03-04T15:00:04Z</time>
      </trkpt>
      <trkpt lat="46.94787" lon="-1.04229">
        <ele>143</ele>
        <time>2023-03-04T15:00:10Z</time>
      </trkpt>
      <trkpt lat="46.9478" lon="-1.04275">
        <ele>145</ele>
        <time>2023-03-04T15:00:16Z</time>
      </trkpt>
      <trkpt lat="46.94766" lon="-1.04328">
        <ele>147</ele>
        <time>2023-03-04T15:00:22Z</time>
      </trkpt>
      <trkpt lat="46.94757" lon="-1.04354">
        <ele>147</ele>
        <time>2023-03-04T15:00:26Z</time>
      </trkpt>
      <trkpt lat="46.94734" lon="-1.04414">
        <ele>150</ele>
        <time>2023-03-04T15:00:34Z</time>
      </trkpt>
      <trkpt lat="46.94508" lon="-1.04954">
        <ele>161</ele>
        <time>2023-03-04T15:01:51Z</time>
      </trkpt>
      <trkpt lat="46.94492" lon="-1.04996">
        <ele>161</ele>
        <time>2023-03-04T15:01:57Z</time>
      </trkpt>
      <trkpt lat="46.94486" lon="-1.05017">
        <ele>161</ele>
        <time>2023-03-04T15:02:00Z</time>
      </trkpt>
      <trkpt lat="46.94453" lon="-1.05184">
        <ele>163</ele>
        <time>2023-03-04T15:02:21Z</time>
      </trkpt>
      <trkpt lat="46.94435" lon="-1.05254">
        <ele>166</ele>
        <time>2023-03-04T15:02:30Z</time>
      </trkpt>
      <trkpt lat="46.94411" lon="-1.05338">
        <ele>167</ele>
        <time>2023-03-04T15:02:41Z</time>
      </trkpt>
      <trkpt lat="46.94343" lon="-1.05593">
        <ele>157</ele>
        <time>2023-03-04T15:03:14Z</time>
      </trkpt>
      <trkpt lat="46.94337" lon="-1.05622">
        <ele>155</ele>
        <time>2023-03-04T15:03:18Z</time>
      </trkpt>
      <trkpt lat="46.94331" lon="-1.05662">
        <ele>153</ele>
        <time>2023-03-04T15:03:23Z</time>
      </trkpt>
      <trkpt lat="46.94327" lon="-1.05719">
        <ele>153</ele>
        <time>2023-03-04T15:03:30Z</time>
      </trkpt>
      <trkpt lat="46.94329" lon="-1.05765">
        <ele>153</ele>
        <time>2023-03-04T15:03:36Z</time>
      </trkpt>
      <trkpt lat="46.94338" lon="-1.05835">
        <ele>153</ele>
        <time>2023-03-04T15:03:44Z</time>
      </trkpt>
      <trkpt lat="46.94373" lon="-1.06082">
        <ele>150</ele>
        <time>2023-03-04T15:04:15Z</time>
      </trkpt>
      <trkpt lat="46.94375" lon="-1.06107">
        <ele>150</ele>
        <time>2023-03-04T15:04:18Z</time>
      </trkpt>
      <trkpt lat="46.94375" lon="-1.06117">
        <ele>149</ele>
        <time>2023-03-04T15:04:19Z</time>
      </trkpt>
      <trkpt lat="46.94371" lon="-1.06143">
        <ele>149</ele>
        <time>2023-03-04T15:04:22Z</time>
      </trkpt>
      <trkpt lat="46.94335" lon="-1.06243">
        <ele>147</ele>
        <time>2023-03-04T15:04:36Z</time>
      </trkpt>
      <trkpt lat="46.94283" lon="-1.06378">
        <ele>147</ele>
        <time>2023-03-04T15:04:55Z</time>
      </trkpt>
      <trkpt lat="46.94274" lon="-1.06399">
        <ele>147</ele>
        <time>2023-03-04T15:04:58Z</time>
      </trkpt>
      <trkpt lat="46.94257" lon="-1.0643">
        <ele>148</ele>
        <time>2023-03-04T15:05:03Z</time>
      </trkpt>
      <trkpt lat="46.94251" lon="-1.06444">
        <ele>148</ele>
        <time>2023-03-04T15:05:05Z</time>
      </trkpt>
      <trkpt lat="46.9418" lon="-1.06406">
        <ele>151</ele>
        <time>2023-03-04T15:05:18Z</time>
      </trkpt>
      <trkpt lat="46.94158" lon="-1.06392">
        <ele>152</ele>
        <time>2023-03-04T15:05:23Z</time>
      </trkpt>
      <trkpt lat="46.94152" lon="-1.06385">
        <ele>153</ele>
        <time>2023-03-04T15:05:24Z</time>
      </trkpt>
      <trkpt lat="46.94129" lon="-1.06343">
        <ele>155</ele>
        <time>2023-03-04T15:05:30Z</time>
      </trkpt>
      <trkpt lat="46.94113" lon="-1.06323">
        <ele>156</ele>
        <time>2023-03-04T15:05:34Z</time>
      </trkpt>
      <trkpt lat="46.94055" lon="-1.06279">
        <ele>160</ele>
        <time>2023-03-04T15:05:46Z</time>
      </trkpt>
      <trkpt lat="46.94025" lon="-1.06262">
        <ele>162</ele>
        <time>2023-03-04T15:05:52Z</time>
      </trkpt>
      <trkpt lat="46.93954" lon="-1.06226">
        <ele>163</ele>
        <time>2023-03-04T15:06:05Z</time>
      </trkpt>
      <trkpt lat="46.93925" lon="-1.06205">
        <ele>164</ele>
        <time>2023-03-04T15:06:11Z</time>
      </trkpt>
      <trkpt lat="46.93905" lon="-1.06187">
        <ele>164</ele>
        <time>2023-03-04T15:06:15Z</time>
      </trkpt>
      <trkpt lat="46.9387" lon="-1.06147">
        <ele>166</ele>
        <time>2023-03-04T15:06:23Z</time>
      </trkpt>
      <trkpt lat="46.93847" lon="-1.06118">
        <ele>167</ele>
        <time>2023-03-04T15:06:28Z</time>
      </trkpt>
      <trkpt lat="46.93826" lon="-1.06084">
        <ele>169</ele>
        <time>2023-03-04T15:06:34Z</time>
      </trkpt>
      <trkpt lat="46.938" lon="-1.0603">
        <ele>170</ele>
        <time>2023-03-04T15:06:42Z</time>
      </trkpt>
      <trkpt lat="46.93788" lon="-1.05996">
        <ele>171</ele>
        <time>2023-03-04T15:06:46Z</time>
      </trkpt>
      <trkpt lat="46.93782" lon="-1.05971">
        <ele>172</ele>
        <time>2023-03-04T15:06:50Z</time>
      </trkpt>
      <trkpt lat="46.93767" lon="-1.05887">
        <ele>173</ele>
        <time>2023-03-04T15:07:00Z</time>
      </trkpt>
      <trkpt lat="46.9376" lon="-1.05862">
        <ele>173</ele>
        <time>2023-03-04T15:07:03Z</time>
      </trkpt>
      <trkpt lat="46.93745" lon="-1.05826">
        <ele>173</ele>
        <time>2023-03-04T15:07:09Z</time>
      </trkpt>
      <trkpt lat="46.9373" lon="-1.05799">
        <ele>175</ele>
        <time>2023-03-04T15:07:13Z</time>
      </trkpt>
      <trkpt lat="46.93716" lon="-1.0578">
        <ele>176</ele>
        <time>2023-03-04T15:07:16Z</time>
      </trkpt>
      <trkpt lat="46.93688" lon="-1.05752">
        <ele>177</ele>
        <time>2023-03-04T15:07:22Z</time>
      </trkpt>
      <trkpt lat="46.93628" lon="-1.05709">
        <ele>181</ele>
        <time>2023-03-04T15:07:34Z</time>
      </trkpt>
      <trkpt lat="46.93582" lon="-1.0568">
        <ele>184</ele>
        <time>2023-03-04T15:07:43Z</time>
      </trkpt>
      <trkpt lat="46.93562" lon="-1.0567">
        <ele>184</ele>
        <time>2023-03-04T15:07:47Z</time>
      </trkpt>
      <trkpt lat="46.93514" lon="-1.05652">
        <ele>186</ele>
        <time>2023-03-04T15:07:56Z</time>
      </trkpt>
      <trkpt lat="46.93427" lon="-1.05625">
        <ele>187</ele>
        <time>2023-03-04T15:08:11Z</time>
      </trkpt>
      <trkpt lat="46.9335" lon="-1.05592">
        <ele>185</ele>
        <time>2023-03-04T15:08:26Z</time>
      </trkpt>
      <trkpt lat="46.93186" lon="-1.05513">
        <ele>181</ele>
        <time>2023-03-04T15:08:56Z</time>
      </trkpt>
      <trkpt lat="46.9318" lon="-1.05526">
        <ele>180</ele>
        <time>2023-03-04T15:08:58Z</time>
      </trkpt>
      <trkpt lat="46.93169" lon="-1.05533">
        <ele>180</ele>
        <time>2023-03-04T15:09:00Z</time>
      </trkpt>
      <trkpt lat="46.93162" lon="-1.05533">
        <ele>179</ele>
        <time>2023-03-04T15:09:02Z</time>
      </trkpt>
      <trkpt lat="46.93155" lon="-1.05529">
        <ele>179</ele>
        <time>2023-03-04T15:09:03Z</time>
      </trkpt>
      <trkpt lat="46.9315" lon="-1.05523">
        <ele>179</ele>
        <time>2023-03-04T15:09:04Z</time>
      </trkpt>
      <trkpt lat="46.93145" lon="-1.05508">
        <ele>180</ele>
        <time>2023-03-04T15:09:06Z</time>
      </trkpt>
      <trkpt lat="46.93146" lon="-1.05491">
        <ele>181</ele>
        <time>2023-03-04T15:09:08Z</time>
      </trkpt>
      <trkpt lat="46.92727" lon="-1.05287">
        <ele>176</ele>
        <time>2023-03-04T15:10:27Z</time>
      </trkpt>
      <trkpt lat="46.92188" lon="-1.05024">
        <ele>160</ele>
        <time>2023-03-04T15:12:08Z</time>
      </trkpt>
      <trkpt lat="46.9206" lon="-1.0496">
        <ele>155</ele>
        <time>2023-03-04T15:12:32Z</time>
      </trkpt>
      <trkpt lat="46.91893" lon="-1.0488">
        <ele>150</ele>
        <time>2023-03-04T15:13:03Z</time>
      </trkpt>
      <trkpt lat="46.91797" lon="-1.04831">
        <ele>146</ele>
        <time>2023-03-04T15:13:21Z</time>
      </trkpt>
      <trkpt lat="46.91719" lon="-1.04789">
        <ele>142</ele>
        <time>2023-03-04T15:13:36Z</time>
      </trkpt>
      <trkpt lat="46.91622" lon="-1.04732">
        <ele>138</ele>
        <time>2023-03-04T15:13:55Z</time>
      </trkpt>
      <trkpt lat="46.91185" lon="-1.04517">
        <ele>122</ele>
        <time>2023-03-04T15:15:17Z</time>
      </trkpt>
      <trkpt lat="46.91153" lon="-1.04501">
        <ele>121</ele>
        <time>2023-03-04T15:15:23Z</time>
      </trkpt>
      <trkpt lat="46.91105" lon="-1.04479">
        <ele>118</ele>
        <time>2023-03-04T15:15:32Z</time>
      </trkpt>
      <trkpt lat="46.91055" lon="-1.04461">
        <ele>115</ele>
        <time>2023-03-04T15:15:41Z</time>
      </trkpt>
      <trkpt lat="46.90992" lon="-1.04444">
        <ele>112</ele>
        <time>2023-03-04T15:15:52Z</time>
      </trkpt>
      <trkpt lat="46.90965" lon="-1.0444">
        <ele>114</ele>
        <time>2023-03-04T15:15:57Z</time>
      </trkpt>
      <trkpt lat="46.9091" lon="-1.04436">
        <ele>117</ele>
        <time>2023-03-04T15:16:07Z</time>
      </trkpt>
      <trkpt lat="46.90865" lon="-1.04437">
        <ele>120</ele>
        <time>2023-03-04T15:16:15Z</time>
      </trkpt>
      <trkpt lat="46.90698" lon="-1.04449">
        <ele>123</ele>
        <time>2023-03-04T15:16:45Z</time>
      </trkpt>
      <trkpt lat="46.9058" lon="-1.04454">
        <ele>123</ele>
        <time>2023-03-04T15:17:06Z</time>
      </trkpt>
      <trkpt lat="46.90535" lon="-1.0445">
        <ele>121</ele>
        <time>2023-03-04T15:17:14Z</time>
      </trkpt>
      <trkpt lat="46.90491" lon="-1.04443">
        <ele>120</ele>
        <time>2023-03-04T15:17:22Z</time>
      </trkpt>
      <trkpt lat="46.90409" lon="-1.0442">
        <ele>121</ele>
        <time>2023-03-04T15:17:36Z</time>
      </trkpt>
      <trkpt lat="46.90342" lon="-1.04391">
        <ele>120</ele>
        <time>2023-03-04T15:17:49Z</time>
      </trkpt>
      <trkpt lat="46.90231" lon="-1.04339">
        <ele>118</ele>
        <time>2023-03-04T15:18:10Z</time>
      </trkpt>
      <trkpt lat="46.9021" lon="-1.04339">
        <ele>118</ele>
        <time>2023-03-04T15:18:13Z</time>
      </trkpt>
      <trkpt lat="46.90198" lon="-1.04344">
        <ele>118</ele>
        <time>2023-03-04T15:18:16Z</time>
      </trkpt>
      <trkpt lat="46.90192" lon="-1.04357">
        <ele>118</ele>
        <time>2023-03-04T15:18:18Z</time>
      </trkpt>
      <trkpt lat="46.90189" lon="-1.0436">
        <ele>118</ele>
        <time>2023-03-04T15:18:18Z</time>
      </trkpt>
      <trkpt lat="46.90181" lon="-1.04365">
        <ele>118</ele>
        <time>2023-03-04T15:18:20Z</time>
      </trkpt>
      <trkpt lat="46.90175" lon="-1.04365">
        <ele>118</ele>
        <time>2023-03-04T15:18:21Z</time>
      </trkpt>
      <trkpt lat="46.90167" lon="-1.04362">
        <ele>118</ele>
        <time>2023-03-04T15:18:22Z</time>
      </trkpt>
      <trkpt lat="46.90158" lon="-1.04354">
        <ele>118</ele>
        <time>2023-03-04T15:18:24Z</time>
      </trkpt>
      <trkpt lat="46.90154" lon="-1.04343">
        <ele>118</ele>
        <time>2023-03-04T15:18:26Z</time>
      </trkpt>
      <trkpt lat="46.90152" lon="-1.04331">
        <ele>119</ele>
        <time>2023-03-04T15:18:27Z</time>
      </trkpt>
      <trkpt lat="46.9012" lon="-1.04304">
        <ele>120</ele>
        <time>2023-03-04T15:18:34Z</time>
      </trkpt>
      <trkpt lat="46.89875" lon="-1.0419">
        <ele>119</ele>
        <time>2023-03-04T15:19:19Z</time>
      </trkpt>
      <trkpt lat="46.89639" lon="-1.04059">
        <ele>117</ele>
        <time>2023-03-04T15:20:04Z</time>
      </trkpt>
      <trkpt lat="46.89114" lon="-1.03776">
        <ele>114</ele>
        <time>2023-03-04T15:21:44Z</time>
      </trkpt>
      <trkpt lat="46.89083" lon="-1.03757">
        <ele>115</ele>
        <time>2023-03-04T15:21:50Z</time>
      </trkpt>
      <trkpt lat="46.89054" lon="-1.03735">
        <ele>115</ele>
        <time>2023-03-04T15:21:56Z</time>
      </trkpt>
      <trkpt lat="46.88904" lon="-1.03612">
        <ele>111</ele>
        <time>2023-03-04T15:22:26Z</time>
      </trkpt>
      <trkpt lat="46.8891" lon="-1.03601">
        <ele>112</ele>
        <time>2023-03-04T15:22:28Z</time>
      </trkpt>
      <trkpt lat="46.88906" lon="-1.03583">
        <ele>112</ele>
        <time>2023-03-04T15:22:30Z</time>
      </trkpt>
      <trkpt lat="46.88906" lon="-1.03576">
        <ele>112</ele>
        <time>2023-03-04T15:22:31Z</time>
      </trkpt>
      <trkpt lat="46.88894" lon="-1.03553">
        <ele>112</ele>
        <time>2023-03-04T15:22:35Z</time>
      </trkpt>
      <trkpt lat="46.88884" lon="-1.03551">
        <ele>112</ele>
        <time>2023-03-04T15:22:36Z</time>
      </trkpt>
      <trkpt lat="46.88876" lon="-1.03542">
        <ele>112</ele>
        <time>2023-03-04T15:22:38Z</time>
      </trkpt>
      <trkpt lat="46.88863" lon="-1.03553">
        <ele>112</ele>
        <time>2023-03-04T15:22:41Z</time>
      </trkpt>
      <trkpt lat="46.88857" lon="-1.03516">
        <ele>112</ele>
        <time>2023-03-04T15:22:46Z</time>
      </trkpt>
      <trkpt lat="46.8885" lon="-1.03489">
        <ele>113</ele>
        <time>2023-03-04T15:22:49Z</time>
      </trkpt>
      <trkpt lat="46.88845" lon="-1.03458">
        <ele>114</ele>
        <time>2023-03-04T15:22:53Z</time>
      </trkpt>
      <trkpt lat="46.88842" lon="-1.03427">
        <ele>115</ele>
        <time>2023-03-04T15:22:57Z</time>
      </trkpt>
      <trkpt lat="46.88846" lon="-1.0329">
        <ele>119</ele>
        <time>2023-03-04T15:23:13Z</time>
      </trkpt>
      <trkpt lat="46.88845" lon="-1.03241">
        <ele>120</ele>
        <time>2023-03-04T15:23:19Z</time>
      </trkpt>
      <trkpt lat="46.8884" lon="-1.03196">
        <ele>121</ele>
        <time>2023-03-04T15:23:25Z</time>
      </trkpt>
      <trkpt lat="46.88831" lon="-1.0314">
        <ele>122</ele>
        <time>2023-03-04T15:23:32Z</time>
      </trkpt>
      <trkpt lat="46.88819" lon="-1.03102">
        <ele>122</ele>
        <time>2023-03-04T15:23:37Z</time>
      </trkpt>
      <trkpt lat="46.88803" lon="-1.03063">
        <ele>123</ele>
        <time>2023-03-04T15:23:43Z</time>
      </trkpt>
      <trkpt lat="46.88785" lon="-1.03027">
        <ele>123</ele>
        <time>2023-03-04T15:23:48Z</time>
      </trkpt>
      <trkpt lat="46.88769" lon="-1.03">
        <ele>124</ele>
        <time>2023-03-04T15:23:52Z</time>
      </trkpt>
      <trkpt lat="46.8875" lon="-1.02974">
        <ele>125</ele>
        <time>2023-03-04T15:23:57Z</time>
      </trkpt>
      <trkpt lat="46.88723" lon="-1.02946">
        <ele>126</ele>
        <time>2023-03-04T15:24:03Z</time>
      </trkpt>
      <trkpt lat="46.88692" lon="-1.02919">
        <ele>126</ele>
        <time>2023-03-04T15:24:09Z</time>
      </trkpt>
      <trkpt lat="46.88196" lon="-1.02544">
        <ele>119</ele>
        <time>2023-03-04T15:25:49Z</time>
      </trkpt>
      <trkpt lat="46.88189" lon="-1.02554">
        <ele>119</ele>
        <time>2023-03-04T15:25:50Z</time>
      </trkpt>
      <trkpt lat="46.8818" lon="-1.02555">
        <ele>119</ele>
        <time>2023-03-04T15:25:52Z</time>
      </trkpt>
      <trkpt lat="46.88172" lon="-1.02546">
        <ele>119</ele>
        <time>2023-03-04T15:25:54Z</time>
      </trkpt>
      <trkpt lat="46.8817" lon="-1.0254">
        <ele>119</ele>
        <time>2023-03-04T15:25:55Z</time>
      </trkpt>
      <trkpt lat="46.88171" lon="-1.02526">
        <ele>119</ele>
        <time>2023-03-04T15:25:56Z</time>
      </trkpt>
      <trkpt lat="46.87724" lon="-1.02188">
        <ele>116</ele>
        <time>2023-03-04T15:27:26Z</time>
      </trkpt>
      <trkpt lat="46.87704" lon="-1.02165">
        <ele>116</ele>
        <time>2023-03-04T15:27:30Z</time>
      </trkpt>
      <trkpt lat="46.87698" lon="-1.02173">
        <ele>116</ele>
        <time>2023-03-04T15:27:32Z</time>
      </trkpt>
      <trkpt lat="46.87689" lon="-1.02171">
        <ele>116</ele>
        <time>2023-03-04T15:27:33Z</time>
      </trkpt>
      <trkpt lat="46.87684" lon="-1.02159">
        <ele>116</ele>
        <time>2023-03-04T15:27:35Z</time>
      </trkpt>
      <trkpt lat="46.87685" lon="-1.0215">
        <ele>116</ele>
        <time>2023-03-04T15:27:36Z</time>
      </trkpt>
      <trkpt lat="46.87667" lon="-1.02144">
        <ele>116</ele>
        <time>2023-03-04T15:27:39Z</time>
      </trkpt>
      <trkpt lat="46.87456" lon="-1.01984">
        <ele>110</ele>
        <time>2023-03-04T15:28:22Z</time>
      </trkpt>
      <trkpt lat="46.87393" lon="-1.01939">
        <ele>110</ele>
        <time>2023-03-04T15:28:34Z</time>
      </trkpt>
      <trkpt lat="46.87229" lon="-1.01816">
        <ele>113</ele>
        <time>2023-03-04T15:29:07Z</time>
      </trkpt>
      <trkpt lat="46.87081" lon="-1.01707">
        <ele>111</ele>
        <time>2023-03-04T15:29:37Z</time>
      </trkpt>
      <trkpt lat="46.87078" lon="-1.01712">
        <ele>111</ele>
        <time>2023-03-04T15:29:37Z</time>
      </trkpt>
      <trkpt lat="46.87075" lon="-1.01712">
        <ele>110</ele>
        <time>2023-03-04T15:29:38Z</time>
      </trkpt>
      <trkpt lat="46.87073" lon="-1.01709">
        <ele>110</ele>
        <time>2023-03-04T15:29:38Z</time>
      </trkpt>
      <trkpt lat="46.87072" lon="-1.01706">
        <ele>110</ele>
        <time>2023-03-04T15:29:39Z</time>
      </trkpt>
      <trkpt lat="46.87073" lon="-1.01702">
        <ele>110</ele>
        <time>2023-03-04T15:29:39Z</time>
      </trkpt>
      <trkpt lat="46.87077" lon="-1.017">
        <ele>110</ele>
        <time>2023-03-04T15:29:40Z</time>
      </trkpt>
      <trkpt lat="46.87103" lon="-1.01544">
        <ele>108</ele>
        <time>2023-03-04T15:30:00Z</time>
      </trkpt>
      <trkpt lat="46.87107" lon="-1.01537">
        <ele>109</ele>
        <time>2023-03-04T15:30:01Z</time>
      </trkpt>
      <trkpt lat="46.8711" lon="-1.01428">
        <ele>107</ele>
        <time>2023-03-04T15:30:14Z</time>
      </trkpt>
      <trkpt lat="46.87115" lon="-1.0134">
        <ele>108</ele>
        <time>2023-03-04T15:30:25Z</time>
      </trkpt>
      <trkpt lat="46.87115" lon="-1.0132">
        <ele>108</ele>
        <time>2023-03-04T15:30:27Z</time>
      </trkpt>
      <trkpt lat="46.87114" lon="-1.01307">
        <ele>108</ele>
        <time>2023-03-04T15:30:29Z</time>
      </trkpt>
      <trkpt lat="46.8704" lon="-1.0106">
        <ele>102</ele>
        <time>2023-03-04T15:31:02Z</time>
      </trkpt>
      <trkpt lat="46.87006" lon="-1.00942">
        <ele>102</ele>
        <time>2023-03-04T15:31:17Z</time>
      </trkpt>
      <trkpt lat="46.87" lon="-1.00931">
        <ele>103</ele>
        <time>2023-03-04T15:31:19Z</time>
      </trkpt>
      <trkpt lat="46.86999" lon="-1.00914">
        <ele>103</ele>
        <time>2023-03-04T15:31:21Z</time>
      </trkpt>
      <trkpt lat="46.86983" lon="-1.00859">
        <ele>105</ele>
        <time>2023-03-04T15:31:28Z</time>
      </trkpt>
      <trkpt lat="46.86948" lon="-1.00671">
        <ele>109</ele>
        <time>2023-03-04T15:31:52Z</time>
      </trkpt>
      <trkpt lat="46.86937" lon="-1.00661">
        <ele>109</ele>
        <time>2023-03-04T15:31:54Z</time>
      </trkpt>
      <trkpt lat="46.86853" lon="-1.00633">
        <ele>112</ele>
        <time>2023-03-04T15:32:10Z</time>
      </trkpt>
      <trkpt lat="46.86836" lon="-1.00634">
        <ele>112</ele>
        <time>2023-03-04T15:32:13Z</time>
      </trkpt>
      <trkpt lat="46.86765" lon="-1.00654">
        <ele>111</ele>
        <time>2023-03-04T15:32:25Z</time>
      </trkpt>
      <trkpt lat="46.86714" lon="-1.00674">
        <ele>111</ele>
        <time>2023-03-04T15:32:35Z</time>
      </trkpt>
      <trkpt lat="46.86712" lon="-1.00666">
        <ele>111</ele>
        <time>2023-03-04T15:32:36Z</time>
      </trkpt>
      <trkpt lat="46.86708" lon="-1.0066">
        <ele>111</ele>
        <time>2023-03-04T15:32:37Z</time>
      </trkpt>
      <trkpt lat="46.86664" lon="-1.00646">
        <ele>111</ele>
        <time>2023-03-04T15:32:45Z</time>
      </trkpt>
      <trkpt lat="46.86595" lon="-1.00621">
        <ele>116</ele>
        <time>2023-03-04T15:32:58Z</time>
      </trkpt>
      <trkpt lat="46.86573" lon="-1.00609">
        <ele>117</ele>
        <time>2023-03-04T15:33:02Z</time>
      </trkpt>
      <trkpt lat="46.86523" lon="-1.00577">
        <ele>118</ele>
        <time>2023-03-04T15:33:11Z</time>
      </trkpt>
      <trkpt lat="46.86495" lon="-1.00567">
        <ele>119</ele>
        <time>2023-03-04T15:33:17Z</time>
      </trkpt>
      <trkpt lat="46.86461" lon="-1.00561">
        <ele>120</ele>
        <time>2023-03-04T15:33:23Z</time>
      </trkpt>
      <trkpt lat="46.86426" lon="-1.00564">
        <ele>120</ele>
        <time>2023-03-04T15:33:29Z</time>
      </trkpt>
      <trkpt lat="46.86391" lon="-1.00556">
        <ele>120</ele>
        <time>2023-03-04T15:33:35Z</time>
      </trkpt>
      <trkpt lat="46.86381" lon="-1.00562">
        <ele>120</ele>
        <time>2023-03-04T15:33:37Z</time>
      </trkpt>
      <trkpt lat="46.8637" lon="-1.00575">
        <ele>120</ele>
        <time>2023-03-04T15:33:40Z</time>
      </trkpt>
    </trkseg>
  </trk>
</gpx>